<?xml version="1.0" encoding="UTF-8" standalone="no" ?>
<gpx xmlns="http://www.topografix.com/GPX/1/1" xmlns:xsi="http://www.w3.org/2001/XMLSchema-instance" xsi:schemaLocation="http://www.topografix.com/GPX/1/1 http://www.topografix.com/GPX/1/1/gpx.xsd" version="1.1" creator="VisuGPX - https://www.visugpx.com">
  <metadata>
    <name>Sentier de l'Osu - Piscia di Ghjaddu (A/R)</name>
    <desc><![CDATA[Sentier de l'Osu jusqu'à la cascade de Piscia di Ghjaddu en A/R depuis la prise d'eau à l'extrémité de la piste de l'Osu]]></desc>
  </metadata>
  <trk>
    <name><![CDATA[2021-05-08 15:04:21]]></name>
    <extensions>
      <line xmlns="http://www.topografix.com/GPX/gpx_style/0/2">
        <color>0000FF</color>
        <width>4</width>
      </line>
    </extensions>
    <trkseg>
      <trkpt lat="41.68842" lon="9.26382">
        <ele>202.57</ele>
        <time>2021-05-08T06:35:12Z</time>
      </trkpt>
      <trkpt lat="41.68842" lon="9.26381">
        <ele>202.6</ele>
        <time>2021-05-08T06:35:13Z</time>
      </trkpt>
      <trkpt lat="41.6885" lon="9.26378">
        <ele>203.38</ele>
        <time>2021-05-08T06:35:36Z</time>
      </trkpt>
      <trkpt lat="41.68851" lon="9.2638">
        <ele>203.38</ele>
        <time>2021-05-08T06:36:05Z</time>
      </trkpt>
      <trkpt lat="41.68858" lon="9.2638">
        <ele>203.37</ele>
        <time>2021-05-08T06:36:25Z</time>
      </trkpt>
      <trkpt lat="41.6886" lon="9.2638">
        <ele>203.37</ele>
        <time>2021-05-08T06:36:43Z</time>
      </trkpt>
      <trkpt lat="41.68859" lon="9.26379">
        <ele>203.37</ele>
        <time>2021-05-08T06:37:00Z</time>
      </trkpt>
      <trkpt lat="41.68857" lon="9.26378">
        <ele>203.38</ele>
        <time>2021-05-08T06:37:02Z</time>
      </trkpt>
      <trkpt lat="41.68853" lon="9.26379">
        <ele>203.39</ele>
        <time>2021-05-08T06:37:12Z</time>
      </trkpt>
      <trkpt lat="41.68846" lon="9.26379">
        <ele>203.38</ele>
        <time>2021-05-08T06:37:20Z</time>
      </trkpt>
      <trkpt lat="41.68838" lon="9.26378">
        <ele>203.39</ele>
        <time>2021-05-08T06:37:30Z</time>
      </trkpt>
      <trkpt lat="41.68825" lon="9.26376">
        <ele>205.21</ele>
        <time>2021-05-08T06:37:45Z</time>
      </trkpt>
      <trkpt lat="41.68812" lon="9.26371">
        <ele>206.69</ele>
        <time>2021-05-08T06:37:58Z</time>
      </trkpt>
      <trkpt lat="41.68799" lon="9.26357">
        <ele>207.47</ele>
        <time>2021-05-08T06:38:15Z</time>
      </trkpt>
      <trkpt lat="41.68791" lon="9.26351">
        <ele>207.51</ele>
        <time>2021-05-08T06:38:23Z</time>
      </trkpt>
      <trkpt lat="41.68781" lon="9.26338">
        <ele>208.41</ele>
        <time>2021-05-08T06:38:39Z</time>
      </trkpt>
      <trkpt lat="41.68777" lon="9.26331">
        <ele>210.26</ele>
        <time>2021-05-08T06:38:55Z</time>
      </trkpt>
      <trkpt lat="41.6878" lon="9.26319">
        <ele>213.8</ele>
        <time>2021-05-08T06:39:12Z</time>
      </trkpt>
      <trkpt lat="41.68782" lon="9.26308">
        <ele>216.33</ele>
        <time>2021-05-08T06:39:29Z</time>
      </trkpt>
      <trkpt lat="41.68787" lon="9.26299">
        <ele>217.05</ele>
        <time>2021-05-08T06:39:45Z</time>
      </trkpt>
      <trkpt lat="41.68792" lon="9.26292">
        <ele>219.55</ele>
        <time>2021-05-08T06:40:02Z</time>
      </trkpt>
      <trkpt lat="41.68788" lon="9.2628">
        <ele>222.28</ele>
        <time>2021-05-08T06:40:20Z</time>
      </trkpt>
      <trkpt lat="41.68788" lon="9.26266">
        <ele>224.72</ele>
        <time>2021-05-08T06:40:36Z</time>
      </trkpt>
      <trkpt lat="41.68782" lon="9.26255">
        <ele>227.05</ele>
        <time>2021-05-08T06:40:53Z</time>
      </trkpt>
      <trkpt lat="41.68779" lon="9.26242">
        <ele>228.03</ele>
        <time>2021-05-08T06:41:14Z</time>
      </trkpt>
      <trkpt lat="41.68775" lon="9.26231">
        <ele>229.77</ele>
        <time>2021-05-08T06:41:28Z</time>
      </trkpt>
      <trkpt lat="41.6877" lon="9.2622">
        <ele>230.52</ele>
        <time>2021-05-08T06:41:39Z</time>
      </trkpt>
      <trkpt lat="41.68765" lon="9.26209">
        <ele>231.32</ele>
        <time>2021-05-08T06:41:53Z</time>
      </trkpt>
      <trkpt lat="41.68764" lon="9.26205">
        <ele>232.16</ele>
        <time>2021-05-08T06:42:06Z</time>
      </trkpt>
      <trkpt lat="41.68762" lon="9.26195">
        <ele>232.19</ele>
        <time>2021-05-08T06:42:29Z</time>
      </trkpt>
      <trkpt lat="41.68759" lon="9.26186">
        <ele>233.17</ele>
        <time>2021-05-08T06:42:40Z</time>
      </trkpt>
      <trkpt lat="41.68756" lon="9.26179">
        <ele>233.99</ele>
        <time>2021-05-08T06:42:55Z</time>
      </trkpt>
      <trkpt lat="41.68753" lon="9.26169">
        <ele>233.97</ele>
        <time>2021-05-08T06:43:04Z</time>
      </trkpt>
      <trkpt lat="41.6875" lon="9.26159">
        <ele>234.72</ele>
        <time>2021-05-08T06:43:14Z</time>
      </trkpt>
      <trkpt lat="41.68741" lon="9.26149">
        <ele>236.31</ele>
        <time>2021-05-08T06:43:28Z</time>
      </trkpt>
      <trkpt lat="41.68732" lon="9.26141">
        <ele>236.19</ele>
        <time>2021-05-08T06:43:40Z</time>
      </trkpt>
      <trkpt lat="41.68731" lon="9.26134">
        <ele>236.16</ele>
        <time>2021-05-08T06:43:45Z</time>
      </trkpt>
      <trkpt lat="41.68729" lon="9.26129">
        <ele>233.54</ele>
        <time>2021-05-08T06:43:53Z</time>
      </trkpt>
      <trkpt lat="41.68725" lon="9.26132">
        <ele>231.55</ele>
        <time>2021-05-08T06:44:02Z</time>
      </trkpt>
      <trkpt lat="41.68719" lon="9.26119">
        <ele>229.83</ele>
        <time>2021-05-08T06:44:15Z</time>
      </trkpt>
      <trkpt lat="41.68717" lon="9.26112">
        <ele>229.12</ele>
        <time>2021-05-08T06:44:30Z</time>
      </trkpt>
      <trkpt lat="41.68717" lon="9.26098">
        <ele>229.09</ele>
        <time>2021-05-08T06:44:42Z</time>
      </trkpt>
      <trkpt lat="41.68714" lon="9.26091">
        <ele>228.15</ele>
        <time>2021-05-08T06:44:48Z</time>
      </trkpt>
      <trkpt lat="41.68714" lon="9.26089">
        <ele>228.16</ele>
        <time>2021-05-08T06:44:50Z</time>
      </trkpt>
      <trkpt lat="41.68712" lon="9.2608">
        <ele>228.18</ele>
        <time>2021-05-08T06:44:57Z</time>
      </trkpt>
      <trkpt lat="41.68711" lon="9.26065">
        <ele>228.26</ele>
        <time>2021-05-08T06:45:12Z</time>
      </trkpt>
      <trkpt lat="41.68711" lon="9.26049">
        <ele>228.25</ele>
        <time>2021-05-08T06:45:25Z</time>
      </trkpt>
      <trkpt lat="41.68711" lon="9.26047">
        <ele>228.25</ele>
        <time>2021-05-08T06:45:27Z</time>
      </trkpt>
      <trkpt lat="41.68706" lon="9.26032">
        <ele>228.25</ele>
        <time>2021-05-08T06:45:40Z</time>
      </trkpt>
      <trkpt lat="41.68705" lon="9.26026">
        <ele>228.26</ele>
        <time>2021-05-08T06:45:45Z</time>
      </trkpt>
      <trkpt lat="41.68697" lon="9.26018">
        <ele>228.28</ele>
        <time>2021-05-08T06:45:56Z</time>
      </trkpt>
      <trkpt lat="41.68691" lon="9.26012">
        <ele>228.28</ele>
        <time>2021-05-08T06:46:05Z</time>
      </trkpt>
      <trkpt lat="41.68685" lon="9.26005">
        <ele>228.29</ele>
        <time>2021-05-08T06:46:13Z</time>
      </trkpt>
      <trkpt lat="41.68678" lon="9.25994">
        <ele>227.54</ele>
        <time>2021-05-08T06:46:26Z</time>
      </trkpt>
      <trkpt lat="41.6867" lon="9.25985">
        <ele>227.53</ele>
        <time>2021-05-08T06:46:37Z</time>
      </trkpt>
      <trkpt lat="41.68662" lon="9.25972">
        <ele>227.46</ele>
        <time>2021-05-08T06:46:50Z</time>
      </trkpt>
      <trkpt lat="41.6866" lon="9.25965">
        <ele>227.48</ele>
        <time>2021-05-08T06:46:57Z</time>
      </trkpt>
      <trkpt lat="41.68655" lon="9.25951">
        <ele>226.76</ele>
        <time>2021-05-08T06:47:08Z</time>
      </trkpt>
      <trkpt lat="41.68653" lon="9.25949">
        <ele>226.75</ele>
        <time>2021-05-08T06:47:10Z</time>
      </trkpt>
      <trkpt lat="41.68651" lon="9.25948">
        <ele>226.76</ele>
        <time>2021-05-08T06:47:12Z</time>
      </trkpt>
      <trkpt lat="41.68646" lon="9.25938">
        <ele>225.53</ele>
        <time>2021-05-08T06:47:23Z</time>
      </trkpt>
      <trkpt lat="41.68639" lon="9.25923">
        <ele>225.54</ele>
        <time>2021-05-08T06:47:39Z</time>
      </trkpt>
      <trkpt lat="41.68632" lon="9.25915">
        <ele>224.83</ele>
        <time>2021-05-08T06:47:49Z</time>
      </trkpt>
      <trkpt lat="41.6862" lon="9.25905">
        <ele>224.11</ele>
        <time>2021-05-08T06:48:06Z</time>
      </trkpt>
      <trkpt lat="41.68612" lon="9.25896">
        <ele>222.42</ele>
        <time>2021-05-08T06:48:19Z</time>
      </trkpt>
      <trkpt lat="41.68598" lon="9.25882">
        <ele>219.64</ele>
        <time>2021-05-08T06:48:37Z</time>
      </trkpt>
      <trkpt lat="41.68586" lon="9.25874">
        <ele>219.77</ele>
        <time>2021-05-08T06:48:50Z</time>
      </trkpt>
      <trkpt lat="41.68573" lon="9.25859">
        <ele>219.87</ele>
        <time>2021-05-08T06:49:06Z</time>
      </trkpt>
      <trkpt lat="41.68567" lon="9.2585">
        <ele>219.9</ele>
        <time>2021-05-08T06:49:14Z</time>
      </trkpt>
      <trkpt lat="41.68561" lon="9.25839">
        <ele>219.95</ele>
        <time>2021-05-08T06:49:22Z</time>
      </trkpt>
      <trkpt lat="41.68554" lon="9.2582">
        <ele>220.05</ele>
        <time>2021-05-08T06:49:35Z</time>
      </trkpt>
      <trkpt lat="41.68554" lon="9.25819">
        <ele>220.05</ele>
        <time>2021-05-08T06:49:36Z</time>
      </trkpt>
      <trkpt lat="41.68551" lon="9.25811">
        <ele>220.09</ele>
        <time>2021-05-08T06:49:42Z</time>
      </trkpt>
      <trkpt lat="41.68549" lon="9.25798">
        <ele>222.46</ele>
        <time>2021-05-08T06:49:51Z</time>
      </trkpt>
      <trkpt lat="41.68549" lon="9.25793">
        <ele>222.51</ele>
        <time>2021-05-08T06:49:55Z</time>
      </trkpt>
      <trkpt lat="41.68549" lon="9.25774">
        <ele>225.09</ele>
        <time>2021-05-08T06:50:10Z</time>
      </trkpt>
      <trkpt lat="41.68547" lon="9.25763">
        <ele>227.85</ele>
        <time>2021-05-08T06:50:26Z</time>
      </trkpt>
      <trkpt lat="41.68544" lon="9.25746">
        <ele>229.57</ele>
        <time>2021-05-08T06:50:40Z</time>
      </trkpt>
      <trkpt lat="41.68544" lon="9.25727">
        <ele>232.53</ele>
        <time>2021-05-08T06:50:57Z</time>
      </trkpt>
      <trkpt lat="41.68547" lon="9.25711">
        <ele>236.12</ele>
        <time>2021-05-08T06:51:14Z</time>
      </trkpt>
      <trkpt lat="41.68548" lon="9.25697">
        <ele>238.71</ele>
        <time>2021-05-08T06:51:29Z</time>
      </trkpt>
      <trkpt lat="41.68552" lon="9.25685">
        <ele>241.96</ele>
        <time>2021-05-08T06:51:42Z</time>
      </trkpt>
      <trkpt lat="41.68554" lon="9.2567">
        <ele>242.78</ele>
        <time>2021-05-08T06:51:58Z</time>
      </trkpt>
      <trkpt lat="41.68556" lon="9.25658">
        <ele>242.7</ele>
        <time>2021-05-08T06:52:10Z</time>
      </trkpt>
      <trkpt lat="41.68556" lon="9.25655">
        <ele>240.5</ele>
        <time>2021-05-08T06:52:13Z</time>
      </trkpt>
      <trkpt lat="41.68557" lon="9.25653">
        <ele>240.6</ele>
        <time>2021-05-08T06:52:32Z</time>
      </trkpt>
      <trkpt lat="41.68561" lon="9.25644">
        <ele>242.32</ele>
        <time>2021-05-08T06:52:51Z</time>
      </trkpt>
      <trkpt lat="41.68564" lon="9.25632">
        <ele>244.3</ele>
        <time>2021-05-08T06:53:04Z</time>
      </trkpt>
      <trkpt lat="41.68568" lon="9.25619">
        <ele>244.98</ele>
        <time>2021-05-08T06:53:17Z</time>
      </trkpt>
      <trkpt lat="41.6857" lon="9.25603">
        <ele>245.79</ele>
        <time>2021-05-08T06:53:36Z</time>
      </trkpt>
      <trkpt lat="41.68568" lon="9.25591">
        <ele>245.79</ele>
        <time>2021-05-08T06:53:53Z</time>
      </trkpt>
      <trkpt lat="41.68566" lon="9.2558">
        <ele>243.49</ele>
        <time>2021-05-08T06:54:05Z</time>
      </trkpt>
      <trkpt lat="41.68565" lon="9.25576">
        <ele>243.48</ele>
        <time>2021-05-08T06:54:08Z</time>
      </trkpt>
      <trkpt lat="41.68561" lon="9.25566">
        <ele>242.63</ele>
        <time>2021-05-08T06:54:16Z</time>
      </trkpt>
      <trkpt lat="41.68562" lon="9.25562">
        <ele>242.63</ele>
        <time>2021-05-08T06:54:18Z</time>
      </trkpt>
      <trkpt lat="41.68559" lon="9.25553">
        <ele>242.65</ele>
        <time>2021-05-08T06:54:25Z</time>
      </trkpt>
      <trkpt lat="41.68559" lon="9.25529">
        <ele>241.89</ele>
        <time>2021-05-08T06:54:40Z</time>
      </trkpt>
      <trkpt lat="41.68558" lon="9.25518">
        <ele>241.92</ele>
        <time>2021-05-08T06:54:48Z</time>
      </trkpt>
      <trkpt lat="41.68556" lon="9.25505">
        <ele>241.99</ele>
        <time>2021-05-08T06:54:59Z</time>
      </trkpt>
      <trkpt lat="41.68558" lon="9.25489">
        <ele>242.03</ele>
        <time>2021-05-08T06:55:12Z</time>
      </trkpt>
      <trkpt lat="41.68563" lon="9.25479">
        <ele>242.03</ele>
        <time>2021-05-08T06:55:25Z</time>
      </trkpt>
      <trkpt lat="41.68564" lon="9.25476">
        <ele>242.03</ele>
        <time>2021-05-08T06:55:28Z</time>
      </trkpt>
      <trkpt lat="41.68564" lon="9.25459">
        <ele>242.08</ele>
        <time>2021-05-08T06:55:45Z</time>
      </trkpt>
      <trkpt lat="41.68565" lon="9.2545">
        <ele>244.48</ele>
        <time>2021-05-08T06:55:55Z</time>
      </trkpt>
      <trkpt lat="41.68565" lon="9.25446">
        <ele>247.98</ele>
        <time>2021-05-08T06:56:07Z</time>
      </trkpt>
      <trkpt lat="41.6856" lon="9.25439">
        <ele>249.5</ele>
        <time>2021-05-08T06:56:24Z</time>
      </trkpt>
      <trkpt lat="41.68552" lon="9.2543">
        <ele>251.28</ele>
        <time>2021-05-08T06:56:38Z</time>
      </trkpt>
      <trkpt lat="41.68546" lon="9.25419">
        <ele>254.47</ele>
        <time>2021-05-08T06:56:56Z</time>
      </trkpt>
      <trkpt lat="41.68541" lon="9.25406">
        <ele>256.14</ele>
        <time>2021-05-08T06:57:11Z</time>
      </trkpt>
      <trkpt lat="41.68536" lon="9.25394">
        <ele>258.9</ele>
        <time>2021-05-08T06:57:27Z</time>
      </trkpt>
      <trkpt lat="41.68534" lon="9.25384">
        <ele>260.47</ele>
        <time>2021-05-08T06:57:43Z</time>
      </trkpt>
      <trkpt lat="41.68529" lon="9.25376">
        <ele>262.13</ele>
        <time>2021-05-08T06:57:58Z</time>
      </trkpt>
      <trkpt lat="41.68522" lon="9.25365">
        <ele>264.82</ele>
        <time>2021-05-08T06:58:14Z</time>
      </trkpt>
      <trkpt lat="41.68519" lon="9.25359">
        <ele>265.56</ele>
        <time>2021-05-08T06:58:21Z</time>
      </trkpt>
      <trkpt lat="41.68515" lon="9.25346">
        <ele>268.9</ele>
        <time>2021-05-08T06:58:36Z</time>
      </trkpt>
      <trkpt lat="41.68514" lon="9.25334">
        <ele>271.85</ele>
        <time>2021-05-08T06:58:50Z</time>
      </trkpt>
      <trkpt lat="41.68511" lon="9.2532">
        <ele>273.46</ele>
        <time>2021-05-08T06:59:06Z</time>
      </trkpt>
      <trkpt lat="41.6851" lon="9.25309">
        <ele>275.14</ele>
        <time>2021-05-08T06:59:21Z</time>
      </trkpt>
      <trkpt lat="41.6851" lon="9.25308">
        <ele>276.32</ele>
        <time>2021-05-08T06:59:32Z</time>
      </trkpt>
      <trkpt lat="41.6851" lon="9.25308">
        <ele>276.25</ele>
        <time>2021-05-08T07:00:03Z</time>
      </trkpt>
      <trkpt lat="41.68512" lon="9.253">
        <ele>277.08</ele>
        <time>2021-05-08T07:00:18Z</time>
      </trkpt>
      <trkpt lat="41.68512" lon="9.25292">
        <ele>277.9</ele>
        <time>2021-05-08T07:00:25Z</time>
      </trkpt>
      <trkpt lat="41.68511" lon="9.25277">
        <ele>280.18</ele>
        <time>2021-05-08T07:00:39Z</time>
      </trkpt>
      <trkpt lat="41.68508" lon="9.25266">
        <ele>281.12</ele>
        <time>2021-05-08T07:00:53Z</time>
      </trkpt>
      <trkpt lat="41.68508" lon="9.25265">
        <ele>281.11</ele>
        <time>2021-05-08T07:00:54Z</time>
      </trkpt>
      <trkpt lat="41.68509" lon="9.25252">
        <ele>285.49</ele>
        <time>2021-05-08T07:01:11Z</time>
      </trkpt>
      <trkpt lat="41.68511" lon="9.2524">
        <ele>288.25</ele>
        <time>2021-05-08T07:01:25Z</time>
      </trkpt>
      <trkpt lat="41.68511" lon="9.25236">
        <ele>289.12</ele>
        <time>2021-05-08T07:01:28Z</time>
      </trkpt>
      <trkpt lat="41.68513" lon="9.2523">
        <ele>289.11</ele>
        <time>2021-05-08T07:01:32Z</time>
      </trkpt>
      <trkpt lat="41.68517" lon="9.25221">
        <ele>289.01</ele>
        <time>2021-05-08T07:01:40Z</time>
      </trkpt>
      <trkpt lat="41.68517" lon="9.25213">
        <ele>286.76</ele>
        <time>2021-05-08T07:01:47Z</time>
      </trkpt>
      <trkpt lat="41.68516" lon="9.2521">
        <ele>285.77</ele>
        <time>2021-05-08T07:01:50Z</time>
      </trkpt>
      <trkpt lat="41.68517" lon="9.25198">
        <ele>283.97</ele>
        <time>2021-05-08T07:02:04Z</time>
      </trkpt>
      <trkpt lat="41.6852" lon="9.25182">
        <ele>283.03</ele>
        <time>2021-05-08T07:02:18Z</time>
      </trkpt>
      <trkpt lat="41.68521" lon="9.25165">
        <ele>282.19</ele>
        <time>2021-05-08T07:02:31Z</time>
      </trkpt>
      <trkpt lat="41.68521" lon="9.25161">
        <ele>282.19</ele>
        <time>2021-05-08T07:02:34Z</time>
      </trkpt>
      <trkpt lat="41.68519" lon="9.25148">
        <ele>282.16</ele>
        <time>2021-05-08T07:02:47Z</time>
      </trkpt>
      <trkpt lat="41.68509" lon="9.25132">
        <ele>282.18</ele>
        <time>2021-05-08T07:03:06Z</time>
      </trkpt>
      <trkpt lat="41.68504" lon="9.2512">
        <ele>281.36</ele>
        <time>2021-05-08T07:03:17Z</time>
      </trkpt>
      <trkpt lat="41.68501" lon="9.25116">
        <ele>280.35</ele>
        <time>2021-05-08T07:03:21Z</time>
      </trkpt>
      <trkpt lat="41.68497" lon="9.25112">
        <ele>279.5</ele>
        <time>2021-05-08T07:03:25Z</time>
      </trkpt>
      <trkpt lat="41.68493" lon="9.25089">
        <ele>277.88</ele>
        <time>2021-05-08T07:03:40Z</time>
      </trkpt>
      <trkpt lat="41.68491" lon="9.25082">
        <ele>277.91</ele>
        <time>2021-05-08T07:03:44Z</time>
      </trkpt>
      <trkpt lat="41.68487" lon="9.25063">
        <ele>277.25</ele>
        <time>2021-05-08T07:03:58Z</time>
      </trkpt>
      <trkpt lat="41.68487" lon="9.25052">
        <ele>276.39</ele>
        <time>2021-05-08T07:04:14Z</time>
      </trkpt>
      <trkpt lat="41.68486" lon="9.2505">
        <ele>276.38</ele>
        <time>2021-05-08T07:04:16Z</time>
      </trkpt>
      <trkpt lat="41.68484" lon="9.25035">
        <ele>275.54</ele>
        <time>2021-05-08T07:04:30Z</time>
      </trkpt>
      <trkpt lat="41.68481" lon="9.25029">
        <ele>275.58</ele>
        <time>2021-05-08T07:04:36Z</time>
      </trkpt>
      <trkpt lat="41.68477" lon="9.25014">
        <ele>275.6</ele>
        <time>2021-05-08T07:04:50Z</time>
      </trkpt>
      <trkpt lat="41.68476" lon="9.25011">
        <ele>275.6</ele>
        <time>2021-05-08T07:04:52Z</time>
      </trkpt>
      <trkpt lat="41.68475" lon="9.2501">
        <ele>275.6</ele>
        <time>2021-05-08T07:04:54Z</time>
      </trkpt>
      <trkpt lat="41.68472" lon="9.25005">
        <ele>275.59</ele>
        <time>2021-05-08T07:04:57Z</time>
      </trkpt>
      <trkpt lat="41.68466" lon="9.24988">
        <ele>275.62</ele>
        <time>2021-05-08T07:05:12Z</time>
      </trkpt>
      <trkpt lat="41.68463" lon="9.24982">
        <ele>275.64</ele>
        <time>2021-05-08T07:05:17Z</time>
      </trkpt>
      <trkpt lat="41.68456" lon="9.24967">
        <ele>275.67</ele>
        <time>2021-05-08T07:05:30Z</time>
      </trkpt>
      <trkpt lat="41.68448" lon="9.24952">
        <ele>274.09</ele>
        <time>2021-05-08T07:05:47Z</time>
      </trkpt>
      <trkpt lat="41.68442" lon="9.24935">
        <ele>274.21</ele>
        <time>2021-05-08T07:06:03Z</time>
      </trkpt>
      <trkpt lat="41.68438" lon="9.24917">
        <ele>274.23</ele>
        <time>2021-05-08T07:06:17Z</time>
      </trkpt>
      <trkpt lat="41.68436" lon="9.24915">
        <ele>276.52</ele>
        <time>2021-05-08T07:06:20Z</time>
      </trkpt>
      <trkpt lat="41.68427" lon="9.24901">
        <ele>276.54</ele>
        <time>2021-05-08T07:06:32Z</time>
      </trkpt>
      <trkpt lat="41.68424" lon="9.24898">
        <ele>276.54</ele>
        <time>2021-05-08T07:06:35Z</time>
      </trkpt>
      <trkpt lat="41.68418" lon="9.24886">
        <ele>276.5</ele>
        <time>2021-05-08T07:06:44Z</time>
      </trkpt>
      <trkpt lat="41.68416" lon="9.24876">
        <ele>276.49</ele>
        <time>2021-05-08T07:06:50Z</time>
      </trkpt>
      <trkpt lat="41.68415" lon="9.24872">
        <ele>276.49</ele>
        <time>2021-05-08T07:06:53Z</time>
      </trkpt>
      <trkpt lat="41.68413" lon="9.24869">
        <ele>276.48</ele>
        <time>2021-05-08T07:06:56Z</time>
      </trkpt>
      <trkpt lat="41.68408" lon="9.24849">
        <ele>276.53</ele>
        <time>2021-05-08T07:07:09Z</time>
      </trkpt>
      <trkpt lat="41.68405" lon="9.24835">
        <ele>276.53</ele>
        <time>2021-05-08T07:07:20Z</time>
      </trkpt>
      <trkpt lat="41.68402" lon="9.2483">
        <ele>276.52</ele>
        <time>2021-05-08T07:07:25Z</time>
      </trkpt>
      <trkpt lat="41.68401" lon="9.24827">
        <ele>276.52</ele>
        <time>2021-05-08T07:07:27Z</time>
      </trkpt>
      <trkpt lat="41.68398" lon="9.24821">
        <ele>276.53</ele>
        <time>2021-05-08T07:07:32Z</time>
      </trkpt>
      <trkpt lat="41.68395" lon="9.24818">
        <ele>276.52</ele>
        <time>2021-05-08T07:07:35Z</time>
      </trkpt>
      <trkpt lat="41.68393" lon="9.24815">
        <ele>276.52</ele>
        <time>2021-05-08T07:07:38Z</time>
      </trkpt>
      <trkpt lat="41.68388" lon="9.24802">
        <ele>276.51</ele>
        <time>2021-05-08T07:07:50Z</time>
      </trkpt>
      <trkpt lat="41.68389" lon="9.24781">
        <ele>276.49</ele>
        <time>2021-05-08T07:08:03Z</time>
      </trkpt>
      <trkpt lat="41.68385" lon="9.24769">
        <ele>277.22</ele>
        <time>2021-05-08T07:08:15Z</time>
      </trkpt>
      <trkpt lat="41.68381" lon="9.24755">
        <ele>277.18</ele>
        <time>2021-05-08T07:08:27Z</time>
      </trkpt>
      <trkpt lat="41.68378" lon="9.24747">
        <ele>277.14</ele>
        <time>2021-05-08T07:08:39Z</time>
      </trkpt>
      <trkpt lat="41.68377" lon="9.24744">
        <ele>277.13</ele>
        <time>2021-05-08T07:08:42Z</time>
      </trkpt>
      <trkpt lat="41.68377" lon="9.24729">
        <ele>278.04</ele>
        <time>2021-05-08T07:08:58Z</time>
      </trkpt>
      <trkpt lat="41.68376" lon="9.24727">
        <ele>278.05</ele>
        <time>2021-05-08T07:09:00Z</time>
      </trkpt>
      <trkpt lat="41.68372" lon="9.2472">
        <ele>278.89</ele>
        <time>2021-05-08T07:09:11Z</time>
      </trkpt>
      <trkpt lat="41.68369" lon="9.2471">
        <ele>278.84</ele>
        <time>2021-05-08T07:09:24Z</time>
      </trkpt>
      <trkpt lat="41.68366" lon="9.24704">
        <ele>278.8</ele>
        <time>2021-05-08T07:09:33Z</time>
      </trkpt>
      <trkpt lat="41.68367" lon="9.247">
        <ele>278.72</ele>
        <time>2021-05-08T07:09:53Z</time>
      </trkpt>
      <trkpt lat="41.68366" lon="9.24693">
        <ele>279.45</ele>
        <time>2021-05-08T07:10:00Z</time>
      </trkpt>
      <trkpt lat="41.68364" lon="9.24687">
        <ele>280.12</ele>
        <time>2021-05-08T07:10:16Z</time>
      </trkpt>
      <trkpt lat="41.68363" lon="9.2467">
        <ele>281.72</ele>
        <time>2021-05-08T07:10:30Z</time>
      </trkpt>
      <trkpt lat="41.68362" lon="9.24659">
        <ele>283.28</ele>
        <time>2021-05-08T07:10:39Z</time>
      </trkpt>
      <trkpt lat="41.68358" lon="9.24653">
        <ele>283.23</ele>
        <time>2021-05-08T07:10:44Z</time>
      </trkpt>
      <trkpt lat="41.68354" lon="9.24636">
        <ele>285.8</ele>
        <time>2021-05-08T07:11:00Z</time>
      </trkpt>
      <trkpt lat="41.6835" lon="9.24632">
        <ele>286.66</ele>
        <time>2021-05-08T07:11:07Z</time>
      </trkpt>
      <trkpt lat="41.68346" lon="9.24623">
        <ele>286.55</ele>
        <time>2021-05-08T07:11:21Z</time>
      </trkpt>
      <trkpt lat="41.68341" lon="9.24616">
        <ele>286.52</ele>
        <time>2021-05-08T07:11:33Z</time>
      </trkpt>
      <trkpt lat="41.68341" lon="9.24608">
        <ele>286.47</ele>
        <time>2021-05-08T07:11:41Z</time>
      </trkpt>
      <trkpt lat="41.68341" lon="9.24598">
        <ele>286.45</ele>
        <time>2021-05-08T07:11:54Z</time>
      </trkpt>
      <trkpt lat="41.6834" lon="9.24595">
        <ele>284.19</ele>
        <time>2021-05-08T07:11:58Z</time>
      </trkpt>
      <trkpt lat="41.68336" lon="9.24588">
        <ele>282.44</ele>
        <time>2021-05-08T07:12:10Z</time>
      </trkpt>
      <trkpt lat="41.68333" lon="9.24578">
        <ele>280.69</ele>
        <time>2021-05-08T07:12:29Z</time>
      </trkpt>
      <trkpt lat="41.6833" lon="9.24577">
        <ele>279.62</ele>
        <time>2021-05-08T07:12:42Z</time>
      </trkpt>
      <trkpt lat="41.68326" lon="9.24572">
        <ele>277.11</ele>
        <time>2021-05-08T07:12:55Z</time>
      </trkpt>
      <trkpt lat="41.68321" lon="9.24566">
        <ele>277.1</ele>
        <time>2021-05-08T07:13:09Z</time>
      </trkpt>
      <trkpt lat="41.68312" lon="9.24555">
        <ele>277.07</ele>
        <time>2021-05-08T07:13:21Z</time>
      </trkpt>
      <trkpt lat="41.68301" lon="9.24553">
        <ele>277.04</ele>
        <time>2021-05-08T07:13:36Z</time>
      </trkpt>
      <trkpt lat="41.68295" lon="9.24542">
        <ele>277.01</ele>
        <time>2021-05-08T07:13:49Z</time>
      </trkpt>
      <trkpt lat="41.68291" lon="9.24534">
        <ele>276.99</ele>
        <time>2021-05-08T07:14:04Z</time>
      </trkpt>
      <trkpt lat="41.68288" lon="9.24523">
        <ele>276.93</ele>
        <time>2021-05-08T07:14:19Z</time>
      </trkpt>
      <trkpt lat="41.68285" lon="9.24511">
        <ele>276.9</ele>
        <time>2021-05-08T07:14:32Z</time>
      </trkpt>
      <trkpt lat="41.68283" lon="9.24499">
        <ele>279.16</ele>
        <time>2021-05-08T07:14:45Z</time>
      </trkpt>
      <trkpt lat="41.68278" lon="9.24488">
        <ele>279.09</ele>
        <time>2021-05-08T07:15:00Z</time>
      </trkpt>
      <trkpt lat="41.68274" lon="9.2448">
        <ele>279.03</ele>
        <time>2021-05-08T07:15:11Z</time>
      </trkpt>
      <trkpt lat="41.68283" lon="9.24478">
        <ele>278.98</ele>
        <time>2021-05-08T07:15:25Z</time>
      </trkpt>
      <trkpt lat="41.68283" lon="9.24471">
        <ele>279.7</ele>
        <time>2021-05-08T07:15:41Z</time>
      </trkpt>
      <trkpt lat="41.68281" lon="9.24466">
        <ele>281.24</ele>
        <time>2021-05-08T07:15:57Z</time>
      </trkpt>
      <trkpt lat="41.68276" lon="9.24452">
        <ele>283.73</ele>
        <time>2021-05-08T07:16:13Z</time>
      </trkpt>
      <trkpt lat="41.68273" lon="9.24449">
        <ele>283.72</ele>
        <time>2021-05-08T07:16:16Z</time>
      </trkpt>
      <trkpt lat="41.6827" lon="9.24434">
        <ele>285.41</ele>
        <time>2021-05-08T07:16:31Z</time>
      </trkpt>
      <trkpt lat="41.68271" lon="9.24427">
        <ele>285.39</ele>
        <time>2021-05-08T07:16:36Z</time>
      </trkpt>
      <trkpt lat="41.6827" lon="9.24422">
        <ele>285.37</ele>
        <time>2021-05-08T07:16:41Z</time>
      </trkpt>
      <trkpt lat="41.68276" lon="9.24409">
        <ele>285.31</ele>
        <time>2021-05-08T07:16:55Z</time>
      </trkpt>
      <trkpt lat="41.68278" lon="9.24403">
        <ele>282.87</ele>
        <time>2021-05-08T07:17:09Z</time>
      </trkpt>
      <trkpt lat="41.68282" lon="9.24399">
        <ele>282.8</ele>
        <time>2021-05-08T07:17:34Z</time>
      </trkpt>
      <trkpt lat="41.68284" lon="9.244">
        <ele>282.77</ele>
        <time>2021-05-08T07:17:42Z</time>
      </trkpt>
      <trkpt lat="41.68276" lon="9.24391">
        <ele>281.88</ele>
        <time>2021-05-08T07:18:04Z</time>
      </trkpt>
      <trkpt lat="41.68272" lon="9.24391">
        <ele>281.85</ele>
        <time>2021-05-08T07:18:18Z</time>
      </trkpt>
      <trkpt lat="41.68273" lon="9.24385">
        <ele>281.82</ele>
        <time>2021-05-08T07:18:36Z</time>
      </trkpt>
      <trkpt lat="41.68275" lon="9.24382">
        <ele>281.79</ele>
        <time>2021-05-08T07:18:51Z</time>
      </trkpt>
      <trkpt lat="41.68274" lon="9.2438">
        <ele>284.01</ele>
        <time>2021-05-08T07:18:57Z</time>
      </trkpt>
      <trkpt lat="41.68277" lon="9.24371">
        <ele>285.72</ele>
        <time>2021-05-08T07:19:11Z</time>
      </trkpt>
      <trkpt lat="41.68281" lon="9.24361">
        <ele>287.36</ele>
        <time>2021-05-08T07:19:25Z</time>
      </trkpt>
      <trkpt lat="41.68289" lon="9.24347">
        <ele>288.17</ele>
        <time>2021-05-08T07:19:42Z</time>
      </trkpt>
      <trkpt lat="41.68294" lon="9.24339">
        <ele>289.84</ele>
        <time>2021-05-08T07:19:58Z</time>
      </trkpt>
      <trkpt lat="41.68292" lon="9.24331">
        <ele>292.23</ele>
        <time>2021-05-08T07:20:14Z</time>
      </trkpt>
      <trkpt lat="41.68294" lon="9.24322">
        <ele>294.08</ele>
        <time>2021-05-08T07:20:31Z</time>
      </trkpt>
      <trkpt lat="41.68301" lon="9.24317">
        <ele>296.6</ele>
        <time>2021-05-08T07:20:48Z</time>
      </trkpt>
      <trkpt lat="41.68307" lon="9.24316">
        <ele>297.33</ele>
        <time>2021-05-08T07:21:11Z</time>
      </trkpt>
      <trkpt lat="41.68313" lon="9.24311">
        <ele>299.93</ele>
        <time>2021-05-08T07:21:30Z</time>
      </trkpt>
      <trkpt lat="41.68312" lon="9.24301">
        <ele>303.28</ele>
        <time>2021-05-08T07:21:46Z</time>
      </trkpt>
      <trkpt lat="41.6831" lon="9.24293">
        <ele>304.99</ele>
        <time>2021-05-08T07:22:02Z</time>
      </trkpt>
      <trkpt lat="41.68314" lon="9.24289">
        <ele>305.72</ele>
        <time>2021-05-08T07:22:21Z</time>
      </trkpt>
      <trkpt lat="41.6831" lon="9.24281">
        <ele>308.37</ele>
        <time>2021-05-08T07:22:37Z</time>
      </trkpt>
      <trkpt lat="41.68308" lon="9.24273">
        <ele>309.91</ele>
        <time>2021-05-08T07:22:51Z</time>
      </trkpt>
      <trkpt lat="41.68309" lon="9.2426">
        <ele>313.21</ele>
        <time>2021-05-08T07:23:10Z</time>
      </trkpt>
      <trkpt lat="41.68313" lon="9.24253">
        <ele>315.08</ele>
        <time>2021-05-08T07:23:26Z</time>
      </trkpt>
      <trkpt lat="41.68313" lon="9.24245">
        <ele>316.73</ele>
        <time>2021-05-08T07:23:41Z</time>
      </trkpt>
      <trkpt lat="41.6831" lon="9.24235">
        <ele>318.34</ele>
        <time>2021-05-08T07:23:55Z</time>
      </trkpt>
      <trkpt lat="41.68308" lon="9.24226">
        <ele>319.16</ele>
        <time>2021-05-08T07:24:08Z</time>
      </trkpt>
      <trkpt lat="41.68307" lon="9.24219">
        <ele>320.69</ele>
        <time>2021-05-08T07:24:23Z</time>
      </trkpt>
      <trkpt lat="41.68311" lon="9.24215">
        <ele>323.22</ele>
        <time>2021-05-08T07:24:40Z</time>
      </trkpt>
      <trkpt lat="41.68315" lon="9.24212">
        <ele>325.5</ele>
        <time>2021-05-08T07:24:57Z</time>
      </trkpt>
      <trkpt lat="41.68327" lon="9.24211">
        <ele>327.89</ele>
        <time>2021-05-08T07:25:14Z</time>
      </trkpt>
      <trkpt lat="41.68337" lon="9.24211">
        <ele>329.55</ele>
        <time>2021-05-08T07:25:31Z</time>
      </trkpt>
      <trkpt lat="41.68339" lon="9.24208">
        <ele>331.41</ele>
        <time>2021-05-08T07:25:46Z</time>
      </trkpt>
      <trkpt lat="41.68349" lon="9.24211">
        <ele>335.25</ele>
        <time>2021-05-08T07:26:04Z</time>
      </trkpt>
      <trkpt lat="41.68352" lon="9.24208">
        <ele>336.82</ele>
        <time>2021-05-08T07:26:22Z</time>
      </trkpt>
      <trkpt lat="41.68353" lon="9.24204">
        <ele>338.42</ele>
        <time>2021-05-08T07:26:39Z</time>
      </trkpt>
      <trkpt lat="41.6836" lon="9.24201">
        <ele>340.04</ele>
        <time>2021-05-08T07:26:57Z</time>
      </trkpt>
      <trkpt lat="41.6837" lon="9.24194">
        <ele>343.28</ele>
        <time>2021-05-08T07:27:11Z</time>
      </trkpt>
      <trkpt lat="41.68379" lon="9.24191">
        <ele>345.16</ele>
        <time>2021-05-08T07:27:27Z</time>
      </trkpt>
      <trkpt lat="41.68389" lon="9.24187">
        <ele>346.88</ele>
        <time>2021-05-08T07:27:47Z</time>
      </trkpt>
      <trkpt lat="41.68391" lon="9.24181">
        <ele>349.53</ele>
        <time>2021-05-08T07:28:04Z</time>
      </trkpt>
      <trkpt lat="41.68387" lon="9.24173">
        <ele>352.04</ele>
        <time>2021-05-08T07:28:22Z</time>
      </trkpt>
      <trkpt lat="41.68381" lon="9.24169">
        <ele>353.1</ele>
        <time>2021-05-08T07:28:38Z</time>
      </trkpt>
      <trkpt lat="41.68374" lon="9.24164">
        <ele>355.8</ele>
        <time>2021-05-08T07:28:51Z</time>
      </trkpt>
      <trkpt lat="41.68371" lon="9.24157">
        <ele>358.72</ele>
        <time>2021-05-08T07:29:03Z</time>
      </trkpt>
      <trkpt lat="41.68363" lon="9.24149">
        <ele>360.43</ele>
        <time>2021-05-08T07:29:17Z</time>
      </trkpt>
      <trkpt lat="41.68362" lon="9.24141">
        <ele>361.88</ele>
        <time>2021-05-08T07:29:32Z</time>
      </trkpt>
      <trkpt lat="41.68372" lon="9.24135">
        <ele>364.41</ele>
        <time>2021-05-08T07:29:50Z</time>
      </trkpt>
      <trkpt lat="41.68376" lon="9.24134">
        <ele>365.07</ele>
        <time>2021-05-08T07:30:06Z</time>
      </trkpt>
      <trkpt lat="41.68376" lon="9.24133">
        <ele>365.05</ele>
        <time>2021-05-08T07:30:12Z</time>
      </trkpt>
      <trkpt lat="41.68378" lon="9.24124">
        <ele>367</ele>
        <time>2021-05-08T07:30:26Z</time>
      </trkpt>
      <trkpt lat="41.68387" lon="9.24121">
        <ele>368.7</ele>
        <time>2021-05-08T07:30:39Z</time>
      </trkpt>
      <trkpt lat="41.6839" lon="9.24123">
        <ele>368.67</ele>
        <time>2021-05-08T07:30:44Z</time>
      </trkpt>
      <trkpt lat="41.68398" lon="9.24122">
        <ele>370.35</ele>
        <time>2021-05-08T07:30:57Z</time>
      </trkpt>
      <trkpt lat="41.68409" lon="9.24121">
        <ele>372.91</ele>
        <time>2021-05-08T07:31:14Z</time>
      </trkpt>
      <trkpt lat="41.6842" lon="9.24121">
        <ele>374.55</ele>
        <time>2021-05-08T07:31:30Z</time>
      </trkpt>
      <trkpt lat="41.68427" lon="9.24117">
        <ele>377.01</ele>
        <time>2021-05-08T07:31:47Z</time>
      </trkpt>
      <trkpt lat="41.68421" lon="9.24105">
        <ele>379.8</ele>
        <time>2021-05-08T07:32:03Z</time>
      </trkpt>
      <trkpt lat="41.6842" lon="9.24097">
        <ele>382.52</ele>
        <time>2021-05-08T07:32:17Z</time>
      </trkpt>
      <trkpt lat="41.68421" lon="9.24098">
        <ele>383.44</ele>
        <time>2021-05-08T07:32:34Z</time>
      </trkpt>
      <trkpt lat="41.68427" lon="9.24095">
        <ele>383.34</ele>
        <time>2021-05-08T07:32:50Z</time>
      </trkpt>
      <trkpt lat="41.68443" lon="9.24095">
        <ele>386.22</ele>
        <time>2021-05-08T07:33:10Z</time>
      </trkpt>
      <trkpt lat="41.68442" lon="9.24085">
        <ele>388.94</ele>
        <time>2021-05-08T07:33:27Z</time>
      </trkpt>
      <trkpt lat="41.68451" lon="9.24084">
        <ele>392.1</ele>
        <time>2021-05-08T07:33:42Z</time>
      </trkpt>
      <trkpt lat="41.68462" lon="9.24087">
        <ele>395.44</ele>
        <time>2021-05-08T07:34:00Z</time>
      </trkpt>
      <trkpt lat="41.68457" lon="9.24081">
        <ele>397</ele>
        <time>2021-05-08T07:34:14Z</time>
      </trkpt>
      <trkpt lat="41.68454" lon="9.24075">
        <ele>399.44</ele>
        <time>2021-05-08T07:34:32Z</time>
      </trkpt>
      <trkpt lat="41.6845" lon="9.24064">
        <ele>402.04</ele>
        <time>2021-05-08T07:34:51Z</time>
      </trkpt>
      <trkpt lat="41.68448" lon="9.24051">
        <ele>405.59</ele>
        <time>2021-05-08T07:35:09Z</time>
      </trkpt>
      <trkpt lat="41.68449" lon="9.24041">
        <ele>409</ele>
        <time>2021-05-08T07:35:27Z</time>
      </trkpt>
      <trkpt lat="41.68449" lon="9.24032">
        <ele>411.23</ele>
        <time>2021-05-08T07:35:43Z</time>
      </trkpt>
      <trkpt lat="41.68449" lon="9.24021">
        <ele>413.66</ele>
        <time>2021-05-08T07:35:59Z</time>
      </trkpt>
      <trkpt lat="41.68454" lon="9.24014">
        <ele>416.09</ele>
        <time>2021-05-08T07:36:16Z</time>
      </trkpt>
      <trkpt lat="41.68463" lon="9.24018">
        <ele>416.84</ele>
        <time>2021-05-08T07:36:33Z</time>
      </trkpt>
      <trkpt lat="41.68471" lon="9.24017">
        <ele>420.3</ele>
        <time>2021-05-08T07:36:48Z</time>
      </trkpt>
      <trkpt lat="41.68468" lon="9.24009">
        <ele>420.98</ele>
        <time>2021-05-08T07:37:03Z</time>
      </trkpt>
      <trkpt lat="41.68465" lon="9.23996">
        <ele>422.6</ele>
        <time>2021-05-08T07:37:17Z</time>
      </trkpt>
      <trkpt lat="41.68461" lon="9.23988">
        <ele>424.25</ele>
        <time>2021-05-08T07:37:32Z</time>
      </trkpt>
      <trkpt lat="41.6846" lon="9.23985">
        <ele>424.17</ele>
        <time>2021-05-08T07:37:44Z</time>
      </trkpt>
      <trkpt lat="41.68461" lon="9.23978">
        <ele>425.91</ele>
        <time>2021-05-08T07:38:00Z</time>
      </trkpt>
      <trkpt lat="41.6846" lon="9.23974">
        <ele>425.88</ele>
        <time>2021-05-08T07:38:09Z</time>
      </trkpt>
      <trkpt lat="41.68461" lon="9.23961">
        <ele>427.91</ele>
        <time>2021-05-08T07:38:27Z</time>
      </trkpt>
      <trkpt lat="41.68471" lon="9.23959">
        <ele>431.61</ele>
        <time>2021-05-08T07:38:47Z</time>
      </trkpt>
      <trkpt lat="41.68485" lon="9.23953">
        <ele>433.08</ele>
        <time>2021-05-08T07:39:05Z</time>
      </trkpt>
      <trkpt lat="41.68494" lon="9.23959">
        <ele>434.62</ele>
        <time>2021-05-08T07:39:18Z</time>
      </trkpt>
      <trkpt lat="41.68504" lon="9.23968">
        <ele>437.29</ele>
        <time>2021-05-08T07:39:34Z</time>
      </trkpt>
      <trkpt lat="41.68512" lon="9.23974">
        <ele>439.21</ele>
        <time>2021-05-08T07:39:46Z</time>
      </trkpt>
      <trkpt lat="41.68521" lon="9.23975">
        <ele>440.95</ele>
        <time>2021-05-08T07:40:03Z</time>
      </trkpt>
      <trkpt lat="41.68529" lon="9.23973">
        <ele>444.52</ele>
        <time>2021-05-08T07:40:19Z</time>
      </trkpt>
      <trkpt lat="41.68529" lon="9.23965">
        <ele>446.13</ele>
        <time>2021-05-08T07:40:34Z</time>
      </trkpt>
      <trkpt lat="41.68527" lon="9.23957">
        <ele>449.51</ele>
        <time>2021-05-08T07:40:48Z</time>
      </trkpt>
      <trkpt lat="41.68524" lon="9.23946">
        <ele>451.27</ele>
        <time>2021-05-08T07:41:04Z</time>
      </trkpt>
      <trkpt lat="41.6852" lon="9.2393">
        <ele>453.06</ele>
        <time>2021-05-08T07:41:21Z</time>
      </trkpt>
      <trkpt lat="41.68519" lon="9.23927">
        <ele>453.07</ele>
        <time>2021-05-08T07:41:23Z</time>
      </trkpt>
      <trkpt lat="41.68516" lon="9.23916">
        <ele>455.22</ele>
        <time>2021-05-08T07:41:36Z</time>
      </trkpt>
      <trkpt lat="41.68509" lon="9.23891">
        <ele>457.21</ele>
        <time>2021-05-08T07:41:56Z</time>
      </trkpt>
      <trkpt lat="41.68504" lon="9.23878">
        <ele>459.02</ele>
        <time>2021-05-08T07:42:10Z</time>
      </trkpt>
      <trkpt lat="41.68501" lon="9.23866">
        <ele>460.63</ele>
        <time>2021-05-08T07:42:24Z</time>
      </trkpt>
      <trkpt lat="41.68498" lon="9.23852">
        <ele>462.45</ele>
        <time>2021-05-08T07:42:38Z</time>
      </trkpt>
      <trkpt lat="41.68494" lon="9.23844">
        <ele>464.06</ele>
        <time>2021-05-08T07:42:53Z</time>
      </trkpt>
      <trkpt lat="41.68487" lon="9.23834">
        <ele>466.49</ele>
        <time>2021-05-08T07:43:08Z</time>
      </trkpt>
      <trkpt lat="41.68484" lon="9.23821">
        <ele>468.93</ele>
        <time>2021-05-08T07:43:27Z</time>
      </trkpt>
      <trkpt lat="41.68484" lon="9.23816">
        <ele>469.85</ele>
        <time>2021-05-08T07:43:48Z</time>
      </trkpt>
      <trkpt lat="41.68487" lon="9.23812">
        <ele>469.85</ele>
        <time>2021-05-08T07:44:05Z</time>
      </trkpt>
      <trkpt lat="41.68485" lon="9.23812">
        <ele>469.88</ele>
        <time>2021-05-08T07:44:24Z</time>
      </trkpt>
      <trkpt lat="41.68486" lon="9.23812">
        <ele>469.89</ele>
        <time>2021-05-08T07:44:41Z</time>
      </trkpt>
      <trkpt lat="41.68487" lon="9.23804">
        <ele>470.93</ele>
        <time>2021-05-08T07:44:55Z</time>
      </trkpt>
      <trkpt lat="41.68489" lon="9.23796">
        <ele>472.88</ele>
        <time>2021-05-08T07:45:13Z</time>
      </trkpt>
      <trkpt lat="41.68486" lon="9.23787">
        <ele>473.61</ele>
        <time>2021-05-08T07:45:27Z</time>
      </trkpt>
      <trkpt lat="41.6848" lon="9.23779">
        <ele>473.57</ele>
        <time>2021-05-08T07:45:41Z</time>
      </trkpt>
      <trkpt lat="41.68479" lon="9.23767">
        <ele>475.16</ele>
        <time>2021-05-08T07:45:55Z</time>
      </trkpt>
      <trkpt lat="41.6848" lon="9.23756">
        <ele>478.44</ele>
        <time>2021-05-08T07:46:12Z</time>
      </trkpt>
      <trkpt lat="41.68479" lon="9.23743">
        <ele>480.17</ele>
        <time>2021-05-08T07:46:25Z</time>
      </trkpt>
      <trkpt lat="41.68478" lon="9.23729">
        <ele>482.62</ele>
        <time>2021-05-08T07:46:41Z</time>
      </trkpt>
      <trkpt lat="41.68476" lon="9.2372">
        <ele>483.38</ele>
        <time>2021-05-08T07:46:56Z</time>
      </trkpt>
      <trkpt lat="41.68476" lon="9.23705">
        <ele>486.11</ele>
        <time>2021-05-08T07:47:13Z</time>
      </trkpt>
      <trkpt lat="41.68478" lon="9.23695">
        <ele>489.79</ele>
        <time>2021-05-08T07:47:31Z</time>
      </trkpt>
      <trkpt lat="41.68479" lon="9.23694">
        <ele>489.79</ele>
        <time>2021-05-08T07:47:32Z</time>
      </trkpt>
      <trkpt lat="41.68483" lon="9.23682">
        <ele>490.69</ele>
        <time>2021-05-08T07:47:47Z</time>
      </trkpt>
      <trkpt lat="41.68485" lon="9.23676">
        <ele>491.53</ele>
        <time>2021-05-08T07:48:05Z</time>
      </trkpt>
      <trkpt lat="41.6849" lon="9.23677">
        <ele>491.56</ele>
        <time>2021-05-08T07:48:37Z</time>
      </trkpt>
      <trkpt lat="41.68493" lon="9.23678">
        <ele>491.61</ele>
        <time>2021-05-08T07:49:08Z</time>
      </trkpt>
      <trkpt lat="41.68493" lon="9.23674">
        <ele>491.66</ele>
        <time>2021-05-08T07:49:47Z</time>
      </trkpt>
      <trkpt lat="41.68494" lon="9.23673">
        <ele>491.69</ele>
        <time>2021-05-08T07:50:59Z</time>
      </trkpt>
      <trkpt lat="41.68492" lon="9.23672">
        <ele>491.74</ele>
        <time>2021-05-08T07:52:05Z</time>
      </trkpt>
      <trkpt lat="41.68491" lon="9.23673">
        <ele>491.79</ele>
        <time>2021-05-08T07:52:35Z</time>
      </trkpt>
      <trkpt lat="41.68488" lon="9.23675">
        <ele>491.81</ele>
        <time>2021-05-08T07:53:08Z</time>
      </trkpt>
      <trkpt lat="41.68489" lon="9.23674">
        <ele>491.83</ele>
        <time>2021-05-08T07:53:28Z</time>
      </trkpt>
      <trkpt lat="41.68485" lon="9.23663">
        <ele>493.46</ele>
        <time>2021-05-08T07:53:45Z</time>
      </trkpt>
      <trkpt lat="41.68487" lon="9.2365">
        <ele>495.87</ele>
        <time>2021-05-08T07:54:02Z</time>
      </trkpt>
      <trkpt lat="41.68491" lon="9.23641">
        <ele>497.39</ele>
        <time>2021-05-08T07:54:18Z</time>
      </trkpt>
      <trkpt lat="41.68492" lon="9.2364">
        <ele>498.13</ele>
        <time>2021-05-08T07:54:32Z</time>
      </trkpt>
      <trkpt lat="41.68492" lon="9.23638">
        <ele>498.13</ele>
        <time>2021-05-08T07:54:57Z</time>
      </trkpt>
      <trkpt lat="41.6849" lon="9.23636">
        <ele>498.1</ele>
        <time>2021-05-08T07:55:32Z</time>
      </trkpt>
      <trkpt lat="41.68486" lon="9.23635">
        <ele>498.1</ele>
        <time>2021-05-08T07:55:37Z</time>
      </trkpt>
      <trkpt lat="41.68482" lon="9.23634">
        <ele>495.8</ele>
        <time>2021-05-08T07:55:44Z</time>
      </trkpt>
      <trkpt lat="41.68481" lon="9.23634">
        <ele>495.81</ele>
        <time>2021-05-08T07:55:46Z</time>
      </trkpt>
      <trkpt lat="41.68475" lon="9.23626">
        <ele>495</ele>
        <time>2021-05-08T07:56:00Z</time>
      </trkpt>
      <trkpt lat="41.68477" lon="9.23612">
        <ele>495.02</ele>
        <time>2021-05-08T07:56:15Z</time>
      </trkpt>
      <trkpt lat="41.68477" lon="9.23609">
        <ele>497.29</ele>
        <time>2021-05-08T07:56:22Z</time>
      </trkpt>
      <trkpt lat="41.68478" lon="9.23605">
        <ele>497.27</ele>
        <time>2021-05-08T07:56:32Z</time>
      </trkpt>
      <trkpt lat="41.68478" lon="9.236">
        <ele>497.28</ele>
        <time>2021-05-08T07:56:36Z</time>
      </trkpt>
      <trkpt lat="41.6848" lon="9.23585">
        <ele>497.27</ele>
        <time>2021-05-08T07:56:47Z</time>
      </trkpt>
      <trkpt lat="41.68476" lon="9.23566">
        <ele>497.28</ele>
        <time>2021-05-08T07:57:05Z</time>
      </trkpt>
      <trkpt lat="41.68473" lon="9.23551">
        <ele>498.19</ele>
        <time>2021-05-08T07:57:20Z</time>
      </trkpt>
      <trkpt lat="41.68474" lon="9.23536">
        <ele>499.93</ele>
        <time>2021-05-08T07:57:34Z</time>
      </trkpt>
      <trkpt lat="41.68479" lon="9.23514">
        <ele>501.65</ele>
        <time>2021-05-08T07:57:51Z</time>
      </trkpt>
      <trkpt lat="41.68482" lon="9.23503">
        <ele>501.66</ele>
        <time>2021-05-08T07:58:02Z</time>
      </trkpt>
      <trkpt lat="41.68491" lon="9.23484">
        <ele>501.68</ele>
        <time>2021-05-08T07:58:17Z</time>
      </trkpt>
      <trkpt lat="41.68495" lon="9.23475">
        <ele>501.72</ele>
        <time>2021-05-08T07:58:32Z</time>
      </trkpt>
      <trkpt lat="41.68498" lon="9.23463">
        <ele>501.76</ele>
        <time>2021-05-08T07:58:42Z</time>
      </trkpt>
      <trkpt lat="41.685" lon="9.23455">
        <ele>501.76</ele>
        <time>2021-05-08T07:58:48Z</time>
      </trkpt>
      <trkpt lat="41.68499" lon="9.23447">
        <ele>499.41</ele>
        <time>2021-05-08T07:58:54Z</time>
      </trkpt>
      <trkpt lat="41.68499" lon="9.23443">
        <ele>499.42</ele>
        <time>2021-05-08T07:58:58Z</time>
      </trkpt>
      <trkpt lat="41.685" lon="9.23431">
        <ele>501.82</ele>
        <time>2021-05-08T07:59:12Z</time>
      </trkpt>
      <trkpt lat="41.68497" lon="9.23418">
        <ele>504.35</ele>
        <time>2021-05-08T07:59:33Z</time>
      </trkpt>
      <trkpt lat="41.68495" lon="9.2341">
        <ele>508.08</ele>
        <time>2021-05-08T07:59:50Z</time>
      </trkpt>
      <trkpt lat="41.6849" lon="9.23397">
        <ele>509.26</ele>
        <time>2021-05-08T08:00:09Z</time>
      </trkpt>
      <trkpt lat="41.68475" lon="9.23383">
        <ele>510.1</ele>
        <time>2021-05-08T08:00:30Z</time>
      </trkpt>
      <trkpt lat="41.68459" lon="9.23367">
        <ele>510.95</ele>
        <time>2021-05-08T08:00:52Z</time>
      </trkpt>
      <trkpt lat="41.68454" lon="9.23357">
        <ele>514.45</ele>
        <time>2021-05-08T08:01:06Z</time>
      </trkpt>
      <trkpt lat="41.68442" lon="9.23343">
        <ele>517.03</ele>
        <time>2021-05-08T08:01:25Z</time>
      </trkpt>
      <trkpt lat="41.68438" lon="9.23337">
        <ele>517.03</ele>
        <time>2021-05-08T08:01:29Z</time>
      </trkpt>
      <trkpt lat="41.68429" lon="9.23313">
        <ele>517.82</ele>
        <time>2021-05-08T08:01:45Z</time>
      </trkpt>
      <trkpt lat="41.68426" lon="9.23304">
        <ele>517.83</ele>
        <time>2021-05-08T08:01:51Z</time>
      </trkpt>
      <trkpt lat="41.68422" lon="9.23278">
        <ele>517.84</ele>
        <time>2021-05-08T08:02:06Z</time>
      </trkpt>
      <trkpt lat="41.68421" lon="9.23264">
        <ele>517.88</ele>
        <time>2021-05-08T08:02:17Z</time>
      </trkpt>
      <trkpt lat="41.68417" lon="9.23255">
        <ele>517.86</ele>
        <time>2021-05-08T08:02:25Z</time>
      </trkpt>
      <trkpt lat="41.68415" lon="9.23248">
        <ele>515.57</ele>
        <time>2021-05-08T08:02:30Z</time>
      </trkpt>
      <trkpt lat="41.68413" lon="9.23237">
        <ele>515.58</ele>
        <time>2021-05-08T08:02:38Z</time>
      </trkpt>
      <trkpt lat="41.68411" lon="9.23218">
        <ele>515.6</ele>
        <time>2021-05-08T08:02:53Z</time>
      </trkpt>
      <trkpt lat="41.68411" lon="9.23213">
        <ele>515.61</ele>
        <time>2021-05-08T08:03:00Z</time>
      </trkpt>
      <trkpt lat="41.68409" lon="9.23198">
        <ele>514.7</ele>
        <time>2021-05-08T08:03:13Z</time>
      </trkpt>
      <trkpt lat="41.68409" lon="9.23185">
        <ele>514.81</ele>
        <time>2021-05-08T08:03:23Z</time>
      </trkpt>
      <trkpt lat="41.6841" lon="9.23179">
        <ele>514.83</ele>
        <time>2021-05-08T08:03:27Z</time>
      </trkpt>
      <trkpt lat="41.6841" lon="9.23162">
        <ele>514.88</ele>
        <time>2021-05-08T08:03:41Z</time>
      </trkpt>
      <trkpt lat="41.68411" lon="9.23152">
        <ele>514.89</ele>
        <time>2021-05-08T08:03:56Z</time>
      </trkpt>
      <trkpt lat="41.68412" lon="9.23149">
        <ele>514.92</ele>
        <time>2021-05-08T08:04:19Z</time>
      </trkpt>
      <trkpt lat="41.68412" lon="9.23147">
        <ele>514.93</ele>
        <time>2021-05-08T08:04:28Z</time>
      </trkpt>
      <trkpt lat="41.68411" lon="9.23138">
        <ele>514.95</ele>
        <time>2021-05-08T08:04:39Z</time>
      </trkpt>
      <trkpt lat="41.6841" lon="9.23124">
        <ele>515</ele>
        <time>2021-05-08T08:04:56Z</time>
      </trkpt>
      <trkpt lat="41.68411" lon="9.23117">
        <ele>517.34</ele>
        <time>2021-05-08T08:05:03Z</time>
      </trkpt>
      <trkpt lat="41.68412" lon="9.23107">
        <ele>519.96</ele>
        <time>2021-05-08T08:05:20Z</time>
      </trkpt>
      <trkpt lat="41.68415" lon="9.23097">
        <ele>522.53</ele>
        <time>2021-05-08T08:05:39Z</time>
      </trkpt>
      <trkpt lat="41.68415" lon="9.23087">
        <ele>524.22</ele>
        <time>2021-05-08T08:05:56Z</time>
      </trkpt>
      <trkpt lat="41.68413" lon="9.23077">
        <ele>525.17</ele>
        <time>2021-05-08T08:06:14Z</time>
      </trkpt>
      <trkpt lat="41.68413" lon="9.23077">
        <ele>525.17</ele>
        <time>2021-05-08T08:06:32Z</time>
      </trkpt>
      <trkpt lat="41.68414" lon="9.23073">
        <ele>525.17</ele>
        <time>2021-05-08T08:06:49Z</time>
      </trkpt>
      <trkpt lat="41.68415" lon="9.23066">
        <ele>526.01</ele>
        <time>2021-05-08T08:07:08Z</time>
      </trkpt>
      <trkpt lat="41.68413" lon="9.23058">
        <ele>525.99</ele>
        <time>2021-05-08T08:07:22Z</time>
      </trkpt>
      <trkpt lat="41.68416" lon="9.23042">
        <ele>526.05</ele>
        <time>2021-05-08T08:07:34Z</time>
      </trkpt>
      <trkpt lat="41.68422" lon="9.23024">
        <ele>523.62</ele>
        <time>2021-05-08T08:07:48Z</time>
      </trkpt>
      <trkpt lat="41.68422" lon="9.23022">
        <ele>523.61</ele>
        <time>2021-05-08T08:07:49Z</time>
      </trkpt>
      <trkpt lat="41.68426" lon="9.23003">
        <ele>521.83</ele>
        <time>2021-05-08T08:08:03Z</time>
      </trkpt>
      <trkpt lat="41.68426" lon="9.22987">
        <ele>519.22</ele>
        <time>2021-05-08T08:08:18Z</time>
      </trkpt>
      <trkpt lat="41.68419" lon="9.22972">
        <ele>517.88</ele>
        <time>2021-05-08T08:08:37Z</time>
      </trkpt>
      <trkpt lat="41.68418" lon="9.22962">
        <ele>518.06</ele>
        <time>2021-05-08T08:08:52Z</time>
      </trkpt>
      <trkpt lat="41.68418" lon="9.22955">
        <ele>518.1</ele>
        <time>2021-05-08T08:08:58Z</time>
      </trkpt>
      <trkpt lat="41.6842" lon="9.22928">
        <ele>518.15</ele>
        <time>2021-05-08T08:09:16Z</time>
      </trkpt>
      <trkpt lat="41.68422" lon="9.22919">
        <ele>518.19</ele>
        <time>2021-05-08T08:09:22Z</time>
      </trkpt>
      <trkpt lat="41.68426" lon="9.22902">
        <ele>520.55</ele>
        <time>2021-05-08T08:09:35Z</time>
      </trkpt>
      <trkpt lat="41.68433" lon="9.22885">
        <ele>522.36</ele>
        <time>2021-05-08T08:09:52Z</time>
      </trkpt>
      <trkpt lat="41.68438" lon="9.22877">
        <ele>522.38</ele>
        <time>2021-05-08T08:09:59Z</time>
      </trkpt>
      <trkpt lat="41.68445" lon="9.22868">
        <ele>522.29</ele>
        <time>2021-05-08T08:10:05Z</time>
      </trkpt>
      <trkpt lat="41.68452" lon="9.22856">
        <ele>519.92</ele>
        <time>2021-05-08T08:10:18Z</time>
      </trkpt>
      <trkpt lat="41.68452" lon="9.22849">
        <ele>519.17</ele>
        <time>2021-05-08T08:10:27Z</time>
      </trkpt>
      <trkpt lat="41.68451" lon="9.22844">
        <ele>519.21</ele>
        <time>2021-05-08T08:10:31Z</time>
      </trkpt>
      <trkpt lat="41.6845" lon="9.22841">
        <ele>519.32</ele>
        <time>2021-05-08T08:10:36Z</time>
      </trkpt>
      <trkpt lat="41.68448" lon="9.22837">
        <ele>519.35</ele>
        <time>2021-05-08T08:10:40Z</time>
      </trkpt>
      <trkpt lat="41.68446" lon="9.22825">
        <ele>519.45</ele>
        <time>2021-05-08T08:10:54Z</time>
      </trkpt>
      <trkpt lat="41.68449" lon="9.2281">
        <ele>519.58</ele>
        <time>2021-05-08T08:11:13Z</time>
      </trkpt>
      <trkpt lat="41.68448" lon="9.22802">
        <ele>519.7</ele>
        <time>2021-05-08T08:11:32Z</time>
      </trkpt>
      <trkpt lat="41.68446" lon="9.22796">
        <ele>519.8</ele>
        <time>2021-05-08T08:11:51Z</time>
      </trkpt>
      <trkpt lat="41.68442" lon="9.22787">
        <ele>518.86</ele>
        <time>2021-05-08T08:12:08Z</time>
      </trkpt>
      <trkpt lat="41.6844" lon="9.22775">
        <ele>517.18</ele>
        <time>2021-05-08T08:12:23Z</time>
      </trkpt>
      <trkpt lat="41.68437" lon="9.2277">
        <ele>517.22</ele>
        <time>2021-05-08T08:12:30Z</time>
      </trkpt>
      <trkpt lat="41.68429" lon="9.22755">
        <ele>517.34</ele>
        <time>2021-05-08T08:12:46Z</time>
      </trkpt>
      <trkpt lat="41.68433" lon="9.22739">
        <ele>517.43</ele>
        <time>2021-05-08T08:13:03Z</time>
      </trkpt>
      <trkpt lat="41.68435" lon="9.22737">
        <ele>519.92</ele>
        <time>2021-05-08T08:13:06Z</time>
      </trkpt>
      <trkpt lat="41.68442" lon="9.22724">
        <ele>522.57</ele>
        <time>2021-05-08T08:13:23Z</time>
      </trkpt>
      <trkpt lat="41.6844" lon="9.22719">
        <ele>523.3</ele>
        <time>2021-05-08T08:13:41Z</time>
      </trkpt>
      <trkpt lat="41.68434" lon="9.22707">
        <ele>524.3</ele>
        <time>2021-05-08T08:14:01Z</time>
      </trkpt>
      <trkpt lat="41.68432" lon="9.22685">
        <ele>526.88</ele>
        <time>2021-05-08T08:14:20Z</time>
      </trkpt>
      <trkpt lat="41.68431" lon="9.22677">
        <ele>527.6</ele>
        <time>2021-05-08T08:14:35Z</time>
      </trkpt>
      <trkpt lat="41.68427" lon="9.22667">
        <ele>528.3</ele>
        <time>2021-05-08T08:14:50Z</time>
      </trkpt>
      <trkpt lat="41.68425" lon="9.22662">
        <ele>528.3</ele>
        <time>2021-05-08T08:14:55Z</time>
      </trkpt>
      <trkpt lat="41.68419" lon="9.22649">
        <ele>529.13</ele>
        <time>2021-05-08T08:15:08Z</time>
      </trkpt>
      <trkpt lat="41.68418" lon="9.22646">
        <ele>529.85</ele>
        <time>2021-05-08T08:15:14Z</time>
      </trkpt>
      <trkpt lat="41.68415" lon="9.2264">
        <ele>529.84</ele>
        <time>2021-05-08T08:15:19Z</time>
      </trkpt>
      <trkpt lat="41.68411" lon="9.22631">
        <ele>529.75</ele>
        <time>2021-05-08T08:15:29Z</time>
      </trkpt>
      <trkpt lat="41.68405" lon="9.22613">
        <ele>529.72</ele>
        <time>2021-05-08T08:15:44Z</time>
      </trkpt>
      <trkpt lat="41.68407" lon="9.22607">
        <ele>530.49</ele>
        <time>2021-05-08T08:16:03Z</time>
      </trkpt>
      <trkpt lat="41.68407" lon="9.22606">
        <ele>530.46</ele>
        <time>2021-05-08T08:16:19Z</time>
      </trkpt>
      <trkpt lat="41.68406" lon="9.22602">
        <ele>530.41</ele>
        <time>2021-05-08T08:16:38Z</time>
      </trkpt>
      <trkpt lat="41.68407" lon="9.22595">
        <ele>530.51</ele>
        <time>2021-05-08T08:16:52Z</time>
      </trkpt>
      <trkpt lat="41.68404" lon="9.22584">
        <ele>531.25</ele>
        <time>2021-05-08T08:17:05Z</time>
      </trkpt>
      <trkpt lat="41.684" lon="9.22573">
        <ele>533.08</ele>
        <time>2021-05-08T08:17:20Z</time>
      </trkpt>
      <trkpt lat="41.684" lon="9.22568">
        <ele>532.99</ele>
        <time>2021-05-08T08:17:38Z</time>
      </trkpt>
      <trkpt lat="41.68397" lon="9.22561">
        <ele>533.81</ele>
        <time>2021-05-08T08:17:53Z</time>
      </trkpt>
      <trkpt lat="41.68397" lon="9.22554">
        <ele>533.82</ele>
        <time>2021-05-08T08:18:07Z</time>
      </trkpt>
      <trkpt lat="41.68397" lon="9.22551">
        <ele>533.78</ele>
        <time>2021-05-08T08:18:28Z</time>
      </trkpt>
      <trkpt lat="41.68399" lon="9.2255">
        <ele>533.76</ele>
        <time>2021-05-08T08:18:47Z</time>
      </trkpt>
      <trkpt lat="41.684" lon="9.22543">
        <ele>533.75</ele>
        <time>2021-05-08T08:19:01Z</time>
      </trkpt>
      <trkpt lat="41.68408" lon="9.22532">
        <ele>535.42</ele>
        <time>2021-05-08T08:19:18Z</time>
      </trkpt>
      <trkpt lat="41.68413" lon="9.22519">
        <ele>536.26</ele>
        <time>2021-05-08T08:19:34Z</time>
      </trkpt>
      <trkpt lat="41.68417" lon="9.22513">
        <ele>536.16</ele>
        <time>2021-05-08T08:19:55Z</time>
      </trkpt>
      <trkpt lat="41.68421" lon="9.22505">
        <ele>536.14</ele>
        <time>2021-05-08T08:20:12Z</time>
      </trkpt>
      <trkpt lat="41.68415" lon="9.22494">
        <ele>536.1</ele>
        <time>2021-05-08T08:20:28Z</time>
      </trkpt>
      <trkpt lat="41.68412" lon="9.22488">
        <ele>536.02</ele>
        <time>2021-05-08T08:20:43Z</time>
      </trkpt>
      <trkpt lat="41.68409" lon="9.2248">
        <ele>533.54</ele>
        <time>2021-05-08T08:21:01Z</time>
      </trkpt>
      <trkpt lat="41.68404" lon="9.22468">
        <ele>532.73</ele>
        <time>2021-05-08T08:21:15Z</time>
      </trkpt>
      <trkpt lat="41.68397" lon="9.22451">
        <ele>532.83</ele>
        <time>2021-05-08T08:21:31Z</time>
      </trkpt>
      <trkpt lat="41.68396" lon="9.22428">
        <ele>532.85</ele>
        <time>2021-05-08T08:21:48Z</time>
      </trkpt>
      <trkpt lat="41.68396" lon="9.22418">
        <ele>535.17</ele>
        <time>2021-05-08T08:21:57Z</time>
      </trkpt>
      <trkpt lat="41.68389" lon="9.22403">
        <ele>535.17</ele>
        <time>2021-05-08T08:22:09Z</time>
      </trkpt>
      <trkpt lat="41.68392" lon="9.2239">
        <ele>538.03</ele>
        <time>2021-05-08T08:22:23Z</time>
      </trkpt>
      <trkpt lat="41.68392" lon="9.22379">
        <ele>540.37</ele>
        <time>2021-05-08T08:22:40Z</time>
      </trkpt>
      <trkpt lat="41.68398" lon="9.22368">
        <ele>541.95</ele>
        <time>2021-05-08T08:22:58Z</time>
      </trkpt>
      <trkpt lat="41.68403" lon="9.22356">
        <ele>541.88</ele>
        <time>2021-05-08T08:23:13Z</time>
      </trkpt>
      <trkpt lat="41.68408" lon="9.22352">
        <ele>542.96</ele>
        <time>2021-05-08T08:23:32Z</time>
      </trkpt>
      <trkpt lat="41.68414" lon="9.22345">
        <ele>544.74</ele>
        <time>2021-05-08T08:23:51Z</time>
      </trkpt>
      <trkpt lat="41.68416" lon="9.22333">
        <ele>544.65</ele>
        <time>2021-05-08T08:24:09Z</time>
      </trkpt>
      <trkpt lat="41.68415" lon="9.2233">
        <ele>544.59</ele>
        <time>2021-05-08T08:24:27Z</time>
      </trkpt>
      <trkpt lat="41.68419" lon="9.2232">
        <ele>544.62</ele>
        <time>2021-05-08T08:24:57Z</time>
      </trkpt>
      <trkpt lat="41.68423" lon="9.22319">
        <ele>544.58</ele>
        <time>2021-05-08T08:25:26Z</time>
      </trkpt>
      <trkpt lat="41.68418" lon="9.22317">
        <ele>544.55</ele>
        <time>2021-05-08T08:25:56Z</time>
      </trkpt>
      <trkpt lat="41.68423" lon="9.2232">
        <ele>544.54</ele>
        <time>2021-05-08T08:26:08Z</time>
      </trkpt>
      <trkpt lat="41.68421" lon="9.22323">
        <ele>544.58</ele>
        <time>2021-05-08T08:26:37Z</time>
      </trkpt>
      <trkpt lat="41.68419" lon="9.22322">
        <ele>544.61</ele>
        <time>2021-05-08T08:27:03Z</time>
      </trkpt>
      <trkpt lat="41.68414" lon="9.22322">
        <ele>545.52</ele>
        <time>2021-05-08T08:27:24Z</time>
      </trkpt>
      <trkpt lat="41.68406" lon="9.22325">
        <ele>547.38</ele>
        <time>2021-05-08T08:27:43Z</time>
      </trkpt>
      <trkpt lat="41.68396" lon="9.22318">
        <ele>548.92</ele>
        <time>2021-05-08T08:28:05Z</time>
      </trkpt>
      <trkpt lat="41.6839" lon="9.22312">
        <ele>549.71</ele>
        <time>2021-05-08T08:28:18Z</time>
      </trkpt>
      <trkpt lat="41.68384" lon="9.22306">
        <ele>550.64</ele>
        <time>2021-05-08T08:28:31Z</time>
      </trkpt>
      <trkpt lat="41.68377" lon="9.22306">
        <ele>550.67</ele>
        <time>2021-05-08T08:28:43Z</time>
      </trkpt>
      <trkpt lat="41.6837" lon="9.22302">
        <ele>551.58</ele>
        <time>2021-05-08T08:28:56Z</time>
      </trkpt>
      <trkpt lat="41.68364" lon="9.223">
        <ele>552.46</ele>
        <time>2021-05-08T08:29:10Z</time>
      </trkpt>
      <trkpt lat="41.68354" lon="9.223">
        <ele>553.47</ele>
        <time>2021-05-08T08:29:26Z</time>
      </trkpt>
      <trkpt lat="41.68342" lon="9.22299">
        <ele>556.17</ele>
        <time>2021-05-08T08:29:43Z</time>
      </trkpt>
      <trkpt lat="41.68334" lon="9.22294">
        <ele>558.05</ele>
        <time>2021-05-08T08:29:58Z</time>
      </trkpt>
      <trkpt lat="41.68333" lon="9.22281">
        <ele>560.82</ele>
        <time>2021-05-08T08:30:18Z</time>
      </trkpt>
      <trkpt lat="41.68332" lon="9.22262">
        <ele>563.29</ele>
        <time>2021-05-08T08:30:35Z</time>
      </trkpt>
      <trkpt lat="41.68329" lon="9.22249">
        <ele>564.91</ele>
        <time>2021-05-08T08:30:50Z</time>
      </trkpt>
      <trkpt lat="41.68327" lon="9.22239">
        <ele>568.08</ele>
        <time>2021-05-08T08:31:02Z</time>
      </trkpt>
      <trkpt lat="41.68323" lon="9.22223">
        <ele>570.57</ele>
        <time>2021-05-08T08:31:22Z</time>
      </trkpt>
      <trkpt lat="41.68319" lon="9.22208">
        <ele>572.33</ele>
        <time>2021-05-08T08:31:38Z</time>
      </trkpt>
      <trkpt lat="41.68318" lon="9.22202">
        <ele>572.31</ele>
        <time>2021-05-08T08:31:43Z</time>
      </trkpt>
      <trkpt lat="41.68315" lon="9.22192">
        <ele>572.29</ele>
        <time>2021-05-08T08:31:53Z</time>
      </trkpt>
      <trkpt lat="41.68313" lon="9.22176">
        <ele>572.27</ele>
        <time>2021-05-08T08:32:09Z</time>
      </trkpt>
      <trkpt lat="41.68309" lon="9.22162">
        <ele>573.05</ele>
        <time>2021-05-08T08:32:27Z</time>
      </trkpt>
      <trkpt lat="41.68311" lon="9.22158">
        <ele>573.01</ele>
        <time>2021-05-08T08:32:48Z</time>
      </trkpt>
      <trkpt lat="41.68311" lon="9.22157">
        <ele>573.01</ele>
        <time>2021-05-08T08:33:06Z</time>
      </trkpt>
      <trkpt lat="41.68309" lon="9.22159">
        <ele>573.04</ele>
        <time>2021-05-08T08:33:26Z</time>
      </trkpt>
      <trkpt lat="41.68309" lon="9.22159">
        <ele>569.01</ele>
        <time>2021-05-08T08:33:27Z</time>
      </trkpt>
      <trkpt lat="41.68309" lon="9.22159">
        <ele>573</ele>
        <time>2021-05-08T08:33:28Z</time>
      </trkpt>
      <trkpt lat="41.68302" lon="9.22156">
        <ele>573.95</ele>
        <time>2021-05-08T08:33:47Z</time>
      </trkpt>
      <trkpt lat="41.68293" lon="9.22151">
        <ele>576.61</ele>
        <time>2021-05-08T08:34:01Z</time>
      </trkpt>
      <trkpt lat="41.68282" lon="9.22138">
        <ele>578.5</ele>
        <time>2021-05-08T08:34:19Z</time>
      </trkpt>
      <trkpt lat="41.68277" lon="9.22133">
        <ele>581.01</ele>
        <time>2021-05-08T08:34:35Z</time>
      </trkpt>
      <trkpt lat="41.68276" lon="9.22133">
        <ele>581.02</ele>
        <time>2021-05-08T08:34:36Z</time>
      </trkpt>
      <trkpt lat="41.68267" lon="9.22123">
        <ele>581.08</ele>
        <time>2021-05-08T08:34:51Z</time>
      </trkpt>
      <trkpt lat="41.68261" lon="9.22121">
        <ele>581.19</ele>
        <time>2021-05-08T08:35:08Z</time>
      </trkpt>
      <trkpt lat="41.68258" lon="9.22121">
        <ele>581.3</ele>
        <time>2021-05-08T08:35:24Z</time>
      </trkpt>
      <trkpt lat="41.68257" lon="9.22118">
        <ele>581.46</ele>
        <time>2021-05-08T08:35:45Z</time>
      </trkpt>
      <trkpt lat="41.68257" lon="9.22117">
        <ele>581.59</ele>
        <time>2021-05-08T08:36:08Z</time>
      </trkpt>
      <trkpt lat="41.68258" lon="9.22119">
        <ele>581.72</ele>
        <time>2021-05-08T08:36:31Z</time>
      </trkpt>
      <trkpt lat="41.68255" lon="9.22118">
        <ele>581.85</ele>
        <time>2021-05-08T08:36:54Z</time>
      </trkpt>
      <trkpt lat="41.68254" lon="9.22119">
        <ele>579.62</ele>
        <time>2021-05-08T08:37:01Z</time>
      </trkpt>
      <trkpt lat="41.68253" lon="9.2212">
        <ele>579.78</ele>
        <time>2021-05-08T08:37:19Z</time>
      </trkpt>
      <trkpt lat="41.68248" lon="9.22117">
        <ele>579.94</ele>
        <time>2021-05-08T08:37:37Z</time>
      </trkpt>
      <trkpt lat="41.68249" lon="9.22112">
        <ele>580.07</ele>
        <time>2021-05-08T08:37:51Z</time>
      </trkpt>
      <trkpt lat="41.6825" lon="9.2211">
        <ele>582.39</ele>
        <time>2021-05-08T08:37:59Z</time>
      </trkpt>
      <trkpt lat="41.68254" lon="9.22103">
        <ele>584.33</ele>
        <time>2021-05-08T08:38:16Z</time>
      </trkpt>
      <trkpt lat="41.68251" lon="9.22101">
        <ele>585.24</ele>
        <time>2021-05-08T08:38:35Z</time>
      </trkpt>
      <trkpt lat="41.68254" lon="9.22091">
        <ele>589.04</ele>
        <time>2021-05-08T08:38:52Z</time>
      </trkpt>
      <trkpt lat="41.68255" lon="9.22076">
        <ele>592.51</ele>
        <time>2021-05-08T08:39:13Z</time>
      </trkpt>
      <trkpt lat="41.68256" lon="9.22072">
        <ele>594.31</ele>
        <time>2021-05-08T08:39:31Z</time>
      </trkpt>
      <trkpt lat="41.68257" lon="9.22078">
        <ele>595.97</ele>
        <time>2021-05-08T08:39:52Z</time>
      </trkpt>
      <trkpt lat="41.68252" lon="9.22078">
        <ele>596.03</ele>
        <time>2021-05-08T08:40:11Z</time>
      </trkpt>
      <trkpt lat="41.68248" lon="9.22081">
        <ele>597.88</ele>
        <time>2021-05-08T08:40:28Z</time>
      </trkpt>
      <trkpt lat="41.68248" lon="9.22088">
        <ele>597.98</ele>
        <time>2021-05-08T08:40:51Z</time>
      </trkpt>
      <trkpt lat="41.68245" lon="9.2209">
        <ele>598.02</ele>
        <time>2021-05-08T08:41:00Z</time>
      </trkpt>
      <trkpt lat="41.68246" lon="9.22087">
        <ele>599.85</ele>
        <time>2021-05-08T08:41:16Z</time>
      </trkpt>
      <trkpt lat="41.68244" lon="9.22079">
        <ele>603.31</ele>
        <time>2021-05-08T08:41:30Z</time>
      </trkpt>
      <trkpt lat="41.68242" lon="9.22076">
        <ele>606.62</ele>
        <time>2021-05-08T08:41:48Z</time>
      </trkpt>
      <trkpt lat="41.68238" lon="9.22078">
        <ele>607.51</ele>
        <time>2021-05-08T08:42:04Z</time>
      </trkpt>
      <trkpt lat="41.68233" lon="9.22074">
        <ele>610.89</ele>
        <time>2021-05-08T08:42:23Z</time>
      </trkpt>
      <trkpt lat="41.68233" lon="9.22064">
        <ele>613.57</ele>
        <time>2021-05-08T08:42:41Z</time>
      </trkpt>
      <trkpt lat="41.68238" lon="9.22053">
        <ele>615.31</ele>
        <time>2021-05-08T08:42:59Z</time>
      </trkpt>
      <trkpt lat="41.68243" lon="9.22039">
        <ele>618.64</ele>
        <time>2021-05-08T08:43:19Z</time>
      </trkpt>
      <trkpt lat="41.68249" lon="9.22033">
        <ele>618.66</ele>
        <time>2021-05-08T08:43:43Z</time>
      </trkpt>
      <trkpt lat="41.6826" lon="9.22034">
        <ele>618.75</ele>
        <time>2021-05-08T08:44:07Z</time>
      </trkpt>
      <trkpt lat="41.68259" lon="9.22034">
        <ele>618.86</ele>
        <time>2021-05-08T08:44:28Z</time>
      </trkpt>
      <trkpt lat="41.68259" lon="9.22035">
        <ele>616.33</ele>
        <time>2021-05-08T08:44:32Z</time>
      </trkpt>
      <trkpt lat="41.68262" lon="9.22032">
        <ele>613.11</ele>
        <time>2021-05-08T08:44:50Z</time>
      </trkpt>
      <trkpt lat="41.68261" lon="9.22034">
        <ele>612.58</ele>
        <time>2021-05-08T08:45:16Z</time>
      </trkpt>
      <trkpt lat="41.68261" lon="9.22036">
        <ele>612.68</ele>
        <time>2021-05-08T08:45:26Z</time>
      </trkpt>
      <trkpt lat="41.6826" lon="9.22042">
        <ele>615.28</ele>
        <time>2021-05-08T08:45:42Z</time>
      </trkpt>
      <trkpt lat="41.68256" lon="9.22046">
        <ele>617.99</ele>
        <time>2021-05-08T08:45:57Z</time>
      </trkpt>
      <trkpt lat="41.68254" lon="9.22047">
        <ele>620.76</ele>
        <time>2021-05-08T08:46:16Z</time>
      </trkpt>
      <trkpt lat="41.68253" lon="9.22045">
        <ele>621.82</ele>
        <time>2021-05-08T08:46:41Z</time>
      </trkpt>
      <trkpt lat="41.68243" lon="9.22052">
        <ele>623.6</ele>
        <time>2021-05-08T08:47:02Z</time>
      </trkpt>
      <trkpt lat="41.68237" lon="9.22056">
        <ele>624.67</ele>
        <time>2021-05-08T08:47:19Z</time>
      </trkpt>
      <trkpt lat="41.68231" lon="9.22057">
        <ele>626.31</ele>
        <time>2021-05-08T08:47:33Z</time>
      </trkpt>
      <trkpt lat="41.68228" lon="9.22046">
        <ele>629.91</ele>
        <time>2021-05-08T08:47:51Z</time>
      </trkpt>
      <trkpt lat="41.68231" lon="9.22034">
        <ele>632.52</ele>
        <time>2021-05-08T08:48:13Z</time>
      </trkpt>
      <trkpt lat="41.68235" lon="9.22019">
        <ele>636</ele>
        <time>2021-05-08T08:48:29Z</time>
      </trkpt>
      <trkpt lat="41.68239" lon="9.22009">
        <ele>638.34</ele>
        <time>2021-05-08T08:48:47Z</time>
      </trkpt>
      <trkpt lat="41.68236" lon="9.22019">
        <ele>640.3</ele>
        <time>2021-05-08T08:49:03Z</time>
      </trkpt>
      <trkpt lat="41.68229" lon="9.22019">
        <ele>644.04</ele>
        <time>2021-05-08T08:49:21Z</time>
      </trkpt>
      <trkpt lat="41.68231" lon="9.22005">
        <ele>647.65</ele>
        <time>2021-05-08T08:49:39Z</time>
      </trkpt>
      <trkpt lat="41.68227" lon="9.21998">
        <ele>650.35</ele>
        <time>2021-05-08T08:49:59Z</time>
      </trkpt>
      <trkpt lat="41.68224" lon="9.21998">
        <ele>652.79</ele>
        <time>2021-05-08T08:50:10Z</time>
      </trkpt>
      <trkpt lat="41.68226" lon="9.21993">
        <ele>655.53</ele>
        <time>2021-05-08T08:50:28Z</time>
      </trkpt>
      <trkpt lat="41.68218" lon="9.21999">
        <ele>656.23</ele>
        <time>2021-05-08T08:50:42Z</time>
      </trkpt>
      <trkpt lat="41.68208" lon="9.22006">
        <ele>657.98</ele>
        <time>2021-05-08T08:50:58Z</time>
      </trkpt>
      <trkpt lat="41.68202" lon="9.22013">
        <ele>659.74</ele>
        <time>2021-05-08T08:51:17Z</time>
      </trkpt>
      <trkpt lat="41.68197" lon="9.22018">
        <ele>661.5</ele>
        <time>2021-05-08T08:51:33Z</time>
      </trkpt>
      <trkpt lat="41.6819" lon="9.2202">
        <ele>665.23</ele>
        <time>2021-05-08T08:51:51Z</time>
      </trkpt>
      <trkpt lat="41.68187" lon="9.22024">
        <ele>666.83</ele>
        <time>2021-05-08T08:52:09Z</time>
      </trkpt>
      <trkpt lat="41.68185" lon="9.22024">
        <ele>667.95</ele>
        <time>2021-05-08T08:52:31Z</time>
      </trkpt>
      <trkpt lat="41.68182" lon="9.22031">
        <ele>668.03</ele>
        <time>2021-05-08T08:52:47Z</time>
      </trkpt>
      <trkpt lat="41.68175" lon="9.22034">
        <ele>668.17</ele>
        <time>2021-05-08T08:53:05Z</time>
      </trkpt>
      <trkpt lat="41.68172" lon="9.22023">
        <ele>670.18</ele>
        <time>2021-05-08T08:53:26Z</time>
      </trkpt>
      <trkpt lat="41.68172" lon="9.22018">
        <ele>670.27</ele>
        <time>2021-05-08T08:53:52Z</time>
      </trkpt>
      <trkpt lat="41.68171" lon="9.22019">
        <ele>671.08</ele>
        <time>2021-05-08T08:54:16Z</time>
      </trkpt>
      <trkpt lat="41.68175" lon="9.22015">
        <ele>671.16</ele>
        <time>2021-05-08T08:54:40Z</time>
      </trkpt>
      <trkpt lat="41.6818" lon="9.22016">
        <ele>671.19</ele>
        <time>2021-05-08T08:54:53Z</time>
      </trkpt>
      <trkpt lat="41.68176" lon="9.22019">
        <ele>671.28</ele>
        <time>2021-05-08T08:55:15Z</time>
      </trkpt>
      <trkpt lat="41.68175" lon="9.22018">
        <ele>671.37</ele>
        <time>2021-05-08T08:55:36Z</time>
      </trkpt>
      <trkpt lat="41.68178" lon="9.22016">
        <ele>671.45</ele>
        <time>2021-05-08T08:55:57Z</time>
      </trkpt>
      <trkpt lat="41.68176" lon="9.22017">
        <ele>671.58</ele>
        <time>2021-05-08T08:56:20Z</time>
      </trkpt>
      <trkpt lat="41.68168" lon="9.22021">
        <ele>675.14</ele>
        <time>2021-05-08T08:56:35Z</time>
      </trkpt>
      <trkpt lat="41.6817" lon="9.22016">
        <ele>676.8</ele>
        <time>2021-05-08T08:56:58Z</time>
      </trkpt>
      <trkpt lat="41.68169" lon="9.22012">
        <ele>677.63</ele>
        <time>2021-05-08T08:57:15Z</time>
      </trkpt>
      <trkpt lat="41.68174" lon="9.22004">
        <ele>679.49</ele>
        <time>2021-05-08T08:57:41Z</time>
      </trkpt>
      <trkpt lat="41.68172" lon="9.2199">
        <ele>683.23</ele>
        <time>2021-05-08T08:58:00Z</time>
      </trkpt>
      <trkpt lat="41.68173" lon="9.21977">
        <ele>685.92</ele>
        <time>2021-05-08T08:58:20Z</time>
      </trkpt>
      <trkpt lat="41.68174" lon="9.21965">
        <ele>688.43</ele>
        <time>2021-05-08T08:58:41Z</time>
      </trkpt>
      <trkpt lat="41.68179" lon="9.21955">
        <ele>690.38</ele>
        <time>2021-05-08T08:59:02Z</time>
      </trkpt>
      <trkpt lat="41.68175" lon="9.21951">
        <ele>693.75</ele>
        <time>2021-05-08T08:59:19Z</time>
      </trkpt>
      <trkpt lat="41.68168" lon="9.2196">
        <ele>694.55</ele>
        <time>2021-05-08T08:59:40Z</time>
      </trkpt>
      <trkpt lat="41.68161" lon="9.21972">
        <ele>695.36</ele>
        <time>2021-05-08T08:59:58Z</time>
      </trkpt>
      <trkpt lat="41.68162" lon="9.21978">
        <ele>696.12</ele>
        <time>2021-05-08T09:00:21Z</time>
      </trkpt>
      <trkpt lat="41.68159" lon="9.2198">
        <ele>696.96</ele>
        <time>2021-05-08T09:00:49Z</time>
      </trkpt>
      <trkpt lat="41.68158" lon="9.2198">
        <ele>697.04</ele>
        <time>2021-05-08T09:01:09Z</time>
      </trkpt>
      <trkpt lat="41.68157" lon="9.21978">
        <ele>697.17</ele>
        <time>2021-05-08T09:01:33Z</time>
      </trkpt>
      <trkpt lat="41.68158" lon="9.21977">
        <ele>697.28</ele>
        <time>2021-05-08T09:01:52Z</time>
      </trkpt>
      <trkpt lat="41.68157" lon="9.21971">
        <ele>698.25</ele>
        <time>2021-05-08T09:02:16Z</time>
      </trkpt>
      <trkpt lat="41.68156" lon="9.21967">
        <ele>699.17</ele>
        <time>2021-05-08T09:02:36Z</time>
      </trkpt>
      <trkpt lat="41.68158" lon="9.21964">
        <ele>700.91</ele>
        <time>2021-05-08T09:02:56Z</time>
      </trkpt>
      <trkpt lat="41.68156" lon="9.21961">
        <ele>701.05</ele>
        <time>2021-05-08T09:03:22Z</time>
      </trkpt>
      <trkpt lat="41.68163" lon="9.21958">
        <ele>701.21</ele>
        <time>2021-05-08T09:03:46Z</time>
      </trkpt>
      <trkpt lat="41.68166" lon="9.2195">
        <ele>703.96</ele>
        <time>2021-05-08T09:04:08Z</time>
      </trkpt>
      <trkpt lat="41.68167" lon="9.2194">
        <ele>704.96</ele>
        <time>2021-05-08T09:04:28Z</time>
      </trkpt>
      <trkpt lat="41.68164" lon="9.21944">
        <ele>707.67</ele>
        <time>2021-05-08T09:04:49Z</time>
      </trkpt>
      <trkpt lat="41.68165" lon="9.21939">
        <ele>711.01</ele>
        <time>2021-05-08T09:05:10Z</time>
      </trkpt>
      <trkpt lat="41.68162" lon="9.21934">
        <ele>711.93</ele>
        <time>2021-05-08T09:05:35Z</time>
      </trkpt>
      <trkpt lat="41.68164" lon="9.21932">
        <ele>712.79</ele>
        <time>2021-05-08T09:05:56Z</time>
      </trkpt>
      <trkpt lat="41.68162" lon="9.21938">
        <ele>712.85</ele>
        <time>2021-05-08T09:06:20Z</time>
      </trkpt>
      <trkpt lat="41.68163" lon="9.21942">
        <ele>712.96</ele>
        <time>2021-05-08T09:06:45Z</time>
      </trkpt>
      <trkpt lat="41.68166" lon="9.21942">
        <ele>713.1</ele>
        <time>2021-05-08T09:07:08Z</time>
      </trkpt>
      <trkpt lat="41.68167" lon="9.21937">
        <ele>713.21</ele>
        <time>2021-05-08T09:07:29Z</time>
      </trkpt>
      <trkpt lat="41.68166" lon="9.21937">
        <ele>714.09</ele>
        <time>2021-05-08T09:07:50Z</time>
      </trkpt>
      <trkpt lat="41.68167" lon="9.21937">
        <ele>714.17</ele>
        <time>2021-05-08T09:08:11Z</time>
      </trkpt>
      <trkpt lat="41.68162" lon="9.21933">
        <ele>716.91</ele>
        <time>2021-05-08T09:08:29Z</time>
      </trkpt>
      <trkpt lat="41.68153" lon="9.21937">
        <ele>718.81</ele>
        <time>2021-05-08T09:08:51Z</time>
      </trkpt>
      <trkpt lat="41.6815" lon="9.21935">
        <ele>719.64</ele>
        <time>2021-05-08T09:09:13Z</time>
      </trkpt>
      <trkpt lat="41.68135" lon="9.21952">
        <ele>722.24</ele>
        <time>2021-05-08T09:09:37Z</time>
      </trkpt>
      <trkpt lat="41.68124" lon="9.21953">
        <ele>725.65</ele>
        <time>2021-05-08T09:09:54Z</time>
      </trkpt>
      <trkpt lat="41.68124" lon="9.21945">
        <ele>729.4</ele>
        <time>2021-05-08T09:10:10Z</time>
      </trkpt>
      <trkpt lat="41.68132" lon="9.21924">
        <ele>731.81</ele>
        <time>2021-05-08T09:10:31Z</time>
      </trkpt>
      <trkpt lat="41.68138" lon="9.21906">
        <ele>734.34</ele>
        <time>2021-05-08T09:10:52Z</time>
      </trkpt>
      <trkpt lat="41.68142" lon="9.21898">
        <ele>736.01</ele>
        <time>2021-05-08T09:11:14Z</time>
      </trkpt>
      <trkpt lat="41.68153" lon="9.21886">
        <ele>737.72</ele>
        <time>2021-05-08T09:11:36Z</time>
      </trkpt>
      <trkpt lat="41.68161" lon="9.21879">
        <ele>740.99</ele>
        <time>2021-05-08T09:11:48Z</time>
      </trkpt>
      <trkpt lat="41.68173" lon="9.21876">
        <ele>742.54</ele>
        <time>2021-05-08T09:12:07Z</time>
      </trkpt>
      <trkpt lat="41.68179" lon="9.21872">
        <ele>744.05</ele>
        <time>2021-05-08T09:12:18Z</time>
      </trkpt>
      <trkpt lat="41.68191" lon="9.21859">
        <ele>745.65</ele>
        <time>2021-05-08T09:12:36Z</time>
      </trkpt>
      <trkpt lat="41.68196" lon="9.2185">
        <ele>748.3</ele>
        <time>2021-05-08T09:12:54Z</time>
      </trkpt>
      <trkpt lat="41.68203" lon="9.21839">
        <ele>750.89</ele>
        <time>2021-05-08T09:13:13Z</time>
      </trkpt>
      <trkpt lat="41.68209" lon="9.21825">
        <ele>754.18</ele>
        <time>2021-05-08T09:13:31Z</time>
      </trkpt>
      <trkpt lat="41.68205" lon="9.21828">
        <ele>757.59</ele>
        <time>2021-05-08T09:13:49Z</time>
      </trkpt>
      <trkpt lat="41.68197" lon="9.21834">
        <ele>759.96</ele>
        <time>2021-05-08T09:14:08Z</time>
      </trkpt>
      <trkpt lat="41.68187" lon="9.21839">
        <ele>761.61</ele>
        <time>2021-05-08T09:14:27Z</time>
      </trkpt>
      <trkpt lat="41.68175" lon="9.21848">
        <ele>763.46</ele>
        <time>2021-05-08T09:14:45Z</time>
      </trkpt>
      <trkpt lat="41.6817" lon="9.21858">
        <ele>766.81</ele>
        <time>2021-05-08T09:14:58Z</time>
      </trkpt>
      <trkpt lat="41.68164" lon="9.21864">
        <ele>767.66</ele>
        <time>2021-05-08T09:15:13Z</time>
      </trkpt>
      <trkpt lat="41.68167" lon="9.2186">
        <ele>767.72</ele>
        <time>2021-05-08T09:15:35Z</time>
      </trkpt>
      <trkpt lat="41.68164" lon="9.21853">
        <ele>767.79</ele>
        <time>2021-05-08T09:15:55Z</time>
      </trkpt>
      <trkpt lat="41.68167" lon="9.21839">
        <ele>770.44</ele>
        <time>2021-05-08T09:16:13Z</time>
      </trkpt>
      <trkpt lat="41.6817" lon="9.2183">
        <ele>774.32</ele>
        <time>2021-05-08T09:16:29Z</time>
      </trkpt>
      <trkpt lat="41.6817" lon="9.21829">
        <ele>774.32</ele>
        <time>2021-05-08T09:16:30Z</time>
      </trkpt>
      <trkpt lat="41.68175" lon="9.21819">
        <ele>776.77</ele>
        <time>2021-05-08T09:16:53Z</time>
      </trkpt>
      <trkpt lat="41.68181" lon="9.2181">
        <ele>778.81</ele>
        <time>2021-05-08T09:17:09Z</time>
      </trkpt>
      <trkpt lat="41.68195" lon="9.21794">
        <ele>781.22</ele>
        <time>2021-05-08T09:17:30Z</time>
      </trkpt>
      <trkpt lat="41.68199" lon="9.21791">
        <ele>783.46</ele>
        <time>2021-05-08T09:17:39Z</time>
      </trkpt>
      <trkpt lat="41.68202" lon="9.21784">
        <ele>785.14</ele>
        <time>2021-05-08T09:17:56Z</time>
      </trkpt>
      <trkpt lat="41.68198" lon="9.21788">
        <ele>787.71</ele>
        <time>2021-05-08T09:18:07Z</time>
      </trkpt>
      <trkpt lat="41.68192" lon="9.21794">
        <ele>789.26</ele>
        <time>2021-05-08T09:18:22Z</time>
      </trkpt>
      <trkpt lat="41.68181" lon="9.218">
        <ele>791.83</ele>
        <time>2021-05-08T09:18:39Z</time>
      </trkpt>
      <trkpt lat="41.68172" lon="9.21808">
        <ele>793.54</ele>
        <time>2021-05-08T09:18:53Z</time>
      </trkpt>
      <trkpt lat="41.68164" lon="9.21811">
        <ele>795.32</ele>
        <time>2021-05-08T09:19:08Z</time>
      </trkpt>
      <trkpt lat="41.68162" lon="9.21789">
        <ele>798.94</ele>
        <time>2021-05-08T09:19:26Z</time>
      </trkpt>
      <trkpt lat="41.68168" lon="9.21774">
        <ele>802.75</ele>
        <time>2021-05-08T09:19:46Z</time>
      </trkpt>
      <trkpt lat="41.6818" lon="9.21759">
        <ele>806.23</ele>
        <time>2021-05-08T09:20:07Z</time>
      </trkpt>
      <trkpt lat="41.6818" lon="9.21766">
        <ele>808.17</ele>
        <time>2021-05-08T09:20:23Z</time>
      </trkpt>
      <trkpt lat="41.68178" lon="9.21765">
        <ele>810.18</ele>
        <time>2021-05-08T09:20:44Z</time>
      </trkpt>
      <trkpt lat="41.68178" lon="9.21758">
        <ele>813.2</ele>
        <time>2021-05-08T09:20:56Z</time>
      </trkpt>
      <trkpt lat="41.68182" lon="9.21746">
        <ele>816.41</ele>
        <time>2021-05-08T09:21:10Z</time>
      </trkpt>
      <trkpt lat="41.68186" lon="9.2174">
        <ele>819.19</ele>
        <time>2021-05-08T09:21:31Z</time>
      </trkpt>
      <trkpt lat="41.68182" lon="9.21739">
        <ele>821.88</ele>
        <time>2021-05-08T09:21:49Z</time>
      </trkpt>
      <trkpt lat="41.68186" lon="9.21733">
        <ele>822.7</ele>
        <time>2021-05-08T09:21:59Z</time>
      </trkpt>
      <trkpt lat="41.68191" lon="9.21718">
        <ele>826.2</ele>
        <time>2021-05-08T09:22:17Z</time>
      </trkpt>
      <trkpt lat="41.68197" lon="9.2171">
        <ele>826.24</ele>
        <time>2021-05-08T09:22:38Z</time>
      </trkpt>
      <trkpt lat="41.68206" lon="9.21705">
        <ele>827.15</ele>
        <time>2021-05-08T09:22:49Z</time>
      </trkpt>
      <trkpt lat="41.68219" lon="9.21702">
        <ele>829.74</ele>
        <time>2021-05-08T09:23:08Z</time>
      </trkpt>
      <trkpt lat="41.68227" lon="9.217">
        <ele>833.21</ele>
        <time>2021-05-08T09:23:31Z</time>
      </trkpt>
      <trkpt lat="41.68235" lon="9.21694">
        <ele>834.64</ele>
        <time>2021-05-08T09:23:38Z</time>
      </trkpt>
      <trkpt lat="41.68248" lon="9.21679">
        <ele>834.6</ele>
        <time>2021-05-08T09:23:59Z</time>
      </trkpt>
      <trkpt lat="41.68254" lon="9.21666">
        <ele>836.36</ele>
        <time>2021-05-08T09:24:19Z</time>
      </trkpt>
      <trkpt lat="41.68264" lon="9.21654">
        <ele>838.19</ele>
        <time>2021-05-08T09:24:38Z</time>
      </trkpt>
      <trkpt lat="41.68272" lon="9.21647">
        <ele>839.07</ele>
        <time>2021-05-08T09:24:57Z</time>
      </trkpt>
      <trkpt lat="41.68284" lon="9.21641">
        <ele>840.67</ele>
        <time>2021-05-08T09:25:19Z</time>
      </trkpt>
      <trkpt lat="41.68286" lon="9.21636">
        <ele>843.6</ele>
        <time>2021-05-08T09:25:41Z</time>
      </trkpt>
      <trkpt lat="41.68286" lon="9.21645">
        <ele>843.63</ele>
        <time>2021-05-08T09:25:58Z</time>
      </trkpt>
      <trkpt lat="41.68287" lon="9.2165">
        <ele>843.64</ele>
        <time>2021-05-08T09:26:06Z</time>
      </trkpt>
      <trkpt lat="41.68288" lon="9.21651">
        <ele>843.69</ele>
        <time>2021-05-08T09:26:26Z</time>
      </trkpt>
      <trkpt lat="41.68286" lon="9.21648">
        <ele>844.49</ele>
        <time>2021-05-08T09:26:41Z</time>
      </trkpt>
      <trkpt lat="41.68287" lon="9.21632">
        <ele>846.13</ele>
        <time>2021-05-08T09:27:04Z</time>
      </trkpt>
      <trkpt lat="41.68288" lon="9.21625">
        <ele>850.08</ele>
        <time>2021-05-08T09:27:19Z</time>
      </trkpt>
      <trkpt lat="41.68296" lon="9.21609">
        <ele>851.87</ele>
        <time>2021-05-08T09:27:35Z</time>
      </trkpt>
      <trkpt lat="41.68299" lon="9.21605">
        <ele>853.65</ele>
        <time>2021-05-08T09:27:42Z</time>
      </trkpt>
      <trkpt lat="41.6829" lon="9.21605">
        <ele>856.11</ele>
        <time>2021-05-08T09:28:02Z</time>
      </trkpt>
      <trkpt lat="41.68284" lon="9.21609">
        <ele>857.69</ele>
        <time>2021-05-08T09:28:17Z</time>
      </trkpt>
      <trkpt lat="41.68272" lon="9.21607">
        <ele>859.34</ele>
        <time>2021-05-08T09:28:35Z</time>
      </trkpt>
      <trkpt lat="41.68267" lon="9.21607">
        <ele>860.14</ele>
        <time>2021-05-08T09:28:54Z</time>
      </trkpt>
      <trkpt lat="41.68259" lon="9.21606">
        <ele>861.55</ele>
        <time>2021-05-08T09:29:11Z</time>
      </trkpt>
      <trkpt lat="41.68259" lon="9.21606">
        <ele>861.58</ele>
        <time>2021-05-08T09:29:12Z</time>
      </trkpt>
      <trkpt lat="41.68247" lon="9.21605">
        <ele>864.32</ele>
        <time>2021-05-08T09:29:30Z</time>
      </trkpt>
      <trkpt lat="41.68242" lon="9.21601">
        <ele>865.9</ele>
        <time>2021-05-08T09:29:47Z</time>
      </trkpt>
      <trkpt lat="41.68236" lon="9.21596">
        <ele>867.62</ele>
        <time>2021-05-08T09:30:08Z</time>
      </trkpt>
      <trkpt lat="41.68236" lon="9.21593">
        <ele>867.62</ele>
        <time>2021-05-08T09:30:25Z</time>
      </trkpt>
      <trkpt lat="41.68235" lon="9.21594">
        <ele>867.65</ele>
        <time>2021-05-08T09:31:07Z</time>
      </trkpt>
      <trkpt lat="41.68238" lon="9.21589">
        <ele>867.7</ele>
        <time>2021-05-08T09:31:48Z</time>
      </trkpt>
      <trkpt lat="41.68241" lon="9.21591">
        <ele>867.87</ele>
        <time>2021-05-08T09:32:27Z</time>
      </trkpt>
      <trkpt lat="41.68239" lon="9.21593">
        <ele>867.88</ele>
        <time>2021-05-08T09:32:30Z</time>
      </trkpt>
      <trkpt lat="41.68223" lon="9.21597">
        <ele>868.79</ele>
        <time>2021-05-08T09:32:47Z</time>
      </trkpt>
      <trkpt lat="41.68218" lon="9.216">
        <ele>868.83</ele>
        <time>2021-05-08T09:33:01Z</time>
      </trkpt>
      <trkpt lat="41.68216" lon="9.21602">
        <ele>869.69</ele>
        <time>2021-05-08T09:33:18Z</time>
      </trkpt>
      <trkpt lat="41.68216" lon="9.21607">
        <ele>869.74</ele>
        <time>2021-05-08T09:33:37Z</time>
      </trkpt>
      <trkpt lat="41.68215" lon="9.21609">
        <ele>867.21</ele>
        <time>2021-05-08T09:33:42Z</time>
      </trkpt>
      <trkpt lat="41.68215" lon="9.2162">
        <ele>864.43</ele>
        <time>2021-05-08T09:33:54Z</time>
      </trkpt>
      <trkpt lat="41.68218" lon="9.21622">
        <ele>864.46</ele>
        <time>2021-05-08T09:34:00Z</time>
      </trkpt>
      <trkpt lat="41.68219" lon="9.21622">
        <ele>864.5</ele>
        <time>2021-05-08T09:34:02Z</time>
      </trkpt>
      <trkpt lat="41.68223" lon="9.21633">
        <ele>861.98</ele>
        <time>2021-05-08T09:34:18Z</time>
      </trkpt>
      <trkpt lat="41.6822" lon="9.21639">
        <ele>859.51</ele>
        <time>2021-05-08T09:34:34Z</time>
      </trkpt>
      <trkpt lat="41.68217" lon="9.21648">
        <ele>856.38</ele>
        <time>2021-05-08T09:34:49Z</time>
      </trkpt>
      <trkpt lat="41.68212" lon="9.21653">
        <ele>854.3</ele>
        <time>2021-05-08T09:35:10Z</time>
      </trkpt>
      <trkpt lat="41.68209" lon="9.21657">
        <ele>853.44</ele>
        <time>2021-05-08T09:35:29Z</time>
      </trkpt>
      <trkpt lat="41.68205" lon="9.21664">
        <ele>849.96</ele>
        <time>2021-05-08T09:35:41Z</time>
      </trkpt>
      <trkpt lat="41.682" lon="9.21672">
        <ele>849.3</ele>
        <time>2021-05-08T09:35:58Z</time>
      </trkpt>
      <trkpt lat="41.68198" lon="9.21672">
        <ele>849.37</ele>
        <time>2021-05-08T09:36:19Z</time>
      </trkpt>
      <trkpt lat="41.68192" lon="9.21664">
        <ele>849.41</ele>
        <time>2021-05-08T09:36:41Z</time>
      </trkpt>
      <trkpt lat="41.68189" lon="9.21662">
        <ele>849.43</ele>
        <time>2021-05-08T09:36:45Z</time>
      </trkpt>
      <trkpt lat="41.68177" lon="9.21664">
        <ele>847.37</ele>
        <time>2021-05-08T09:36:59Z</time>
      </trkpt>
      <trkpt lat="41.68169" lon="9.21661">
        <ele>845.38</ele>
        <time>2021-05-08T09:37:15Z</time>
      </trkpt>
      <trkpt lat="41.68165" lon="9.21661">
        <ele>843.74</ele>
        <time>2021-05-08T09:37:32Z</time>
      </trkpt>
      <trkpt lat="41.68163" lon="9.21661">
        <ele>843.05</ele>
        <time>2021-05-08T09:38:01Z</time>
      </trkpt>
      <trkpt lat="41.68169" lon="9.21659">
        <ele>843.16</ele>
        <time>2021-05-08T09:38:21Z</time>
      </trkpt>
      <trkpt lat="41.68171" lon="9.21659">
        <ele>845.67</ele>
        <time>2021-05-08T09:38:23Z</time>
      </trkpt>
      <trkpt lat="41.68179" lon="9.21657">
        <ele>848.21</ele>
        <time>2021-05-08T09:38:39Z</time>
      </trkpt>
      <trkpt lat="41.6819" lon="9.21665">
        <ele>849.78</ele>
        <time>2021-05-08T09:38:56Z</time>
      </trkpt>
      <trkpt lat="41.68196" lon="9.21674">
        <ele>849.73</ele>
        <time>2021-05-08T09:39:10Z</time>
      </trkpt>
      <trkpt lat="41.68195" lon="9.21677">
        <ele>849.8</ele>
        <time>2021-05-08T09:39:32Z</time>
      </trkpt>
      <trkpt lat="41.68192" lon="9.2168">
        <ele>849.87</ele>
        <time>2021-05-08T09:40:00Z</time>
      </trkpt>
      <trkpt lat="41.68187" lon="9.21679">
        <ele>850</ele>
        <time>2021-05-08T09:40:47Z</time>
      </trkpt>
      <trkpt lat="41.68194" lon="9.21676">
        <ele>850.08</ele>
        <time>2021-05-08T09:41:20Z</time>
      </trkpt>
      <trkpt lat="41.68196" lon="9.21679">
        <ele>850.14</ele>
        <time>2021-05-08T09:41:52Z</time>
      </trkpt>
      <trkpt lat="41.68204" lon="9.21674">
        <ele>850.19</ele>
        <time>2021-05-08T09:42:19Z</time>
      </trkpt>
      <trkpt lat="41.68205" lon="9.21672">
        <ele>850.22</ele>
        <time>2021-05-08T09:42:47Z</time>
      </trkpt>
      <trkpt lat="41.68198" lon="9.21676">
        <ele>850.2</ele>
        <time>2021-05-08T09:43:06Z</time>
      </trkpt>
      <trkpt lat="41.68198" lon="9.21677">
        <ele>850.2</ele>
        <time>2021-05-08T09:43:07Z</time>
      </trkpt>
      <trkpt lat="41.68195" lon="9.21683">
        <ele>850.17</ele>
        <time>2021-05-08T09:43:13Z</time>
      </trkpt>
      <trkpt lat="41.68188" lon="9.21679">
        <ele>850.14</ele>
        <time>2021-05-08T09:43:27Z</time>
      </trkpt>
      <trkpt lat="41.68181" lon="9.21677">
        <ele>850.09</ele>
        <time>2021-05-08T09:43:41Z</time>
      </trkpt>
      <trkpt lat="41.6818" lon="9.21679">
        <ele>850.07</ele>
        <time>2021-05-08T09:43:54Z</time>
      </trkpt>
      <trkpt lat="41.68179" lon="9.21683">
        <ele>850.04</ele>
        <time>2021-05-08T09:44:10Z</time>
      </trkpt>
      <trkpt lat="41.68173" lon="9.21683">
        <ele>849.98</ele>
        <time>2021-05-08T09:44:26Z</time>
      </trkpt>
      <trkpt lat="41.68172" lon="9.21682">
        <ele>849.95</ele>
        <time>2021-05-08T09:44:42Z</time>
      </trkpt>
      <trkpt lat="41.68166" lon="9.21685">
        <ele>850.89</ele>
        <time>2021-05-08T09:44:57Z</time>
      </trkpt>
      <trkpt lat="41.68164" lon="9.21684">
        <ele>852.37</ele>
        <time>2021-05-08T09:45:11Z</time>
      </trkpt>
      <trkpt lat="41.68162" lon="9.21684">
        <ele>853.06</ele>
        <time>2021-05-08T09:45:25Z</time>
      </trkpt>
      <trkpt lat="41.68162" lon="9.21684">
        <ele>854.85</ele>
        <time>2021-05-08T09:45:37Z</time>
      </trkpt>
      <trkpt lat="41.68163" lon="9.21684">
        <ele>852.56</ele>
        <time>2021-05-08T09:45:43Z</time>
      </trkpt>
      <trkpt lat="41.68168" lon="9.21683">
        <ele>852.46</ele>
        <time>2021-05-08T09:46:14Z</time>
      </trkpt>
      <trkpt lat="41.6817" lon="9.21685">
        <ele>850.69</ele>
        <time>2021-05-08T09:46:28Z</time>
      </trkpt>
      <trkpt lat="41.68168" lon="9.21687">
        <ele>849.91</ele>
        <time>2021-05-08T09:46:54Z</time>
      </trkpt>
      <trkpt lat="41.68168" lon="9.21686">
        <ele>849.91</ele>
        <time>2021-05-08T09:47:22Z</time>
      </trkpt>
      <trkpt lat="41.68163" lon="9.21689">
        <ele>849.92</ele>
        <time>2021-05-08T09:47:46Z</time>
      </trkpt>
      <trkpt lat="41.68163" lon="9.2169">
        <ele>849.92</ele>
        <time>2021-05-08T09:48:10Z</time>
      </trkpt>
      <trkpt lat="41.68163" lon="9.21691">
        <ele>849.9</ele>
        <time>2021-05-08T09:48:42Z</time>
      </trkpt>
      <trkpt lat="41.68165" lon="9.21688">
        <ele>849.89</ele>
        <time>2021-05-08T09:49:08Z</time>
      </trkpt>
      <trkpt lat="41.68167" lon="9.21688">
        <ele>849.88</ele>
        <time>2021-05-08T09:49:35Z</time>
      </trkpt>
      <trkpt lat="41.68167" lon="9.21688">
        <ele>849.07</ele>
        <time>2021-05-08T09:50:01Z</time>
      </trkpt>
      <trkpt lat="41.68168" lon="9.21685">
        <ele>849.07</ele>
        <time>2021-05-08T09:50:28Z</time>
      </trkpt>
      <trkpt lat="41.68167" lon="9.21685">
        <ele>849.01</ele>
        <time>2021-05-08T09:51:05Z</time>
      </trkpt>
      <trkpt lat="41.68168" lon="9.21686">
        <ele>848.93</ele>
        <time>2021-05-08T09:51:45Z</time>
      </trkpt>
      <trkpt lat="41.68171" lon="9.21685">
        <ele>848.88</ele>
        <time>2021-05-08T09:52:17Z</time>
      </trkpt>
      <trkpt lat="41.6817" lon="9.21685">
        <ele>848.83</ele>
        <time>2021-05-08T09:52:53Z</time>
      </trkpt>
      <trkpt lat="41.68168" lon="9.21687">
        <ele>848.74</ele>
        <time>2021-05-08T09:53:28Z</time>
      </trkpt>
      <trkpt lat="41.68168" lon="9.21688">
        <ele>848.63</ele>
        <time>2021-05-08T09:54:15Z</time>
      </trkpt>
      <trkpt lat="41.68169" lon="9.21689">
        <ele>848.53</ele>
        <time>2021-05-08T09:54:55Z</time>
      </trkpt>
      <trkpt lat="41.68171" lon="9.21687">
        <ele>848.43</ele>
        <time>2021-05-08T09:55:32Z</time>
      </trkpt>
      <trkpt lat="41.68172" lon="9.21687">
        <ele>848.28</ele>
        <time>2021-05-08T09:56:21Z</time>
      </trkpt>
      <trkpt lat="41.68171" lon="9.21688">
        <ele>848.14</ele>
        <time>2021-05-08T09:57:03Z</time>
      </trkpt>
      <trkpt lat="41.68171" lon="9.21687">
        <ele>848.02</ele>
        <time>2021-05-08T09:57:41Z</time>
      </trkpt>
      <trkpt lat="41.6817" lon="9.21687">
        <ele>847.84</ele>
        <time>2021-05-08T09:58:28Z</time>
      </trkpt>
      <trkpt lat="41.6817" lon="9.21688">
        <ele>847.73</ele>
        <time>2021-05-08T09:59:01Z</time>
      </trkpt>
      <trkpt lat="41.6817" lon="9.21687">
        <ele>847.63</ele>
        <time>2021-05-08T09:59:35Z</time>
      </trkpt>
      <trkpt lat="41.68171" lon="9.21686">
        <ele>847.59</ele>
        <time>2021-05-08T10:00:05Z</time>
      </trkpt>
      <trkpt lat="41.68169" lon="9.21687">
        <ele>847.53</ele>
        <time>2021-05-08T10:00:50Z</time>
      </trkpt>
      <trkpt lat="41.68171" lon="9.21685">
        <ele>847.5</ele>
        <time>2021-05-08T10:01:22Z</time>
      </trkpt>
      <trkpt lat="41.6817" lon="9.21686">
        <ele>847.49</ele>
        <time>2021-05-08T10:02:06Z</time>
      </trkpt>
      <trkpt lat="41.68168" lon="9.21687">
        <ele>847.5</ele>
        <time>2021-05-08T10:02:56Z</time>
      </trkpt>
      <trkpt lat="41.68169" lon="9.21688">
        <ele>847.5</ele>
        <time>2021-05-08T10:03:40Z</time>
      </trkpt>
      <trkpt lat="41.68169" lon="9.21687">
        <ele>847.52</ele>
        <time>2021-05-08T10:04:26Z</time>
      </trkpt>
      <trkpt lat="41.68168" lon="9.21688">
        <ele>846.77</ele>
        <time>2021-05-08T10:05:13Z</time>
      </trkpt>
      <trkpt lat="41.68168" lon="9.21688">
        <ele>846.77</ele>
        <time>2021-05-08T10:05:43Z</time>
      </trkpt>
      <trkpt lat="41.68167" lon="9.21687">
        <ele>846.74</ele>
        <time>2021-05-08T10:06:32Z</time>
      </trkpt>
      <trkpt lat="41.68169" lon="9.21686">
        <ele>846.71</ele>
        <time>2021-05-08T10:07:01Z</time>
      </trkpt>
      <trkpt lat="41.68171" lon="9.21686">
        <ele>846.68</ele>
        <time>2021-05-08T10:07:54Z</time>
      </trkpt>
      <trkpt lat="41.68172" lon="9.21686">
        <ele>846.69</ele>
        <time>2021-05-08T10:08:39Z</time>
      </trkpt>
      <trkpt lat="41.68172" lon="9.21685">
        <ele>846.71</ele>
        <time>2021-05-08T10:09:28Z</time>
      </trkpt>
      <trkpt lat="41.68172" lon="9.21684">
        <ele>846.71</ele>
        <time>2021-05-08T10:10:19Z</time>
      </trkpt>
      <trkpt lat="41.68171" lon="9.21684">
        <ele>846.73</ele>
        <time>2021-05-08T10:10:49Z</time>
      </trkpt>
      <trkpt lat="41.68172" lon="9.21686">
        <ele>846.81</ele>
        <time>2021-05-08T10:11:39Z</time>
      </trkpt>
      <trkpt lat="41.68172" lon="9.21687">
        <ele>846.87</ele>
        <time>2021-05-08T10:12:26Z</time>
      </trkpt>
      <trkpt lat="41.68172" lon="9.21685">
        <ele>846.91</ele>
        <time>2021-05-08T10:13:12Z</time>
      </trkpt>
      <trkpt lat="41.68172" lon="9.21684">
        <ele>846.92</ele>
        <time>2021-05-08T10:13:49Z</time>
      </trkpt>
      <trkpt lat="41.6817" lon="9.21684">
        <ele>846.93</ele>
        <time>2021-05-08T10:14:15Z</time>
      </trkpt>
      <trkpt lat="41.68172" lon="9.21684">
        <ele>846.95</ele>
        <time>2021-05-08T10:14:41Z</time>
      </trkpt>
      <trkpt lat="41.68174" lon="9.21685">
        <ele>846.96</ele>
        <time>2021-05-08T10:15:07Z</time>
      </trkpt>
      <trkpt lat="41.68173" lon="9.21686">
        <ele>846.99</ele>
        <time>2021-05-08T10:15:33Z</time>
      </trkpt>
      <trkpt lat="41.6817" lon="9.21685">
        <ele>847.03</ele>
        <time>2021-05-08T10:15:59Z</time>
      </trkpt>
      <trkpt lat="41.6817" lon="9.21686">
        <ele>847.08</ele>
        <time>2021-05-08T10:16:29Z</time>
      </trkpt>
      <trkpt lat="41.68167" lon="9.21688">
        <ele>847.1</ele>
        <time>2021-05-08T10:16:57Z</time>
      </trkpt>
      <trkpt lat="41.6817" lon="9.21688">
        <ele>847.12</ele>
        <time>2021-05-08T10:17:29Z</time>
      </trkpt>
      <trkpt lat="41.68168" lon="9.21688">
        <ele>847.14</ele>
        <time>2021-05-08T10:17:58Z</time>
      </trkpt>
      <trkpt lat="41.68167" lon="9.21688">
        <ele>847.17</ele>
        <time>2021-05-08T10:18:26Z</time>
      </trkpt>
      <trkpt lat="41.68169" lon="9.2169">
        <ele>847.19</ele>
        <time>2021-05-08T10:18:50Z</time>
      </trkpt>
      <trkpt lat="41.68172" lon="9.21692">
        <ele>847.16</ele>
        <time>2021-05-08T10:19:50Z</time>
      </trkpt>
      <trkpt lat="41.68172" lon="9.21687">
        <ele>847.09</ele>
        <time>2021-05-08T10:20:20Z</time>
      </trkpt>
      <trkpt lat="41.68173" lon="9.21685">
        <ele>845.85</ele>
        <time>2021-05-08T10:20:43Z</time>
      </trkpt>
      <trkpt lat="41.68177" lon="9.21678">
        <ele>844.69</ele>
        <time>2021-05-08T10:20:58Z</time>
      </trkpt>
      <trkpt lat="41.68179" lon="9.21676">
        <ele>844.73</ele>
        <time>2021-05-08T10:21:14Z</time>
      </trkpt>
      <trkpt lat="41.68185" lon="9.21677">
        <ele>843.97</ele>
        <time>2021-05-08T10:21:33Z</time>
      </trkpt>
      <trkpt lat="41.68185" lon="9.2168">
        <ele>843.99</ele>
        <time>2021-05-08T10:21:48Z</time>
      </trkpt>
      <trkpt lat="41.68193" lon="9.21683">
        <ele>843.95</ele>
        <time>2021-05-08T10:22:07Z</time>
      </trkpt>
      <trkpt lat="41.68198" lon="9.21673">
        <ele>843.98</ele>
        <time>2021-05-08T10:22:25Z</time>
      </trkpt>
      <trkpt lat="41.68199" lon="9.21666">
        <ele>843.96</ele>
        <time>2021-05-08T10:22:40Z</time>
      </trkpt>
      <trkpt lat="41.68201" lon="9.21659">
        <ele>846.39</ele>
        <time>2021-05-08T10:22:51Z</time>
      </trkpt>
      <trkpt lat="41.68206" lon="9.21652">
        <ele>849</ele>
        <time>2021-05-08T10:23:09Z</time>
      </trkpt>
      <trkpt lat="41.68214" lon="9.21649">
        <ele>850.67</ele>
        <time>2021-05-08T10:23:27Z</time>
      </trkpt>
      <trkpt lat="41.68215" lon="9.21643">
        <ele>854.13</ele>
        <time>2021-05-08T10:23:43Z</time>
      </trkpt>
      <trkpt lat="41.6822" lon="9.21637">
        <ele>856.71</ele>
        <time>2021-05-08T10:23:58Z</time>
      </trkpt>
      <trkpt lat="41.68222" lon="9.21627">
        <ele>859.5</ele>
        <time>2021-05-08T10:24:15Z</time>
      </trkpt>
      <trkpt lat="41.68217" lon="9.21617">
        <ele>860.39</ele>
        <time>2021-05-08T10:24:30Z</time>
      </trkpt>
      <trkpt lat="41.68214" lon="9.21608">
        <ele>861.16</ele>
        <time>2021-05-08T10:24:41Z</time>
      </trkpt>
      <trkpt lat="41.68211" lon="9.21597">
        <ele>864.47</ele>
        <time>2021-05-08T10:24:57Z</time>
      </trkpt>
      <trkpt lat="41.68216" lon="9.21592">
        <ele>865.3</ele>
        <time>2021-05-08T10:25:10Z</time>
      </trkpt>
      <trkpt lat="41.68218" lon="9.21591">
        <ele>865.19</ele>
        <time>2021-05-08T10:25:30Z</time>
      </trkpt>
      <trkpt lat="41.68221" lon="9.21591">
        <ele>865.9</ele>
        <time>2021-05-08T10:25:46Z</time>
      </trkpt>
      <trkpt lat="41.68224" lon="9.21591">
        <ele>865.88</ele>
        <time>2021-05-08T10:25:51Z</time>
      </trkpt>
      <trkpt lat="41.68228" lon="9.21592">
        <ele>865.86</ele>
        <time>2021-05-08T10:25:56Z</time>
      </trkpt>
      <trkpt lat="41.68241" lon="9.2159">
        <ele>863.51</ele>
        <time>2021-05-08T10:26:11Z</time>
      </trkpt>
      <trkpt lat="41.68251" lon="9.21588">
        <ele>860.72</ele>
        <time>2021-05-08T10:26:26Z</time>
      </trkpt>
      <trkpt lat="41.6826" lon="9.21589">
        <ele>857.6</ele>
        <time>2021-05-08T10:26:44Z</time>
      </trkpt>
      <trkpt lat="41.6827" lon="9.21589">
        <ele>856.73</ele>
        <time>2021-05-08T10:27:03Z</time>
      </trkpt>
      <trkpt lat="41.68283" lon="9.21592">
        <ele>854.08</ele>
        <time>2021-05-08T10:27:22Z</time>
      </trkpt>
      <trkpt lat="41.68293" lon="9.21592">
        <ele>851.23</ele>
        <time>2021-05-08T10:27:38Z</time>
      </trkpt>
      <trkpt lat="41.68295" lon="9.216">
        <ele>847.87</ele>
        <time>2021-05-08T10:27:50Z</time>
      </trkpt>
      <trkpt lat="41.683" lon="9.21612">
        <ele>844.25</ele>
        <time>2021-05-08T10:28:03Z</time>
      </trkpt>
      <trkpt lat="41.68299" lon="9.21623">
        <ele>840.99</ele>
        <time>2021-05-08T10:28:18Z</time>
      </trkpt>
      <trkpt lat="41.68299" lon="9.21634">
        <ele>837.49</ele>
        <time>2021-05-08T10:28:35Z</time>
      </trkpt>
      <trkpt lat="41.6829" lon="9.21646">
        <ele>835.91</ele>
        <time>2021-05-08T10:28:52Z</time>
      </trkpt>
      <trkpt lat="41.68284" lon="9.21655">
        <ele>834.36</ele>
        <time>2021-05-08T10:29:10Z</time>
      </trkpt>
      <trkpt lat="41.68277" lon="9.21668">
        <ele>833.6</ele>
        <time>2021-05-08T10:29:27Z</time>
      </trkpt>
      <trkpt lat="41.68269" lon="9.21682">
        <ele>831.78</ele>
        <time>2021-05-08T10:29:43Z</time>
      </trkpt>
      <trkpt lat="41.68258" lon="9.21695">
        <ele>831.07</ele>
        <time>2021-05-08T10:29:59Z</time>
      </trkpt>
      <trkpt lat="41.68251" lon="9.21703">
        <ele>830.19</ele>
        <time>2021-05-08T10:30:10Z</time>
      </trkpt>
      <trkpt lat="41.6824" lon="9.2171">
        <ele>826.81</ele>
        <time>2021-05-08T10:30:25Z</time>
      </trkpt>
      <trkpt lat="41.68231" lon="9.21714">
        <ele>826</ele>
        <time>2021-05-08T10:30:40Z</time>
      </trkpt>
      <trkpt lat="41.68219" lon="9.21719">
        <ele>823.69</ele>
        <time>2021-05-08T10:30:56Z</time>
      </trkpt>
      <trkpt lat="41.68212" lon="9.21725">
        <ele>822.79</ele>
        <time>2021-05-08T10:31:11Z</time>
      </trkpt>
      <trkpt lat="41.68205" lon="9.21731">
        <ele>819.75</ele>
        <time>2021-05-08T10:31:21Z</time>
      </trkpt>
      <trkpt lat="41.68204" lon="9.21735">
        <ele>817.43</ele>
        <time>2021-05-08T10:31:40Z</time>
      </trkpt>
      <trkpt lat="41.68205" lon="9.21735">
        <ele>814.35</ele>
        <time>2021-05-08T10:31:52Z</time>
      </trkpt>
      <trkpt lat="41.68197" lon="9.2175">
        <ele>810.86</ele>
        <time>2021-05-08T10:32:05Z</time>
      </trkpt>
      <trkpt lat="41.68196" lon="9.21754">
        <ele>807.33</ele>
        <time>2021-05-08T10:32:19Z</time>
      </trkpt>
      <trkpt lat="41.68199" lon="9.21757">
        <ele>804.03</ele>
        <time>2021-05-08T10:32:33Z</time>
      </trkpt>
      <trkpt lat="41.68195" lon="9.21764">
        <ele>803.35</ele>
        <time>2021-05-08T10:32:46Z</time>
      </trkpt>
      <trkpt lat="41.68188" lon="9.21773">
        <ele>800.9</ele>
        <time>2021-05-08T10:32:59Z</time>
      </trkpt>
      <trkpt lat="41.68179" lon="9.21786">
        <ele>798.27</ele>
        <time>2021-05-08T10:33:13Z</time>
      </trkpt>
      <trkpt lat="41.6817" lon="9.21797">
        <ele>795.54</ele>
        <time>2021-05-08T10:33:28Z</time>
      </trkpt>
      <trkpt lat="41.68174" lon="9.21793">
        <ele>793.61</ele>
        <time>2021-05-08T10:33:41Z</time>
      </trkpt>
      <trkpt lat="41.6818" lon="9.21782">
        <ele>791.4</ele>
        <time>2021-05-08T10:33:58Z</time>
      </trkpt>
      <trkpt lat="41.68186" lon="9.21778">
        <ele>788.71</ele>
        <time>2021-05-08T10:34:12Z</time>
      </trkpt>
      <trkpt lat="41.68191" lon="9.21777">
        <ele>787.87</ele>
        <time>2021-05-08T10:34:17Z</time>
      </trkpt>
      <trkpt lat="41.68203" lon="9.21773">
        <ele>784.68</ele>
        <time>2021-05-08T10:34:33Z</time>
      </trkpt>
      <trkpt lat="41.68207" lon="9.21785">
        <ele>782.97</ele>
        <time>2021-05-08T10:34:46Z</time>
      </trkpt>
      <trkpt lat="41.68204" lon="9.21789">
        <ele>780.26</ele>
        <time>2021-05-08T10:35:00Z</time>
      </trkpt>
      <trkpt lat="41.68194" lon="9.21799">
        <ele>778.5</ele>
        <time>2021-05-08T10:35:16Z</time>
      </trkpt>
      <trkpt lat="41.6819" lon="9.21805">
        <ele>776.9</ele>
        <time>2021-05-08T10:35:23Z</time>
      </trkpt>
      <trkpt lat="41.68187" lon="9.2181">
        <ele>776.9</ele>
        <time>2021-05-08T10:35:28Z</time>
      </trkpt>
      <trkpt lat="41.68177" lon="9.21819">
        <ele>774.32</ele>
        <time>2021-05-08T10:35:43Z</time>
      </trkpt>
      <trkpt lat="41.68173" lon="9.21828">
        <ele>770.62</ele>
        <time>2021-05-08T10:35:57Z</time>
      </trkpt>
      <trkpt lat="41.68171" lon="9.21839">
        <ele>768.23</ele>
        <time>2021-05-08T10:36:18Z</time>
      </trkpt>
      <trkpt lat="41.6817" lon="9.21847">
        <ele>766.59</ele>
        <time>2021-05-08T10:36:34Z</time>
      </trkpt>
      <trkpt lat="41.68176" lon="9.21841">
        <ele>763.8</ele>
        <time>2021-05-08T10:36:51Z</time>
      </trkpt>
      <trkpt lat="41.6818" lon="9.21832">
        <ele>761.24</ele>
        <time>2021-05-08T10:37:08Z</time>
      </trkpt>
      <trkpt lat="41.68193" lon="9.2183">
        <ele>758.34</ele>
        <time>2021-05-08T10:37:27Z</time>
      </trkpt>
      <trkpt lat="41.68193" lon="9.2183">
        <ele>758.34</ele>
        <time>2021-05-08T10:37:28Z</time>
      </trkpt>
      <trkpt lat="41.68205" lon="9.21819">
        <ele>755.37</ele>
        <time>2021-05-08T10:37:47Z</time>
      </trkpt>
      <trkpt lat="41.68212" lon="9.21828">
        <ele>751.77</ele>
        <time>2021-05-08T10:37:59Z</time>
      </trkpt>
      <trkpt lat="41.68211" lon="9.2184">
        <ele>748.42</ele>
        <time>2021-05-08T10:38:15Z</time>
      </trkpt>
      <trkpt lat="41.68208" lon="9.21844">
        <ele>748.45</ele>
        <time>2021-05-08T10:38:21Z</time>
      </trkpt>
      <trkpt lat="41.68204" lon="9.21858">
        <ele>745.08</ele>
        <time>2021-05-08T10:38:35Z</time>
      </trkpt>
      <trkpt lat="41.68196" lon="9.21868">
        <ele>742.46</ele>
        <time>2021-05-08T10:38:53Z</time>
      </trkpt>
      <trkpt lat="41.68192" lon="9.21871">
        <ele>742.47</ele>
        <time>2021-05-08T10:38:58Z</time>
      </trkpt>
      <trkpt lat="41.68179" lon="9.21879">
        <ele>740.07</ele>
        <time>2021-05-08T10:39:12Z</time>
      </trkpt>
      <trkpt lat="41.6817" lon="9.21887">
        <ele>737.29</ele>
        <time>2021-05-08T10:39:26Z</time>
      </trkpt>
      <trkpt lat="41.68159" lon="9.21895">
        <ele>735.71</ele>
        <time>2021-05-08T10:39:42Z</time>
      </trkpt>
      <trkpt lat="41.68153" lon="9.219">
        <ele>733.36</ele>
        <time>2021-05-08T10:39:57Z</time>
      </trkpt>
      <trkpt lat="41.6815" lon="9.21902">
        <ele>733.39</ele>
        <time>2021-05-08T10:40:19Z</time>
      </trkpt>
      <trkpt lat="41.68148" lon="9.21903">
        <ele>733.39</ele>
        <time>2021-05-08T10:40:46Z</time>
      </trkpt>
      <trkpt lat="41.68145" lon="9.21912">
        <ele>730.78</ele>
        <time>2021-05-08T10:41:04Z</time>
      </trkpt>
      <trkpt lat="41.68141" lon="9.21926">
        <ele>729.04</ele>
        <time>2021-05-08T10:41:18Z</time>
      </trkpt>
      <trkpt lat="41.68132" lon="9.2194">
        <ele>726.42</ele>
        <time>2021-05-08T10:41:34Z</time>
      </trkpt>
      <trkpt lat="41.68134" lon="9.21943">
        <ele>722.89</ele>
        <time>2021-05-08T10:41:49Z</time>
      </trkpt>
      <trkpt lat="41.68141" lon="9.21934">
        <ele>720.16</ele>
        <time>2021-05-08T10:42:07Z</time>
      </trkpt>
      <trkpt lat="41.68149" lon="9.21923">
        <ele>717.73</ele>
        <time>2021-05-08T10:42:26Z</time>
      </trkpt>
      <trkpt lat="41.68154" lon="9.21921">
        <ele>716.79</ele>
        <time>2021-05-08T10:42:45Z</time>
      </trkpt>
      <trkpt lat="41.68161" lon="9.21922">
        <ele>714.45</ele>
        <time>2021-05-08T10:42:57Z</time>
      </trkpt>
      <trkpt lat="41.68163" lon="9.21927">
        <ele>711.88</ele>
        <time>2021-05-08T10:43:13Z</time>
      </trkpt>
      <trkpt lat="41.68163" lon="9.21927">
        <ele>710.16</ele>
        <time>2021-05-08T10:43:31Z</time>
      </trkpt>
      <trkpt lat="41.68169" lon="9.2193">
        <ele>706.53</ele>
        <time>2021-05-08T10:43:49Z</time>
      </trkpt>
      <trkpt lat="41.68169" lon="9.21938">
        <ele>703.3</ele>
        <time>2021-05-08T10:44:06Z</time>
      </trkpt>
      <trkpt lat="41.6817" lon="9.21945">
        <ele>702.45</ele>
        <time>2021-05-08T10:44:25Z</time>
      </trkpt>
      <trkpt lat="41.6817" lon="9.21956">
        <ele>699.93</ele>
        <time>2021-05-08T10:44:41Z</time>
      </trkpt>
      <trkpt lat="41.68173" lon="9.21964">
        <ele>697.54</ele>
        <time>2021-05-08T10:44:58Z</time>
      </trkpt>
      <trkpt lat="41.68176" lon="9.21958">
        <ele>694.23</ele>
        <time>2021-05-08T10:45:20Z</time>
      </trkpt>
      <trkpt lat="41.68176" lon="9.21952">
        <ele>693.44</ele>
        <time>2021-05-08T10:45:36Z</time>
      </trkpt>
      <trkpt lat="41.68182" lon="9.21949">
        <ele>690.77</ele>
        <time>2021-05-08T10:45:51Z</time>
      </trkpt>
      <trkpt lat="41.68185" lon="9.21959">
        <ele>690.07</ele>
        <time>2021-05-08T10:46:10Z</time>
      </trkpt>
      <trkpt lat="41.68186" lon="9.21968">
        <ele>686.51</ele>
        <time>2021-05-08T10:46:28Z</time>
      </trkpt>
      <trkpt lat="41.68185" lon="9.21978">
        <ele>683.7</ele>
        <time>2021-05-08T10:46:38Z</time>
      </trkpt>
      <trkpt lat="41.68184" lon="9.2199">
        <ele>680.53</ele>
        <time>2021-05-08T10:46:51Z</time>
      </trkpt>
      <trkpt lat="41.68184" lon="9.21992">
        <ele>680.53</ele>
        <time>2021-05-08T10:46:52Z</time>
      </trkpt>
      <trkpt lat="41.68183" lon="9.22007">
        <ele>676.79</ele>
        <time>2021-05-08T10:47:08Z</time>
      </trkpt>
      <trkpt lat="41.68182" lon="9.22015">
        <ele>673.5</ele>
        <time>2021-05-08T10:47:22Z</time>
      </trkpt>
      <trkpt lat="41.68183" lon="9.22022">
        <ele>670.75</ele>
        <time>2021-05-08T10:47:37Z</time>
      </trkpt>
      <trkpt lat="41.68184" lon="9.22023">
        <ele>669.45</ele>
        <time>2021-05-08T10:47:39Z</time>
      </trkpt>
      <trkpt lat="41.68188" lon="9.22019">
        <ele>667.51</ele>
        <time>2021-05-08T10:47:55Z</time>
      </trkpt>
      <trkpt lat="41.6819" lon="9.2201">
        <ele>665.81</ele>
        <time>2021-05-08T10:48:13Z</time>
      </trkpt>
      <trkpt lat="41.68195" lon="9.2201">
        <ele>663.42</ele>
        <time>2021-05-08T10:48:27Z</time>
      </trkpt>
      <trkpt lat="41.68196" lon="9.22009">
        <ele>663.48</ele>
        <time>2021-05-08T10:48:43Z</time>
      </trkpt>
      <trkpt lat="41.68198" lon="9.22">
        <ele>661.84</ele>
        <time>2021-05-08T10:49:04Z</time>
      </trkpt>
      <trkpt lat="41.68206" lon="9.21992">
        <ele>658.49</ele>
        <time>2021-05-08T10:49:21Z</time>
      </trkpt>
      <trkpt lat="41.68224" lon="9.21988">
        <ele>657.77</ele>
        <time>2021-05-08T10:49:40Z</time>
      </trkpt>
      <trkpt lat="41.68227" lon="9.21997">
        <ele>655.06</ele>
        <time>2021-05-08T10:49:53Z</time>
      </trkpt>
      <trkpt lat="41.68233" lon="9.2199">
        <ele>651.73</ele>
        <time>2021-05-08T10:50:07Z</time>
      </trkpt>
      <trkpt lat="41.68239" lon="9.21998">
        <ele>647.96</ele>
        <time>2021-05-08T10:50:21Z</time>
      </trkpt>
      <trkpt lat="41.68238" lon="9.22007">
        <ele>644.49</ele>
        <time>2021-05-08T10:50:34Z</time>
      </trkpt>
      <trkpt lat="41.6825" lon="9.22001">
        <ele>641.23</ele>
        <time>2021-05-08T10:50:54Z</time>
      </trkpt>
      <trkpt lat="41.68247" lon="9.22013">
        <ele>638.05</ele>
        <time>2021-05-08T10:51:07Z</time>
      </trkpt>
      <trkpt lat="41.68241" lon="9.22024">
        <ele>634.48</ele>
        <time>2021-05-08T10:51:19Z</time>
      </trkpt>
      <trkpt lat="41.68242" lon="9.22027">
        <ele>632.53</ele>
        <time>2021-05-08T10:51:36Z</time>
      </trkpt>
      <trkpt lat="41.68233" lon="9.22028">
        <ele>632.52</ele>
        <time>2021-05-08T10:51:55Z</time>
      </trkpt>
      <trkpt lat="41.68234" lon="9.22039">
        <ele>631.44</ele>
        <time>2021-05-08T10:52:13Z</time>
      </trkpt>
      <trkpt lat="41.68235" lon="9.22045">
        <ele>628.29</ele>
        <time>2021-05-08T10:52:24Z</time>
      </trkpt>
      <trkpt lat="41.68242" lon="9.22038">
        <ele>626.84</ele>
        <time>2021-05-08T10:52:44Z</time>
      </trkpt>
      <trkpt lat="41.68247" lon="9.22038">
        <ele>623.52</ele>
        <time>2021-05-08T10:53:02Z</time>
      </trkpt>
      <trkpt lat="41.68247" lon="9.22042">
        <ele>621.71</ele>
        <time>2021-05-08T10:53:08Z</time>
      </trkpt>
      <trkpt lat="41.68244" lon="9.2205">
        <ele>619.3</ele>
        <time>2021-05-08T10:53:27Z</time>
      </trkpt>
      <trkpt lat="41.68241" lon="9.22065">
        <ele>615.97</ele>
        <time>2021-05-08T10:53:40Z</time>
      </trkpt>
      <trkpt lat="41.68242" lon="9.22069">
        <ele>612.52</ele>
        <time>2021-05-08T10:53:55Z</time>
      </trkpt>
      <trkpt lat="41.68242" lon="9.22067">
        <ele>612.55</ele>
        <time>2021-05-08T10:53:58Z</time>
      </trkpt>
      <trkpt lat="41.68246" lon="9.2206">
        <ele>609.39</ele>
        <time>2021-05-08T10:54:17Z</time>
      </trkpt>
      <trkpt lat="41.68252" lon="9.2207">
        <ele>606.72</ele>
        <time>2021-05-08T10:54:35Z</time>
      </trkpt>
      <trkpt lat="41.68253" lon="9.22078">
        <ele>603.05</ele>
        <time>2021-05-08T10:54:46Z</time>
      </trkpt>
      <trkpt lat="41.68256" lon="9.22074">
        <ele>602.36</ele>
        <time>2021-05-08T10:55:01Z</time>
      </trkpt>
      <trkpt lat="41.68256" lon="9.22072">
        <ele>601.31</ele>
        <time>2021-05-08T10:55:07Z</time>
      </trkpt>
      <trkpt lat="41.68261" lon="9.22068">
        <ele>599.4</ele>
        <time>2021-05-08T10:55:22Z</time>
      </trkpt>
      <trkpt lat="41.68266" lon="9.22078">
        <ele>595.98</ele>
        <time>2021-05-08T10:55:35Z</time>
      </trkpt>
      <trkpt lat="41.68266" lon="9.22091">
        <ele>592.42</ele>
        <time>2021-05-08T10:55:48Z</time>
      </trkpt>
      <trkpt lat="41.68261" lon="9.22094">
        <ele>589.34</ele>
        <time>2021-05-08T10:56:06Z</time>
      </trkpt>
      <trkpt lat="41.68262" lon="9.22096">
        <ele>586.53</ele>
        <time>2021-05-08T10:56:25Z</time>
      </trkpt>
      <trkpt lat="41.68266" lon="9.22095">
        <ele>585.65</ele>
        <time>2021-05-08T10:56:48Z</time>
      </trkpt>
      <trkpt lat="41.6827" lon="9.22101">
        <ele>584.38</ele>
        <time>2021-05-08T10:57:03Z</time>
      </trkpt>
      <trkpt lat="41.68269" lon="9.2211">
        <ele>584.4</ele>
        <time>2021-05-08T10:57:33Z</time>
      </trkpt>
      <trkpt lat="41.68269" lon="9.22115">
        <ele>584.37</ele>
        <time>2021-05-08T10:58:08Z</time>
      </trkpt>
      <trkpt lat="41.68269" lon="9.22113">
        <ele>584.33</ele>
        <time>2021-05-08T10:58:38Z</time>
      </trkpt>
      <trkpt lat="41.6827" lon="9.22108">
        <ele>584.25</ele>
        <time>2021-05-08T10:59:18Z</time>
      </trkpt>
      <trkpt lat="41.68273" lon="9.22111">
        <ele>584.09</ele>
        <time>2021-05-08T11:00:01Z</time>
      </trkpt>
      <trkpt lat="41.68273" lon="9.22108">
        <ele>583.98</ele>
        <time>2021-05-08T11:00:26Z</time>
      </trkpt>
      <trkpt lat="41.68271" lon="9.22103">
        <ele>583.85</ele>
        <time>2021-05-08T11:00:48Z</time>
      </trkpt>
      <trkpt lat="41.68274" lon="9.22101">
        <ele>583.71</ele>
        <time>2021-05-08T11:01:13Z</time>
      </trkpt>
      <trkpt lat="41.6827" lon="9.2211">
        <ele>583.58</ele>
        <time>2021-05-08T11:01:37Z</time>
      </trkpt>
      <trkpt lat="41.6827" lon="9.22109">
        <ele>583.48</ele>
        <time>2021-05-08T11:02:01Z</time>
      </trkpt>
      <trkpt lat="41.68271" lon="9.2211">
        <ele>583.34</ele>
        <time>2021-05-08T11:02:22Z</time>
      </trkpt>
      <trkpt lat="41.68275" lon="9.22108">
        <ele>585.55</ele>
        <time>2021-05-08T11:02:45Z</time>
      </trkpt>
      <trkpt lat="41.68279" lon="9.22117">
        <ele>583.18</ele>
        <time>2021-05-08T11:02:55Z</time>
      </trkpt>
      <trkpt lat="41.68291" lon="9.22129">
        <ele>580.52</ele>
        <time>2021-05-08T11:03:14Z</time>
      </trkpt>
      <trkpt lat="41.68302" lon="9.22135">
        <ele>577.05</ele>
        <time>2021-05-08T11:03:29Z</time>
      </trkpt>
      <trkpt lat="41.68303" lon="9.22136">
        <ele>577.13</ele>
        <time>2021-05-08T11:03:32Z</time>
      </trkpt>
      <trkpt lat="41.6831" lon="9.22142">
        <ele>577.25</ele>
        <time>2021-05-08T11:03:45Z</time>
      </trkpt>
      <trkpt lat="41.68316" lon="9.22159">
        <ele>577.22</ele>
        <time>2021-05-08T11:04:02Z</time>
      </trkpt>
      <trkpt lat="41.68322" lon="9.22172">
        <ele>577.16</ele>
        <time>2021-05-08T11:04:18Z</time>
      </trkpt>
      <trkpt lat="41.68327" lon="9.2219">
        <ele>577.17</ele>
        <time>2021-05-08T11:04:34Z</time>
      </trkpt>
      <trkpt lat="41.68328" lon="9.22202">
        <ele>576.16</ele>
        <time>2021-05-08T11:04:46Z</time>
      </trkpt>
      <trkpt lat="41.68329" lon="9.22205">
        <ele>576.14</ele>
        <time>2021-05-08T11:04:50Z</time>
      </trkpt>
      <trkpt lat="41.68333" lon="9.22219">
        <ele>574.3</ele>
        <time>2021-05-08T11:05:00Z</time>
      </trkpt>
      <trkpt lat="41.68333" lon="9.22231">
        <ele>571.27</ele>
        <time>2021-05-08T11:05:10Z</time>
      </trkpt>
      <trkpt lat="41.68333" lon="9.22242">
        <ele>568.46</ele>
        <time>2021-05-08T11:05:20Z</time>
      </trkpt>
      <trkpt lat="41.6833" lon="9.22259">
        <ele>564.75</ele>
        <time>2021-05-08T11:05:36Z</time>
      </trkpt>
      <trkpt lat="41.68335" lon="9.22275">
        <ele>562.11</ele>
        <time>2021-05-08T11:05:53Z</time>
      </trkpt>
      <trkpt lat="41.68345" lon="9.2228">
        <ele>559.13</ele>
        <time>2021-05-08T11:06:10Z</time>
      </trkpt>
      <trkpt lat="41.68361" lon="9.22282">
        <ele>556.46</ele>
        <time>2021-05-08T11:06:29Z</time>
      </trkpt>
      <trkpt lat="41.68375" lon="9.22287">
        <ele>554.8</ele>
        <time>2021-05-08T11:06:46Z</time>
      </trkpt>
      <trkpt lat="41.68385" lon="9.22292">
        <ele>554.8</ele>
        <time>2021-05-08T11:06:57Z</time>
      </trkpt>
      <trkpt lat="41.68396" lon="9.22301">
        <ele>554.02</ele>
        <time>2021-05-08T11:07:11Z</time>
      </trkpt>
      <trkpt lat="41.68406" lon="9.22307">
        <ele>552.27</ele>
        <time>2021-05-08T11:07:24Z</time>
      </trkpt>
      <trkpt lat="41.68408" lon="9.22307">
        <ele>551.11</ele>
        <time>2021-05-08T11:07:27Z</time>
      </trkpt>
      <trkpt lat="41.68413" lon="9.22309">
        <ele>548.32</ele>
        <time>2021-05-08T11:07:41Z</time>
      </trkpt>
      <trkpt lat="41.68413" lon="9.22311">
        <ele>547.65</ele>
        <time>2021-05-08T11:08:05Z</time>
      </trkpt>
      <trkpt lat="41.68415" lon="9.22316">
        <ele>547.63</ele>
        <time>2021-05-08T11:08:26Z</time>
      </trkpt>
      <trkpt lat="41.68416" lon="9.22321">
        <ele>547.61</ele>
        <time>2021-05-08T11:08:57Z</time>
      </trkpt>
      <trkpt lat="41.68422" lon="9.22323">
        <ele>547.58</ele>
        <time>2021-05-08T11:09:17Z</time>
      </trkpt>
      <trkpt lat="41.68425" lon="9.22334">
        <ele>547.53</ele>
        <time>2021-05-08T11:09:35Z</time>
      </trkpt>
      <trkpt lat="41.68423" lon="9.22337">
        <ele>547.48</ele>
        <time>2021-05-08T11:09:52Z</time>
      </trkpt>
      <trkpt lat="41.6842" lon="9.22341">
        <ele>547.4</ele>
        <time>2021-05-08T11:10:09Z</time>
      </trkpt>
      <trkpt lat="41.68414" lon="9.22346">
        <ele>545.69</ele>
        <time>2021-05-08T11:10:20Z</time>
      </trkpt>
      <trkpt lat="41.68406" lon="9.2236">
        <ele>544.91</ele>
        <time>2021-05-08T11:10:36Z</time>
      </trkpt>
      <trkpt lat="41.68405" lon="9.22363">
        <ele>544.91</ele>
        <time>2021-05-08T11:10:38Z</time>
      </trkpt>
      <trkpt lat="41.68401" lon="9.22374">
        <ele>543.83</ele>
        <time>2021-05-08T11:10:50Z</time>
      </trkpt>
      <trkpt lat="41.68402" lon="9.22381">
        <ele>542.99</ele>
        <time>2021-05-08T11:11:01Z</time>
      </trkpt>
      <trkpt lat="41.684" lon="9.22376">
        <ele>542.09</ele>
        <time>2021-05-08T11:11:13Z</time>
      </trkpt>
      <trkpt lat="41.68398" lon="9.22374">
        <ele>542.01</ele>
        <time>2021-05-08T11:11:31Z</time>
      </trkpt>
      <trkpt lat="41.68398" lon="9.22376">
        <ele>541.87</ele>
        <time>2021-05-08T11:11:55Z</time>
      </trkpt>
      <trkpt lat="41.684" lon="9.22383">
        <ele>541.77</ele>
        <time>2021-05-08T11:12:10Z</time>
      </trkpt>
      <trkpt lat="41.68398" lon="9.22389">
        <ele>539.78</ele>
        <time>2021-05-08T11:12:22Z</time>
      </trkpt>
      <trkpt lat="41.68397" lon="9.22391">
        <ele>539.77</ele>
        <time>2021-05-08T11:12:24Z</time>
      </trkpt>
      <trkpt lat="41.68398" lon="9.22399">
        <ele>538.02</ele>
        <time>2021-05-08T11:12:30Z</time>
      </trkpt>
      <trkpt lat="41.68398" lon="9.22403">
        <ele>537.16</ele>
        <time>2021-05-08T11:12:35Z</time>
      </trkpt>
      <trkpt lat="41.68404" lon="9.22411">
        <ele>537.16</ele>
        <time>2021-05-08T11:12:50Z</time>
      </trkpt>
      <trkpt lat="41.68404" lon="9.22414">
        <ele>537.15</ele>
        <time>2021-05-08T11:12:52Z</time>
      </trkpt>
      <trkpt lat="41.68405" lon="9.2243">
        <ele>536.03</ele>
        <time>2021-05-08T11:13:04Z</time>
      </trkpt>
      <trkpt lat="41.6841" lon="9.22439">
        <ele>535.18</ele>
        <time>2021-05-08T11:13:14Z</time>
      </trkpt>
      <trkpt lat="41.68412" lon="9.22446">
        <ele>535.16</ele>
        <time>2021-05-08T11:13:19Z</time>
      </trkpt>
      <trkpt lat="41.68418" lon="9.2246">
        <ele>534.34</ele>
        <time>2021-05-08T11:13:32Z</time>
      </trkpt>
      <trkpt lat="41.68421" lon="9.22469">
        <ele>536.72</ele>
        <time>2021-05-08T11:13:42Z</time>
      </trkpt>
      <trkpt lat="41.68427" lon="9.22487">
        <ele>537.5</ele>
        <time>2021-05-08T11:14:00Z</time>
      </trkpt>
      <trkpt lat="41.68426" lon="9.22498">
        <ele>537.43</ele>
        <time>2021-05-08T11:14:18Z</time>
      </trkpt>
      <trkpt lat="41.68422" lon="9.22506">
        <ele>537.3</ele>
        <time>2021-05-08T11:14:43Z</time>
      </trkpt>
      <trkpt lat="41.68419" lon="9.22515">
        <ele>537.29</ele>
        <time>2021-05-08T11:14:53Z</time>
      </trkpt>
      <trkpt lat="41.68418" lon="9.22522">
        <ele>537.93</ele>
        <time>2021-05-08T11:15:10Z</time>
      </trkpt>
      <trkpt lat="41.68414" lon="9.22528">
        <ele>537.88</ele>
        <time>2021-05-08T11:15:19Z</time>
      </trkpt>
      <trkpt lat="41.68413" lon="9.22531">
        <ele>537.88</ele>
        <time>2021-05-08T11:15:21Z</time>
      </trkpt>
      <trkpt lat="41.68409" lon="9.22535">
        <ele>535.55</ele>
        <time>2021-05-08T11:15:25Z</time>
      </trkpt>
      <trkpt lat="41.68409" lon="9.22543">
        <ele>534.57</ele>
        <time>2021-05-08T11:15:32Z</time>
      </trkpt>
      <trkpt lat="41.6841" lon="9.22556">
        <ele>533.57</ele>
        <time>2021-05-08T11:15:47Z</time>
      </trkpt>
      <trkpt lat="41.68414" lon="9.22569">
        <ele>533.46</ele>
        <time>2021-05-08T11:16:01Z</time>
      </trkpt>
      <trkpt lat="41.68416" lon="9.22581">
        <ele>531.61</ele>
        <time>2021-05-08T11:16:19Z</time>
      </trkpt>
      <trkpt lat="41.68415" lon="9.22584">
        <ele>531.46</ele>
        <time>2021-05-08T11:16:36Z</time>
      </trkpt>
      <trkpt lat="41.68413" lon="9.22592">
        <ele>530.45</ele>
        <time>2021-05-08T11:16:51Z</time>
      </trkpt>
      <trkpt lat="41.68419" lon="9.22601">
        <ele>529.6</ele>
        <time>2021-05-08T11:17:04Z</time>
      </trkpt>
      <trkpt lat="41.68422" lon="9.22612">
        <ele>529.48</ele>
        <time>2021-05-08T11:17:20Z</time>
      </trkpt>
      <trkpt lat="41.68428" lon="9.2263">
        <ele>529.38</ele>
        <time>2021-05-08T11:17:37Z</time>
      </trkpt>
      <trkpt lat="41.68433" lon="9.22645">
        <ele>528.37</ele>
        <time>2021-05-08T11:17:50Z</time>
      </trkpt>
      <trkpt lat="41.68434" lon="9.22648">
        <ele>528.36</ele>
        <time>2021-05-08T11:17:52Z</time>
      </trkpt>
      <trkpt lat="41.68439" lon="9.22662">
        <ele>527.36</ele>
        <time>2021-05-08T11:18:05Z</time>
      </trkpt>
      <trkpt lat="41.68437" lon="9.22675">
        <ele>525.62</ele>
        <time>2021-05-08T11:18:16Z</time>
      </trkpt>
      <trkpt lat="41.6844" lon="9.22691">
        <ele>523.96</ele>
        <time>2021-05-08T11:18:29Z</time>
      </trkpt>
      <trkpt lat="41.68452" lon="9.22705">
        <ele>522.23</ele>
        <time>2021-05-08T11:18:48Z</time>
      </trkpt>
      <trkpt lat="41.6845" lon="9.22719">
        <ele>520.35</ele>
        <time>2021-05-08T11:19:03Z</time>
      </trkpt>
      <trkpt lat="41.68444" lon="9.22726">
        <ele>516.59</ele>
        <time>2021-05-08T11:19:17Z</time>
      </trkpt>
      <trkpt lat="41.68447" lon="9.22737">
        <ele>516.6</ele>
        <time>2021-05-08T11:19:32Z</time>
      </trkpt>
      <trkpt lat="41.68453" lon="9.22748">
        <ele>516.55</ele>
        <time>2021-05-08T11:19:48Z</time>
      </trkpt>
      <trkpt lat="41.68456" lon="9.22756">
        <ele>516.47</ele>
        <time>2021-05-08T11:20:04Z</time>
      </trkpt>
      <trkpt lat="41.68461" lon="9.22771">
        <ele>518.7</ele>
        <time>2021-05-08T11:20:20Z</time>
      </trkpt>
      <trkpt lat="41.68461" lon="9.22771">
        <ele>518.7</ele>
        <time>2021-05-08T11:20:21Z</time>
      </trkpt>
      <trkpt lat="41.68465" lon="9.22784">
        <ele>520.57</ele>
        <time>2021-05-08T11:20:39Z</time>
      </trkpt>
      <trkpt lat="41.68463" lon="9.2279">
        <ele>520.44</ele>
        <time>2021-05-08T11:20:56Z</time>
      </trkpt>
      <trkpt lat="41.68463" lon="9.22803">
        <ele>520.33</ele>
        <time>2021-05-08T11:21:14Z</time>
      </trkpt>
      <trkpt lat="41.68467" lon="9.22826">
        <ele>520.29</ele>
        <time>2021-05-08T11:21:32Z</time>
      </trkpt>
      <trkpt lat="41.68465" lon="9.22847">
        <ele>520.23</ele>
        <time>2021-05-08T11:21:51Z</time>
      </trkpt>
      <trkpt lat="41.68454" lon="9.22864">
        <ele>521.69</ele>
        <time>2021-05-08T11:22:09Z</time>
      </trkpt>
      <trkpt lat="41.6845" lon="9.22874">
        <ele>522.54</ele>
        <time>2021-05-08T11:22:17Z</time>
      </trkpt>
      <trkpt lat="41.68449" lon="9.2288">
        <ele>522.5</ele>
        <time>2021-05-08T11:22:21Z</time>
      </trkpt>
      <trkpt lat="41.68445" lon="9.22885">
        <ele>522.46</ele>
        <time>2021-05-08T11:22:25Z</time>
      </trkpt>
      <trkpt lat="41.68443" lon="9.22893">
        <ele>522.4</ele>
        <time>2021-05-08T11:22:31Z</time>
      </trkpt>
      <trkpt lat="41.68442" lon="9.22896">
        <ele>520.03</ele>
        <time>2021-05-08T11:22:34Z</time>
      </trkpt>
      <trkpt lat="41.68441" lon="9.22898">
        <ele>520.01</ele>
        <time>2021-05-08T11:22:36Z</time>
      </trkpt>
      <trkpt lat="41.6844" lon="9.22919">
        <ele>518.29</ele>
        <time>2021-05-08T11:22:53Z</time>
      </trkpt>
      <trkpt lat="41.68443" lon="9.22935">
        <ele>517.38</ele>
        <time>2021-05-08T11:23:10Z</time>
      </trkpt>
      <trkpt lat="41.68444" lon="9.22944">
        <ele>517.17</ele>
        <time>2021-05-08T11:23:30Z</time>
      </trkpt>
      <trkpt lat="41.68448" lon="9.22965">
        <ele>517</ele>
        <time>2021-05-08T11:23:48Z</time>
      </trkpt>
      <trkpt lat="41.68448" lon="9.22974">
        <ele>519.16</ele>
        <time>2021-05-08T11:23:57Z</time>
      </trkpt>
      <trkpt lat="41.68446" lon="9.22996">
        <ele>520.69</ele>
        <time>2021-05-08T11:24:16Z</time>
      </trkpt>
      <trkpt lat="41.68439" lon="9.23019">
        <ele>523.1</ele>
        <time>2021-05-08T11:24:36Z</time>
      </trkpt>
      <trkpt lat="41.68433" lon="9.2304">
        <ele>522.88</ele>
        <time>2021-05-08T11:24:55Z</time>
      </trkpt>
      <trkpt lat="41.68431" lon="9.23052">
        <ele>523.58</ele>
        <time>2021-05-08T11:25:12Z</time>
      </trkpt>
      <trkpt lat="41.68431" lon="9.23061">
        <ele>523.47</ele>
        <time>2021-05-08T11:25:21Z</time>
      </trkpt>
      <trkpt lat="41.68428" lon="9.23071">
        <ele>521.05</ele>
        <time>2021-05-08T11:25:30Z</time>
      </trkpt>
      <trkpt lat="41.68424" lon="9.2309">
        <ele>517.51</ele>
        <time>2021-05-08T11:25:45Z</time>
      </trkpt>
      <trkpt lat="41.68421" lon="9.23108">
        <ele>514.69</ele>
        <time>2021-05-08T11:26:02Z</time>
      </trkpt>
      <trkpt lat="41.68421" lon="9.23124">
        <ele>513.82</ele>
        <time>2021-05-08T11:26:18Z</time>
      </trkpt>
      <trkpt lat="41.68424" lon="9.23134">
        <ele>512.89</ele>
        <time>2021-05-08T11:26:31Z</time>
      </trkpt>
      <trkpt lat="41.68426" lon="9.23151">
        <ele>511.92</ele>
        <time>2021-05-08T11:26:45Z</time>
      </trkpt>
      <trkpt lat="41.68424" lon="9.23163">
        <ele>511.86</ele>
        <time>2021-05-08T11:26:58Z</time>
      </trkpt>
      <trkpt lat="41.68427" lon="9.23181">
        <ele>511.78</ele>
        <time>2021-05-08T11:27:15Z</time>
      </trkpt>
      <trkpt lat="41.68429" lon="9.23195">
        <ele>511.72</ele>
        <time>2021-05-08T11:27:32Z</time>
      </trkpt>
      <trkpt lat="41.68425" lon="9.232">
        <ele>511.65</ele>
        <time>2021-05-08T11:27:47Z</time>
      </trkpt>
      <trkpt lat="41.68423" lon="9.23211">
        <ele>511.58</ele>
        <time>2021-05-08T11:28:01Z</time>
      </trkpt>
      <trkpt lat="41.68424" lon="9.23215">
        <ele>511.56</ele>
        <time>2021-05-08T11:28:05Z</time>
      </trkpt>
      <trkpt lat="41.68431" lon="9.23233">
        <ele>511.49</ele>
        <time>2021-05-08T11:28:20Z</time>
      </trkpt>
      <trkpt lat="41.68436" lon="9.23245">
        <ele>513.7</ele>
        <time>2021-05-08T11:28:37Z</time>
      </trkpt>
      <trkpt lat="41.68439" lon="9.23264">
        <ele>513.61</ele>
        <time>2021-05-08T11:28:55Z</time>
      </trkpt>
      <trkpt lat="41.68446" lon="9.23275">
        <ele>513.53</ele>
        <time>2021-05-08T11:29:13Z</time>
      </trkpt>
      <trkpt lat="41.68453" lon="9.23291">
        <ele>513.44</ele>
        <time>2021-05-08T11:29:29Z</time>
      </trkpt>
      <trkpt lat="41.6846" lon="9.23304">
        <ele>510.93</ele>
        <time>2021-05-08T11:29:45Z</time>
      </trkpt>
      <trkpt lat="41.68468" lon="9.2332">
        <ele>507.63</ele>
        <time>2021-05-08T11:29:58Z</time>
      </trkpt>
      <trkpt lat="41.6848" lon="9.2334">
        <ele>506.82</ele>
        <time>2021-05-08T11:30:18Z</time>
      </trkpt>
      <trkpt lat="41.68494" lon="9.23358">
        <ele>505.06</ele>
        <time>2021-05-08T11:30:39Z</time>
      </trkpt>
      <trkpt lat="41.68505" lon="9.23374">
        <ele>502.17</ele>
        <time>2021-05-08T11:30:53Z</time>
      </trkpt>
      <trkpt lat="41.68509" lon="9.23396">
        <ele>499.27</ele>
        <time>2021-05-08T11:31:09Z</time>
      </trkpt>
      <trkpt lat="41.6851" lon="9.23415">
        <ele>497.69</ele>
        <time>2021-05-08T11:31:19Z</time>
      </trkpt>
      <trkpt lat="41.68511" lon="9.23434">
        <ele>495.89</ele>
        <time>2021-05-08T11:31:32Z</time>
      </trkpt>
      <trkpt lat="41.68511" lon="9.2344">
        <ele>495.87</ele>
        <time>2021-05-08T11:31:36Z</time>
      </trkpt>
      <trkpt lat="41.68507" lon="9.2346">
        <ele>495.79</ele>
        <time>2021-05-08T11:31:50Z</time>
      </trkpt>
      <trkpt lat="41.685" lon="9.23477">
        <ele>495.7</ele>
        <time>2021-05-08T11:32:06Z</time>
      </trkpt>
      <trkpt lat="41.68497" lon="9.23494">
        <ele>495.61</ele>
        <time>2021-05-08T11:32:20Z</time>
      </trkpt>
      <trkpt lat="41.68493" lon="9.23497">
        <ele>497.93</ele>
        <time>2021-05-08T11:32:34Z</time>
      </trkpt>
      <trkpt lat="41.68491" lon="9.235">
        <ele>497.87</ele>
        <time>2021-05-08T11:32:45Z</time>
      </trkpt>
      <trkpt lat="41.68486" lon="9.23514">
        <ele>497.79</ele>
        <time>2021-05-08T11:32:57Z</time>
      </trkpt>
      <trkpt lat="41.68483" lon="9.23522">
        <ele>495.45</ele>
        <time>2021-05-08T11:33:04Z</time>
      </trkpt>
      <trkpt lat="41.68484" lon="9.23539">
        <ele>492.92</ele>
        <time>2021-05-08T11:33:18Z</time>
      </trkpt>
      <trkpt lat="41.68487" lon="9.23552">
        <ele>492.01</ele>
        <time>2021-05-08T11:33:37Z</time>
      </trkpt>
      <trkpt lat="41.68489" lon="9.23563">
        <ele>491.99</ele>
        <time>2021-05-08T11:33:52Z</time>
      </trkpt>
      <trkpt lat="41.68485" lon="9.2359">
        <ele>491.93</ele>
        <time>2021-05-08T11:34:06Z</time>
      </trkpt>
      <trkpt lat="41.68483" lon="9.23601">
        <ele>491.88</ele>
        <time>2021-05-08T11:34:11Z</time>
      </trkpt>
      <trkpt lat="41.68481" lon="9.23614">
        <ele>491.86</ele>
        <time>2021-05-08T11:34:19Z</time>
      </trkpt>
      <trkpt lat="41.68479" lon="9.2362">
        <ele>491.85</ele>
        <time>2021-05-08T11:34:23Z</time>
      </trkpt>
      <trkpt lat="41.68478" lon="9.2363">
        <ele>490.83</ele>
        <time>2021-05-08T11:34:37Z</time>
      </trkpt>
      <trkpt lat="41.68484" lon="9.23633">
        <ele>490.96</ele>
        <time>2021-05-08T11:34:49Z</time>
      </trkpt>
      <trkpt lat="41.68493" lon="9.23638">
        <ele>491.08</ele>
        <time>2021-05-08T11:35:02Z</time>
      </trkpt>
      <trkpt lat="41.68497" lon="9.23634">
        <ele>493.55</ele>
        <time>2021-05-08T11:35:14Z</time>
      </trkpt>
      <trkpt lat="41.68498" lon="9.23634">
        <ele>494.55</ele>
        <time>2021-05-08T11:35:27Z</time>
      </trkpt>
      <trkpt lat="41.68492" lon="9.23642">
        <ele>492.01</ele>
        <time>2021-05-08T11:35:39Z</time>
      </trkpt>
      <trkpt lat="41.68492" lon="9.23643">
        <ele>492</ele>
        <time>2021-05-08T11:35:40Z</time>
      </trkpt>
      <trkpt lat="41.6849" lon="9.23651">
        <ele>491.12</ele>
        <time>2021-05-08T11:35:46Z</time>
      </trkpt>
      <trkpt lat="41.68492" lon="9.23664">
        <ele>489.47</ele>
        <time>2021-05-08T11:35:58Z</time>
      </trkpt>
      <trkpt lat="41.68489" lon="9.23676">
        <ele>485.97</ele>
        <time>2021-05-08T11:36:10Z</time>
      </trkpt>
      <trkpt lat="41.68486" lon="9.23685">
        <ele>484.64</ele>
        <time>2021-05-08T11:36:24Z</time>
      </trkpt>
      <trkpt lat="41.68487" lon="9.23687">
        <ele>483.76</ele>
        <time>2021-05-08T11:36:50Z</time>
      </trkpt>
      <trkpt lat="41.68484" lon="9.23689">
        <ele>483.79</ele>
        <time>2021-05-08T11:37:07Z</time>
      </trkpt>
      <trkpt lat="41.68481" lon="9.23685">
        <ele>483.09</ele>
        <time>2021-05-08T11:37:37Z</time>
      </trkpt>
      <trkpt lat="41.68482" lon="9.23686">
        <ele>483.14</ele>
        <time>2021-05-08T11:38:01Z</time>
      </trkpt>
      <trkpt lat="41.68481" lon="9.23692">
        <ele>483.13</ele>
        <time>2021-05-08T11:38:20Z</time>
      </trkpt>
      <trkpt lat="41.68483" lon="9.23702">
        <ele>482.16</ele>
        <time>2021-05-08T11:38:31Z</time>
      </trkpt>
      <trkpt lat="41.68483" lon="9.23709">
        <ele>480.46</ele>
        <time>2021-05-08T11:38:40Z</time>
      </trkpt>
      <trkpt lat="41.68485" lon="9.23722">
        <ele>477.28</ele>
        <time>2021-05-08T11:38:53Z</time>
      </trkpt>
      <trkpt lat="41.68487" lon="9.23738">
        <ele>473.87</ele>
        <time>2021-05-08T11:39:09Z</time>
      </trkpt>
      <trkpt lat="41.68485" lon="9.23748">
        <ele>473.41</ele>
        <time>2021-05-08T11:39:32Z</time>
      </trkpt>
      <trkpt lat="41.68484" lon="9.2376">
        <ele>471.47</ele>
        <time>2021-05-08T11:39:49Z</time>
      </trkpt>
      <trkpt lat="41.68487" lon="9.23775">
        <ele>469.89</ele>
        <time>2021-05-08T11:40:04Z</time>
      </trkpt>
      <trkpt lat="41.68491" lon="9.23784">
        <ele>469.19</ele>
        <time>2021-05-08T11:40:14Z</time>
      </trkpt>
      <trkpt lat="41.68491" lon="9.23793">
        <ele>467.21</ele>
        <time>2021-05-08T11:40:21Z</time>
      </trkpt>
      <trkpt lat="41.6849" lon="9.23799">
        <ele>467.23</ele>
        <time>2021-05-08T11:40:26Z</time>
      </trkpt>
      <trkpt lat="41.68488" lon="9.2381">
        <ele>464.76</ele>
        <time>2021-05-08T11:40:38Z</time>
      </trkpt>
      <trkpt lat="41.68493" lon="9.23826">
        <ele>462.24</ele>
        <time>2021-05-08T11:40:53Z</time>
      </trkpt>
      <trkpt lat="41.68502" lon="9.23836">
        <ele>459.8</ele>
        <time>2021-05-08T11:41:10Z</time>
      </trkpt>
      <trkpt lat="41.68506" lon="9.23854">
        <ele>457.47</ele>
        <time>2021-05-08T11:41:25Z</time>
      </trkpt>
      <trkpt lat="41.68508" lon="9.23861">
        <ele>456.59</ele>
        <time>2021-05-08T11:41:32Z</time>
      </trkpt>
      <trkpt lat="41.68513" lon="9.23879">
        <ele>454.24</ele>
        <time>2021-05-08T11:41:47Z</time>
      </trkpt>
      <trkpt lat="41.68518" lon="9.23888">
        <ele>451.82</ele>
        <time>2021-05-08T11:41:58Z</time>
      </trkpt>
      <trkpt lat="41.6852" lon="9.23899">
        <ele>451.3</ele>
        <time>2021-05-08T11:42:18Z</time>
      </trkpt>
      <trkpt lat="41.68524" lon="9.23911">
        <ele>450.43</ele>
        <time>2021-05-08T11:42:39Z</time>
      </trkpt>
      <trkpt lat="41.68528" lon="9.23921">
        <ele>449.6</ele>
        <time>2021-05-08T11:42:57Z</time>
      </trkpt>
      <trkpt lat="41.68528" lon="9.23925">
        <ele>449.84</ele>
        <time>2021-05-08T11:43:19Z</time>
      </trkpt>
      <trkpt lat="41.68533" lon="9.23944">
        <ele>447.36</ele>
        <time>2021-05-08T11:43:37Z</time>
      </trkpt>
      <trkpt lat="41.68534" lon="9.23949">
        <ele>446.57</ele>
        <time>2021-05-08T11:43:40Z</time>
      </trkpt>
      <trkpt lat="41.68534" lon="9.23954">
        <ele>446.6</ele>
        <time>2021-05-08T11:43:43Z</time>
      </trkpt>
      <trkpt lat="41.68534" lon="9.2397">
        <ele>442.98</ele>
        <time>2021-05-08T11:43:54Z</time>
      </trkpt>
      <trkpt lat="41.68534" lon="9.23977">
        <ele>442.3</ele>
        <time>2021-05-08T11:43:59Z</time>
      </trkpt>
      <trkpt lat="41.68523" lon="9.23989">
        <ele>439.71</ele>
        <time>2021-05-08T11:44:13Z</time>
      </trkpt>
      <trkpt lat="41.68519" lon="9.23991">
        <ele>438.96</ele>
        <time>2021-05-08T11:44:19Z</time>
      </trkpt>
      <trkpt lat="41.68514" lon="9.23993">
        <ele>437.28</ele>
        <time>2021-05-08T11:44:26Z</time>
      </trkpt>
      <trkpt lat="41.6851" lon="9.23992">
        <ele>436.32</ele>
        <time>2021-05-08T11:44:30Z</time>
      </trkpt>
      <trkpt lat="41.68506" lon="9.23988">
        <ele>436.34</ele>
        <time>2021-05-08T11:44:34Z</time>
      </trkpt>
      <trkpt lat="41.68501" lon="9.23981">
        <ele>434.78</ele>
        <time>2021-05-08T11:44:41Z</time>
      </trkpt>
      <trkpt lat="41.68489" lon="9.23967">
        <ele>432.23</ele>
        <time>2021-05-08T11:44:56Z</time>
      </trkpt>
      <trkpt lat="41.68486" lon="9.23966">
        <ele>431.3</ele>
        <time>2021-05-08T11:44:59Z</time>
      </trkpt>
      <trkpt lat="41.68482" lon="9.23963">
        <ele>429.99</ele>
        <time>2021-05-08T11:45:05Z</time>
      </trkpt>
      <trkpt lat="41.68472" lon="9.23961">
        <ele>427.66</ele>
        <time>2021-05-08T11:45:18Z</time>
      </trkpt>
      <trkpt lat="41.68466" lon="9.23965">
        <ele>425.18</ele>
        <time>2021-05-08T11:45:34Z</time>
      </trkpt>
      <trkpt lat="41.68465" lon="9.23977">
        <ele>421.6</ele>
        <time>2021-05-08T11:45:51Z</time>
      </trkpt>
      <trkpt lat="41.68468" lon="9.23988">
        <ele>420.89</ele>
        <time>2021-05-08T11:46:05Z</time>
      </trkpt>
      <trkpt lat="41.6847" lon="9.23994">
        <ele>420.04</ele>
        <time>2021-05-08T11:46:10Z</time>
      </trkpt>
      <trkpt lat="41.68473" lon="9.24005">
        <ele>418.45</ele>
        <time>2021-05-08T11:46:18Z</time>
      </trkpt>
      <trkpt lat="41.68474" lon="9.24011">
        <ele>418.44</ele>
        <time>2021-05-08T11:46:23Z</time>
      </trkpt>
      <trkpt lat="41.68473" lon="9.24017">
        <ele>417.6</ele>
        <time>2021-05-08T11:46:27Z</time>
      </trkpt>
      <trkpt lat="41.68471" lon="9.2402">
        <ele>416.76</ele>
        <time>2021-05-08T11:46:30Z</time>
      </trkpt>
      <trkpt lat="41.68469" lon="9.24019">
        <ele>415.87</ele>
        <time>2021-05-08T11:46:33Z</time>
      </trkpt>
      <trkpt lat="41.68461" lon="9.2401">
        <ele>413.91</ele>
        <time>2021-05-08T11:46:46Z</time>
      </trkpt>
      <trkpt lat="41.68457" lon="9.24017">
        <ele>411.61</ele>
        <time>2021-05-08T11:46:55Z</time>
      </trkpt>
      <trkpt lat="41.68456" lon="9.24028">
        <ele>407.88</ele>
        <time>2021-05-08T11:47:06Z</time>
      </trkpt>
      <trkpt lat="41.68457" lon="9.24032">
        <ele>406.62</ele>
        <time>2021-05-08T11:47:11Z</time>
      </trkpt>
      <trkpt lat="41.68455" lon="9.24044">
        <ele>404.06</ele>
        <time>2021-05-08T11:47:24Z</time>
      </trkpt>
      <trkpt lat="41.68456" lon="9.24057">
        <ele>400.15</ele>
        <time>2021-05-08T11:47:37Z</time>
      </trkpt>
      <trkpt lat="41.68459" lon="9.2407">
        <ele>396.78</ele>
        <time>2021-05-08T11:47:51Z</time>
      </trkpt>
      <trkpt lat="41.68464" lon="9.24084">
        <ele>393.94</ele>
        <time>2021-05-08T11:48:06Z</time>
      </trkpt>
      <trkpt lat="41.68461" lon="9.24089">
        <ele>391.36</ele>
        <time>2021-05-08T11:48:17Z</time>
      </trkpt>
      <trkpt lat="41.68449" lon="9.24084">
        <ele>387.81</ele>
        <time>2021-05-08T11:48:33Z</time>
      </trkpt>
      <trkpt lat="41.68451" lon="9.24093">
        <ele>384.87</ele>
        <time>2021-05-08T11:48:48Z</time>
      </trkpt>
      <trkpt lat="41.68443" lon="9.24094">
        <ele>382.32</ele>
        <time>2021-05-08T11:48:59Z</time>
      </trkpt>
      <trkpt lat="41.68435" lon="9.24094">
        <ele>380.44</ele>
        <time>2021-05-08T11:49:09Z</time>
      </trkpt>
      <trkpt lat="41.68428" lon="9.24095">
        <ele>378.34</ele>
        <time>2021-05-08T11:49:23Z</time>
      </trkpt>
      <trkpt lat="41.68429" lon="9.24099">
        <ele>377.35</ele>
        <time>2021-05-08T11:49:29Z</time>
      </trkpt>
      <trkpt lat="41.68436" lon="9.24114">
        <ele>374.37</ele>
        <time>2021-05-08T11:49:44Z</time>
      </trkpt>
      <trkpt lat="41.68431" lon="9.24118">
        <ele>372.61</ele>
        <time>2021-05-08T11:49:52Z</time>
      </trkpt>
      <trkpt lat="41.68424" lon="9.24118">
        <ele>370.95</ele>
        <time>2021-05-08T11:50:00Z</time>
      </trkpt>
      <trkpt lat="41.68419" lon="9.24119">
        <ele>370.95</ele>
        <time>2021-05-08T11:50:05Z</time>
      </trkpt>
      <trkpt lat="41.68415" lon="9.24119">
        <ele>370.94</ele>
        <time>2021-05-08T11:50:09Z</time>
      </trkpt>
      <trkpt lat="41.68413" lon="9.2412">
        <ele>370.18</ele>
        <time>2021-05-08T11:50:11Z</time>
      </trkpt>
      <trkpt lat="41.68401" lon="9.24124">
        <ele>367.49</ele>
        <time>2021-05-08T11:50:27Z</time>
      </trkpt>
      <trkpt lat="41.68396" lon="9.24125">
        <ele>365.73</ele>
        <time>2021-05-08T11:50:41Z</time>
      </trkpt>
      <trkpt lat="41.6839" lon="9.24121">
        <ele>365.68</ele>
        <time>2021-05-08T11:50:53Z</time>
      </trkpt>
      <trkpt lat="41.68386" lon="9.24121">
        <ele>364.9</ele>
        <time>2021-05-08T11:50:58Z</time>
      </trkpt>
      <trkpt lat="41.6838" lon="9.24127">
        <ele>364.09</ele>
        <time>2021-05-08T11:51:06Z</time>
      </trkpt>
      <trkpt lat="41.68372" lon="9.24136">
        <ele>360.33</ele>
        <time>2021-05-08T11:51:21Z</time>
      </trkpt>
      <trkpt lat="41.68366" lon="9.24144">
        <ele>357.69</ele>
        <time>2021-05-08T11:51:36Z</time>
      </trkpt>
      <trkpt lat="41.68367" lon="9.24145">
        <ele>356.87</ele>
        <time>2021-05-08T11:51:37Z</time>
      </trkpt>
      <trkpt lat="41.68368" lon="9.24149">
        <ele>356.92</ele>
        <time>2021-05-08T11:51:41Z</time>
      </trkpt>
      <trkpt lat="41.68373" lon="9.24158">
        <ele>354.18</ele>
        <time>2021-05-08T11:51:54Z</time>
      </trkpt>
      <trkpt lat="41.68376" lon="9.24165">
        <ele>351.23</ele>
        <time>2021-05-08T11:52:07Z</time>
      </trkpt>
      <trkpt lat="41.68384" lon="9.24169">
        <ele>348.51</ele>
        <time>2021-05-08T11:52:19Z</time>
      </trkpt>
      <trkpt lat="41.68394" lon="9.24179">
        <ele>344.77</ele>
        <time>2021-05-08T11:52:34Z</time>
      </trkpt>
      <trkpt lat="41.68393" lon="9.24185">
        <ele>342.96</ele>
        <time>2021-05-08T11:52:42Z</time>
      </trkpt>
      <trkpt lat="41.68391" lon="9.24189">
        <ele>342.14</ele>
        <time>2021-05-08T11:52:49Z</time>
      </trkpt>
      <trkpt lat="41.68383" lon="9.24195">
        <ele>339.39</ele>
        <time>2021-05-08T11:53:02Z</time>
      </trkpt>
      <trkpt lat="41.68376" lon="9.24199">
        <ele>338.34</ele>
        <time>2021-05-08T11:53:14Z</time>
      </trkpt>
      <trkpt lat="41.68368" lon="9.24204">
        <ele>336.38</ele>
        <time>2021-05-08T11:53:26Z</time>
      </trkpt>
      <trkpt lat="41.6836" lon="9.24208">
        <ele>333.65</ele>
        <time>2021-05-08T11:53:40Z</time>
      </trkpt>
      <trkpt lat="41.68356" lon="9.24217">
        <ele>330.81</ele>
        <time>2021-05-08T11:53:52Z</time>
      </trkpt>
      <trkpt lat="41.68353" lon="9.24215">
        <ele>329.93</ele>
        <time>2021-05-08T11:53:55Z</time>
      </trkpt>
      <trkpt lat="41.68346" lon="9.24215">
        <ele>326.85</ele>
        <time>2021-05-08T11:54:06Z</time>
      </trkpt>
      <trkpt lat="41.68341" lon="9.24218">
        <ele>324.45</ele>
        <time>2021-05-08T11:54:21Z</time>
      </trkpt>
      <trkpt lat="41.68336" lon="9.24215">
        <ele>322.9</ele>
        <time>2021-05-08T11:54:26Z</time>
      </trkpt>
      <trkpt lat="41.68322" lon="9.24211">
        <ele>322.09</ele>
        <time>2021-05-08T11:54:39Z</time>
      </trkpt>
      <trkpt lat="41.68316" lon="9.24214">
        <ele>319.5</ele>
        <time>2021-05-08T11:54:54Z</time>
      </trkpt>
      <trkpt lat="41.6831" lon="9.24216">
        <ele>316.34</ele>
        <time>2021-05-08T11:55:04Z</time>
      </trkpt>
      <trkpt lat="41.68311" lon="9.24229">
        <ele>313.82</ele>
        <time>2021-05-08T11:55:19Z</time>
      </trkpt>
      <trkpt lat="41.68315" lon="9.24245">
        <ele>311.27</ele>
        <time>2021-05-08T11:55:36Z</time>
      </trkpt>
      <trkpt lat="41.68312" lon="9.24253">
        <ele>308.32</ele>
        <time>2021-05-08T11:55:48Z</time>
      </trkpt>
      <trkpt lat="41.68312" lon="9.24258">
        <ele>306.16</ele>
        <time>2021-05-08T11:55:53Z</time>
      </trkpt>
      <trkpt lat="41.68315" lon="9.24271">
        <ele>303.57</ele>
        <time>2021-05-08T11:56:07Z</time>
      </trkpt>
      <trkpt lat="41.68318" lon="9.24284">
        <ele>300.86</ele>
        <time>2021-05-08T11:56:23Z</time>
      </trkpt>
      <trkpt lat="41.68318" lon="9.24299">
        <ele>297.29</ele>
        <time>2021-05-08T11:56:38Z</time>
      </trkpt>
      <trkpt lat="41.68314" lon="9.24311">
        <ele>293.76</ele>
        <time>2021-05-08T11:56:51Z</time>
      </trkpt>
      <trkpt lat="41.68306" lon="9.24317">
        <ele>290.67</ele>
        <time>2021-05-08T11:57:06Z</time>
      </trkpt>
      <trkpt lat="41.68304" lon="9.24328">
        <ele>287.42</ele>
        <time>2021-05-08T11:57:18Z</time>
      </trkpt>
      <trkpt lat="41.68304" lon="9.24335">
        <ele>285.85</ele>
        <time>2021-05-08T11:57:34Z</time>
      </trkpt>
      <trkpt lat="41.68303" lon="9.24337">
        <ele>285.08</ele>
        <time>2021-05-08T11:57:36Z</time>
      </trkpt>
      <trkpt lat="41.68293" lon="9.24352">
        <ele>283.19</ele>
        <time>2021-05-08T11:57:51Z</time>
      </trkpt>
      <trkpt lat="41.68288" lon="9.24366">
        <ele>281.62</ele>
        <time>2021-05-08T11:58:04Z</time>
      </trkpt>
      <trkpt lat="41.6828" lon="9.24378">
        <ele>280.02</ele>
        <time>2021-05-08T11:58:16Z</time>
      </trkpt>
      <trkpt lat="41.68285" lon="9.24385">
        <ele>278.5</ele>
        <time>2021-05-08T11:58:32Z</time>
      </trkpt>
      <trkpt lat="41.68287" lon="9.2439">
        <ele>277.85</ele>
        <time>2021-05-08T11:58:49Z</time>
      </trkpt>
      <trkpt lat="41.68284" lon="9.2439">
        <ele>277.91</ele>
        <time>2021-05-08T11:59:04Z</time>
      </trkpt>
      <trkpt lat="41.68284" lon="9.24395">
        <ele>277.95</ele>
        <time>2021-05-08T11:59:18Z</time>
      </trkpt>
      <trkpt lat="41.68282" lon="9.24394">
        <ele>277.98</ele>
        <time>2021-05-08T11:59:33Z</time>
      </trkpt>
      <trkpt lat="41.68284" lon="9.24392">
        <ele>278.01</ele>
        <time>2021-05-08T11:59:51Z</time>
      </trkpt>
      <trkpt lat="41.68283" lon="9.24395">
        <ele>278.07</ele>
        <time>2021-05-08T12:00:08Z</time>
      </trkpt>
      <trkpt lat="41.68283" lon="9.24396">
        <ele>278.12</ele>
        <time>2021-05-08T12:00:24Z</time>
      </trkpt>
      <trkpt lat="41.68285" lon="9.24395">
        <ele>277.33</ele>
        <time>2021-05-08T12:00:44Z</time>
      </trkpt>
      <trkpt lat="41.68287" lon="9.24393">
        <ele>277.38</ele>
        <time>2021-05-08T12:01:07Z</time>
      </trkpt>
      <trkpt lat="41.68289" lon="9.24391">
        <ele>277.43</ele>
        <time>2021-05-08T12:01:28Z</time>
      </trkpt>
      <trkpt lat="41.68292" lon="9.24391">
        <ele>277.49</ele>
        <time>2021-05-08T12:01:53Z</time>
      </trkpt>
      <trkpt lat="41.68294" lon="9.24393">
        <ele>276.7</ele>
        <time>2021-05-08T12:02:11Z</time>
      </trkpt>
      <trkpt lat="41.68296" lon="9.24395">
        <ele>276.75</ele>
        <time>2021-05-08T12:02:28Z</time>
      </trkpt>
      <trkpt lat="41.68297" lon="9.24397">
        <ele>276.82</ele>
        <time>2021-05-08T12:02:49Z</time>
      </trkpt>
      <trkpt lat="41.68298" lon="9.24395">
        <ele>276.88</ele>
        <time>2021-05-08T12:03:12Z</time>
      </trkpt>
      <trkpt lat="41.68297" lon="9.24396">
        <ele>276.94</ele>
        <time>2021-05-08T12:03:41Z</time>
      </trkpt>
      <trkpt lat="41.68296" lon="9.2439">
        <ele>277.01</ele>
        <time>2021-05-08T12:04:00Z</time>
      </trkpt>
      <trkpt lat="41.68298" lon="9.24388">
        <ele>277.06</ele>
        <time>2021-05-08T12:04:19Z</time>
      </trkpt>
      <trkpt lat="41.68298" lon="9.24387">
        <ele>277.15</ele>
        <time>2021-05-08T12:04:47Z</time>
      </trkpt>
      <trkpt lat="41.68305" lon="9.24387">
        <ele>277.21</ele>
        <time>2021-05-08T12:05:02Z</time>
      </trkpt>
      <trkpt lat="41.68312" lon="9.24393">
        <ele>277.27</ele>
        <time>2021-05-08T12:05:16Z</time>
      </trkpt>
      <trkpt lat="41.68316" lon="9.24393">
        <ele>277.39</ele>
        <time>2021-05-08T12:05:39Z</time>
      </trkpt>
      <trkpt lat="41.68316" lon="9.24392">
        <ele>279.71</ele>
        <time>2021-05-08T12:05:43Z</time>
      </trkpt>
      <trkpt lat="41.68322" lon="9.2439">
        <ele>281.63</ele>
        <time>2021-05-08T12:06:02Z</time>
      </trkpt>
      <trkpt lat="41.68327" lon="9.24387">
        <ele>284.51</ele>
        <time>2021-05-08T12:06:17Z</time>
      </trkpt>
      <trkpt lat="41.68323" lon="9.24398">
        <ele>284.65</ele>
        <time>2021-05-08T12:06:40Z</time>
      </trkpt>
      <trkpt lat="41.68322" lon="9.24398">
        <ele>282.39</ele>
        <time>2021-05-08T12:06:42Z</time>
      </trkpt>
      <trkpt lat="41.68318" lon="9.244">
        <ele>279.91</ele>
        <time>2021-05-08T12:06:57Z</time>
      </trkpt>
      <trkpt lat="41.6831" lon="9.24402">
        <ele>279.24</ele>
        <time>2021-05-08T12:07:12Z</time>
      </trkpt>
      <trkpt lat="41.68304" lon="9.24403">
        <ele>279.4</ele>
        <time>2021-05-08T12:07:26Z</time>
      </trkpt>
      <trkpt lat="41.68293" lon="9.24404">
        <ele>279.6</ele>
        <time>2021-05-08T12:07:46Z</time>
      </trkpt>
      <trkpt lat="41.68283" lon="9.24409">
        <ele>279.8</ele>
        <time>2021-05-08T12:08:07Z</time>
      </trkpt>
      <trkpt lat="41.68279" lon="9.24414">
        <ele>279.94</ele>
        <time>2021-05-08T12:08:28Z</time>
      </trkpt>
      <trkpt lat="41.68278" lon="9.24411">
        <ele>280.13</ele>
        <time>2021-05-08T12:09:01Z</time>
      </trkpt>
      <trkpt lat="41.68273" lon="9.2441">
        <ele>280.31</ele>
        <time>2021-05-08T12:09:37Z</time>
      </trkpt>
      <trkpt lat="41.68271" lon="9.24403">
        <ele>280.54</ele>
        <time>2021-05-08T12:10:28Z</time>
      </trkpt>
      <trkpt lat="41.6827" lon="9.24402">
        <ele>280.73</ele>
        <time>2021-05-08T12:11:07Z</time>
      </trkpt>
      <trkpt lat="41.6827" lon="9.24406">
        <ele>280.9</ele>
        <time>2021-05-08T12:11:47Z</time>
      </trkpt>
      <trkpt lat="41.68272" lon="9.24405">
        <ele>281.08</ele>
        <time>2021-05-08T12:12:37Z</time>
      </trkpt>
      <trkpt lat="41.68273" lon="9.24406">
        <ele>281.2</ele>
        <time>2021-05-08T12:13:17Z</time>
      </trkpt>
      <trkpt lat="41.68272" lon="9.24406">
        <ele>281.35</ele>
        <time>2021-05-08T12:14:07Z</time>
      </trkpt>
      <trkpt lat="41.68272" lon="9.24406">
        <ele>281.52</ele>
        <time>2021-05-08T12:14:57Z</time>
      </trkpt>
      <trkpt lat="41.68272" lon="9.24404">
        <ele>281.71</ele>
        <time>2021-05-08T12:15:54Z</time>
      </trkpt>
      <trkpt lat="41.68271" lon="9.24406">
        <ele>281.89</ele>
        <time>2021-05-08T12:16:48Z</time>
      </trkpt>
      <trkpt lat="41.6827" lon="9.24402">
        <ele>281.99</ele>
        <time>2021-05-08T12:17:37Z</time>
      </trkpt>
      <trkpt lat="41.68272" lon="9.24404">
        <ele>282</ele>
        <time>2021-05-08T12:18:21Z</time>
      </trkpt>
      <trkpt lat="41.68273" lon="9.24404">
        <ele>281.91</ele>
        <time>2021-05-08T12:19:16Z</time>
      </trkpt>
      <trkpt lat="41.68274" lon="9.24408">
        <ele>281.73</ele>
        <time>2021-05-08T12:20:08Z</time>
      </trkpt>
      <trkpt lat="41.68276" lon="9.24408">
        <ele>281.59</ele>
        <time>2021-05-08T12:20:43Z</time>
      </trkpt>
      <trkpt lat="41.68277" lon="9.24408">
        <ele>281.46</ele>
        <time>2021-05-08T12:21:14Z</time>
      </trkpt>
      <trkpt lat="41.68274" lon="9.24403">
        <ele>281.36</ele>
        <time>2021-05-08T12:21:41Z</time>
      </trkpt>
      <trkpt lat="41.68275" lon="9.24404">
        <ele>281.26</ele>
        <time>2021-05-08T12:22:14Z</time>
      </trkpt>
      <trkpt lat="41.68273" lon="9.24405">
        <ele>281.2</ele>
        <time>2021-05-08T12:22:39Z</time>
      </trkpt>
      <trkpt lat="41.68274" lon="9.24407">
        <ele>281.12</ele>
        <time>2021-05-08T12:23:22Z</time>
      </trkpt>
      <trkpt lat="41.68274" lon="9.24408">
        <ele>281.01</ele>
        <time>2021-05-08T12:24:03Z</time>
      </trkpt>
      <trkpt lat="41.68273" lon="9.24407">
        <ele>280.81</ele>
        <time>2021-05-08T12:25:03Z</time>
      </trkpt>
      <trkpt lat="41.68275" lon="9.24408">
        <ele>280.66</ele>
        <time>2021-05-08T12:25:59Z</time>
      </trkpt>
      <trkpt lat="41.68275" lon="9.24409">
        <ele>280.61</ele>
        <time>2021-05-08T12:26:18Z</time>
      </trkpt>
      <trkpt lat="41.68271" lon="9.2442">
        <ele>282.95</ele>
        <time>2021-05-08T12:26:34Z</time>
      </trkpt>
      <trkpt lat="41.68271" lon="9.2443">
        <ele>283.74</ele>
        <time>2021-05-08T12:26:49Z</time>
      </trkpt>
      <trkpt lat="41.68269" lon="9.2444">
        <ele>283.62</ele>
        <time>2021-05-08T12:26:58Z</time>
      </trkpt>
      <trkpt lat="41.68269" lon="9.24446">
        <ele>283.59</ele>
        <time>2021-05-08T12:27:04Z</time>
      </trkpt>
      <trkpt lat="41.68272" lon="9.24457">
        <ele>281.15</ele>
        <time>2021-05-08T12:27:15Z</time>
      </trkpt>
      <trkpt lat="41.68274" lon="9.24469">
        <ele>278.54</ele>
        <time>2021-05-08T12:27:30Z</time>
      </trkpt>
      <trkpt lat="41.68278" lon="9.24485">
        <ele>276.68</ele>
        <time>2021-05-08T12:27:45Z</time>
      </trkpt>
      <trkpt lat="41.68284" lon="9.24496">
        <ele>275.64</ele>
        <time>2021-05-08T12:27:58Z</time>
      </trkpt>
      <trkpt lat="41.68286" lon="9.24499">
        <ele>275.62</ele>
        <time>2021-05-08T12:28:02Z</time>
      </trkpt>
      <trkpt lat="41.68293" lon="9.2451">
        <ele>275.57</ele>
        <time>2021-05-08T12:28:17Z</time>
      </trkpt>
      <trkpt lat="41.68294" lon="9.24513">
        <ele>275.55</ele>
        <time>2021-05-08T12:28:20Z</time>
      </trkpt>
      <trkpt lat="41.68297" lon="9.2453">
        <ele>274.74</ele>
        <time>2021-05-08T12:28:35Z</time>
      </trkpt>
      <trkpt lat="41.683" lon="9.24533">
        <ele>273.86</ele>
        <time>2021-05-08T12:28:42Z</time>
      </trkpt>
      <trkpt lat="41.68309" lon="9.24544">
        <ele>273.85</ele>
        <time>2021-05-08T12:28:57Z</time>
      </trkpt>
      <trkpt lat="41.68318" lon="9.24552">
        <ele>273.85</ele>
        <time>2021-05-08T12:29:13Z</time>
      </trkpt>
      <trkpt lat="41.68324" lon="9.24563">
        <ele>272.9</ele>
        <time>2021-05-08T12:29:29Z</time>
      </trkpt>
      <trkpt lat="41.68323" lon="9.24567">
        <ele>272.84</ele>
        <time>2021-05-08T12:29:53Z</time>
      </trkpt>
      <trkpt lat="41.68323" lon="9.24567">
        <ele>272.83</ele>
        <time>2021-05-08T12:29:55Z</time>
      </trkpt>
      <trkpt lat="41.68327" lon="9.24568">
        <ele>272.81</ele>
        <time>2021-05-08T12:30:07Z</time>
      </trkpt>
      <trkpt lat="41.68331" lon="9.24568">
        <ele>275.25</ele>
        <time>2021-05-08T12:30:18Z</time>
      </trkpt>
      <trkpt lat="41.68334" lon="9.24578">
        <ele>277.5</ele>
        <time>2021-05-08T12:30:38Z</time>
      </trkpt>
      <trkpt lat="41.68342" lon="9.2459">
        <ele>279.12</ele>
        <time>2021-05-08T12:30:56Z</time>
      </trkpt>
      <trkpt lat="41.68343" lon="9.24603">
        <ele>280</ele>
        <time>2021-05-08T12:31:12Z</time>
      </trkpt>
      <trkpt lat="41.68345" lon="9.24615">
        <ele>282.05</ele>
        <time>2021-05-08T12:31:28Z</time>
      </trkpt>
      <trkpt lat="41.6835" lon="9.24624">
        <ele>281.99</ele>
        <time>2021-05-08T12:31:39Z</time>
      </trkpt>
      <trkpt lat="41.68357" lon="9.24639">
        <ele>281.86</ele>
        <time>2021-05-08T12:31:57Z</time>
      </trkpt>
      <trkpt lat="41.68357" lon="9.24641">
        <ele>279.52</ele>
        <time>2021-05-08T12:31:59Z</time>
      </trkpt>
      <trkpt lat="41.68362" lon="9.24657">
        <ele>278.03</ele>
        <time>2021-05-08T12:32:13Z</time>
      </trkpt>
      <trkpt lat="41.68365" lon="9.24669">
        <ele>277.3</ele>
        <time>2021-05-08T12:32:25Z</time>
      </trkpt>
      <trkpt lat="41.68365" lon="9.24683">
        <ele>275.47</ele>
        <time>2021-05-08T12:32:35Z</time>
      </trkpt>
      <trkpt lat="41.68367" lon="9.24692">
        <ele>274.64</ele>
        <time>2021-05-08T12:32:43Z</time>
      </trkpt>
      <trkpt lat="41.68367" lon="9.24698">
        <ele>273.66</ele>
        <time>2021-05-08T12:32:48Z</time>
      </trkpt>
      <trkpt lat="41.68372" lon="9.2471">
        <ele>273.73</ele>
        <time>2021-05-08T12:33:00Z</time>
      </trkpt>
      <trkpt lat="41.68377" lon="9.24722">
        <ele>273.69</ele>
        <time>2021-05-08T12:33:15Z</time>
      </trkpt>
      <trkpt lat="41.68377" lon="9.24728">
        <ele>272.86</ele>
        <time>2021-05-08T12:33:21Z</time>
      </trkpt>
      <trkpt lat="41.68379" lon="9.24731">
        <ele>272.85</ele>
        <time>2021-05-08T12:33:25Z</time>
      </trkpt>
      <trkpt lat="41.68379" lon="9.24734">
        <ele>272.84</ele>
        <time>2021-05-08T12:33:27Z</time>
      </trkpt>
      <trkpt lat="41.6838" lon="9.24746">
        <ele>271.95</ele>
        <time>2021-05-08T12:33:37Z</time>
      </trkpt>
      <trkpt lat="41.68385" lon="9.24757">
        <ele>271.94</ele>
        <time>2021-05-08T12:33:49Z</time>
      </trkpt>
      <trkpt lat="41.68389" lon="9.2477">
        <ele>271.04</ele>
        <time>2021-05-08T12:34:03Z</time>
      </trkpt>
      <trkpt lat="41.6839" lon="9.24774">
        <ele>271.03</ele>
        <time>2021-05-08T12:34:06Z</time>
      </trkpt>
      <trkpt lat="41.68391" lon="9.24789">
        <ele>270.25</ele>
        <time>2021-05-08T12:34:18Z</time>
      </trkpt>
      <trkpt lat="41.68395" lon="9.24801">
        <ele>270.23</ele>
        <time>2021-05-08T12:34:27Z</time>
      </trkpt>
      <trkpt lat="41.68398" lon="9.24803">
        <ele>270.21</ele>
        <time>2021-05-08T12:34:30Z</time>
      </trkpt>
      <trkpt lat="41.68405" lon="9.24818">
        <ele>270.18</ele>
        <time>2021-05-08T12:34:44Z</time>
      </trkpt>
      <trkpt lat="41.68413" lon="9.24833">
        <ele>270.15</ele>
        <time>2021-05-08T12:34:58Z</time>
      </trkpt>
      <trkpt lat="41.68415" lon="9.24837">
        <ele>270.15</ele>
        <time>2021-05-08T12:35:01Z</time>
      </trkpt>
      <trkpt lat="41.68417" lon="9.24844">
        <ele>269.39</ele>
        <time>2021-05-08T12:35:06Z</time>
      </trkpt>
      <trkpt lat="41.6842" lon="9.24851">
        <ele>269.41</ele>
        <time>2021-05-08T12:35:13Z</time>
      </trkpt>
      <trkpt lat="41.68425" lon="9.24859">
        <ele>269.42</ele>
        <time>2021-05-08T12:35:21Z</time>
      </trkpt>
      <trkpt lat="41.68426" lon="9.24861">
        <ele>269.43</ele>
        <time>2021-05-08T12:35:23Z</time>
      </trkpt>
      <trkpt lat="41.68433" lon="9.24872">
        <ele>269.5</ele>
        <time>2021-05-08T12:35:36Z</time>
      </trkpt>
      <trkpt lat="41.68435" lon="9.24881">
        <ele>269.55</ele>
        <time>2021-05-08T12:35:44Z</time>
      </trkpt>
      <trkpt lat="41.6844" lon="9.24895">
        <ele>269.59</ele>
        <time>2021-05-08T12:35:58Z</time>
      </trkpt>
      <trkpt lat="41.68444" lon="9.24913">
        <ele>267.02</ele>
        <time>2021-05-08T12:36:17Z</time>
      </trkpt>
      <trkpt lat="41.68452" lon="9.24936">
        <ele>267.11</ele>
        <time>2021-05-08T12:36:35Z</time>
      </trkpt>
      <trkpt lat="41.68461" lon="9.24949">
        <ele>267.23</ele>
        <time>2021-05-08T12:36:51Z</time>
      </trkpt>
      <trkpt lat="41.68471" lon="9.24965">
        <ele>267.28</ele>
        <time>2021-05-08T12:37:06Z</time>
      </trkpt>
      <trkpt lat="41.68473" lon="9.24969">
        <ele>269.56</ele>
        <time>2021-05-08T12:37:10Z</time>
      </trkpt>
      <trkpt lat="41.68474" lon="9.24974">
        <ele>269.57</ele>
        <time>2021-05-08T12:37:13Z</time>
      </trkpt>
      <trkpt lat="41.68482" lon="9.24998">
        <ele>269.63</ele>
        <time>2021-05-08T12:37:31Z</time>
      </trkpt>
      <trkpt lat="41.68482" lon="9.25005">
        <ele>269.65</ele>
        <time>2021-05-08T12:37:35Z</time>
      </trkpt>
      <trkpt lat="41.68489" lon="9.2502">
        <ele>269.65</ele>
        <time>2021-05-08T12:37:50Z</time>
      </trkpt>
      <trkpt lat="41.68493" lon="9.25035">
        <ele>269.72</ele>
        <time>2021-05-08T12:38:03Z</time>
      </trkpt>
      <trkpt lat="41.68493" lon="9.25049">
        <ele>270.56</ele>
        <time>2021-05-08T12:38:16Z</time>
      </trkpt>
      <trkpt lat="41.68495" lon="9.2506">
        <ele>270.58</ele>
        <time>2021-05-08T12:38:25Z</time>
      </trkpt>
      <trkpt lat="41.68493" lon="9.25064">
        <ele>270.59</ele>
        <time>2021-05-08T12:38:28Z</time>
      </trkpt>
      <trkpt lat="41.68498" lon="9.25082">
        <ele>271.51</ele>
        <time>2021-05-08T12:38:45Z</time>
      </trkpt>
      <trkpt lat="41.68506" lon="9.25095">
        <ele>274.07</ele>
        <time>2021-05-08T12:39:05Z</time>
      </trkpt>
      <trkpt lat="41.68512" lon="9.25112">
        <ele>275.73</ele>
        <time>2021-05-08T12:39:23Z</time>
      </trkpt>
      <trkpt lat="41.68519" lon="9.25133">
        <ele>275.79</ele>
        <time>2021-05-08T12:39:42Z</time>
      </trkpt>
      <trkpt lat="41.68525" lon="9.25161">
        <ele>275.89</ele>
        <time>2021-05-08T12:39:59Z</time>
      </trkpt>
      <trkpt lat="41.68527" lon="9.25174">
        <ele>275.92</ele>
        <time>2021-05-08T12:40:06Z</time>
      </trkpt>
      <trkpt lat="41.68524" lon="9.25194">
        <ele>276.77</ele>
        <time>2021-05-08T12:40:22Z</time>
      </trkpt>
      <trkpt lat="41.68521" lon="9.25209">
        <ele>279.36</ele>
        <time>2021-05-08T12:40:36Z</time>
      </trkpt>
      <trkpt lat="41.68521" lon="9.25221">
        <ele>281.66</ele>
        <time>2021-05-08T12:40:51Z</time>
      </trkpt>
      <trkpt lat="41.68517" lon="9.25233">
        <ele>282.42</ele>
        <time>2021-05-08T12:41:02Z</time>
      </trkpt>
      <trkpt lat="41.68515" lon="9.25247">
        <ele>280.59</ele>
        <time>2021-05-08T12:41:15Z</time>
      </trkpt>
      <trkpt lat="41.68511" lon="9.25261">
        <ele>276.86</ele>
        <time>2021-05-08T12:41:29Z</time>
      </trkpt>
      <trkpt lat="41.68514" lon="9.25276">
        <ele>275.06</ele>
        <time>2021-05-08T12:41:42Z</time>
      </trkpt>
      <trkpt lat="41.68514" lon="9.2529">
        <ele>272.21</ele>
        <time>2021-05-08T12:42:00Z</time>
      </trkpt>
      <trkpt lat="41.68513" lon="9.25296">
        <ele>269.82</ele>
        <time>2021-05-08T12:42:06Z</time>
      </trkpt>
      <trkpt lat="41.68511" lon="9.25309">
        <ele>268.91</ele>
        <time>2021-05-08T12:42:18Z</time>
      </trkpt>
      <trkpt lat="41.68512" lon="9.25313">
        <ele>268.06</ele>
        <time>2021-05-08T12:42:22Z</time>
      </trkpt>
      <trkpt lat="41.68513" lon="9.25315">
        <ele>268.04</ele>
        <time>2021-05-08T12:42:24Z</time>
      </trkpt>
      <trkpt lat="41.68517" lon="9.2533">
        <ele>264.38</ele>
        <time>2021-05-08T12:42:37Z</time>
      </trkpt>
      <trkpt lat="41.68519" lon="9.25343">
        <ele>261.63</ele>
        <time>2021-05-08T12:42:50Z</time>
      </trkpt>
      <trkpt lat="41.6852" lon="9.25354">
        <ele>259</ele>
        <time>2021-05-08T12:43:01Z</time>
      </trkpt>
      <trkpt lat="41.68526" lon="9.25362">
        <ele>258.16</ele>
        <time>2021-05-08T12:43:09Z</time>
      </trkpt>
      <trkpt lat="41.68531" lon="9.25373">
        <ele>254.66</ele>
        <time>2021-05-08T12:43:23Z</time>
      </trkpt>
      <trkpt lat="41.68534" lon="9.25384">
        <ele>253.06</ele>
        <time>2021-05-08T12:43:35Z</time>
      </trkpt>
      <trkpt lat="41.6854" lon="9.25396">
        <ele>250.18</ele>
        <time>2021-05-08T12:43:48Z</time>
      </trkpt>
      <trkpt lat="41.68543" lon="9.25408">
        <ele>247.45</ele>
        <time>2021-05-08T12:44:00Z</time>
      </trkpt>
      <trkpt lat="41.68548" lon="9.25418">
        <ele>244.93</ele>
        <time>2021-05-08T12:44:14Z</time>
      </trkpt>
      <trkpt lat="41.68554" lon="9.25428">
        <ele>243.15</ele>
        <time>2021-05-08T12:44:26Z</time>
      </trkpt>
      <trkpt lat="41.68565" lon="9.25434">
        <ele>240.44</ele>
        <time>2021-05-08T12:44:41Z</time>
      </trkpt>
      <trkpt lat="41.6857" lon="9.25437">
        <ele>236.98</ele>
        <time>2021-05-08T12:44:56Z</time>
      </trkpt>
      <trkpt lat="41.68569" lon="9.25451">
        <ele>234.27</ele>
        <time>2021-05-08T12:45:14Z</time>
      </trkpt>
      <trkpt lat="41.68571" lon="9.25459">
        <ele>234.23</ele>
        <time>2021-05-08T12:45:32Z</time>
      </trkpt>
      <trkpt lat="41.68569" lon="9.25472">
        <ele>234.13</ele>
        <time>2021-05-08T12:45:52Z</time>
      </trkpt>
      <trkpt lat="41.68568" lon="9.25475">
        <ele>234.12</ele>
        <time>2021-05-08T12:45:54Z</time>
      </trkpt>
      <trkpt lat="41.68563" lon="9.25493">
        <ele>234.04</ele>
        <time>2021-05-08T12:46:09Z</time>
      </trkpt>
      <trkpt lat="41.68563" lon="9.25494">
        <ele>234.03</ele>
        <time>2021-05-08T12:46:10Z</time>
      </trkpt>
      <trkpt lat="41.68564" lon="9.25506">
        <ele>233.98</ele>
        <time>2021-05-08T12:46:21Z</time>
      </trkpt>
      <trkpt lat="41.68566" lon="9.25518">
        <ele>233.11</ele>
        <time>2021-05-08T12:46:34Z</time>
      </trkpt>
      <trkpt lat="41.68568" lon="9.25538">
        <ele>233.1</ele>
        <time>2021-05-08T12:46:49Z</time>
      </trkpt>
      <trkpt lat="41.68569" lon="9.25544">
        <ele>233.1</ele>
        <time>2021-05-08T12:46:54Z</time>
      </trkpt>
      <trkpt lat="41.68572" lon="9.25559">
        <ele>233.09</ele>
        <time>2021-05-08T12:47:07Z</time>
      </trkpt>
      <trkpt lat="41.68575" lon="9.25565">
        <ele>235.4</ele>
        <time>2021-05-08T12:47:16Z</time>
      </trkpt>
      <trkpt lat="41.68576" lon="9.25577">
        <ele>237.04</ele>
        <time>2021-05-08T12:47:31Z</time>
      </trkpt>
      <trkpt lat="41.68577" lon="9.25596">
        <ele>237.04</ele>
        <time>2021-05-08T12:47:48Z</time>
      </trkpt>
      <trkpt lat="41.68572" lon="9.25616">
        <ele>237.08</ele>
        <time>2021-05-08T12:48:07Z</time>
      </trkpt>
      <trkpt lat="41.68571" lon="9.25629">
        <ele>234.82</ele>
        <time>2021-05-08T12:48:19Z</time>
      </trkpt>
      <trkpt lat="41.68566" lon="9.25649">
        <ele>232.36</ele>
        <time>2021-05-08T12:48:38Z</time>
      </trkpt>
      <trkpt lat="41.68563" lon="9.25665">
        <ele>232.48</ele>
        <time>2021-05-08T12:48:52Z</time>
      </trkpt>
      <trkpt lat="41.68562" lon="9.25676">
        <ele>234.79</ele>
        <time>2021-05-08T12:49:03Z</time>
      </trkpt>
      <trkpt lat="41.68557" lon="9.25685">
        <ele>232.29</ele>
        <time>2021-05-08T12:49:13Z</time>
      </trkpt>
      <trkpt lat="41.68555" lon="9.25703">
        <ele>228.84</ele>
        <time>2021-05-08T12:49:26Z</time>
      </trkpt>
      <trkpt lat="41.68551" lon="9.25716">
        <ele>226.2</ele>
        <time>2021-05-08T12:49:40Z</time>
      </trkpt>
      <trkpt lat="41.68551" lon="9.25729">
        <ele>224.36</ele>
        <time>2021-05-08T12:49:55Z</time>
      </trkpt>
      <trkpt lat="41.68551" lon="9.25738">
        <ele>222.76</ele>
        <time>2021-05-08T12:50:03Z</time>
      </trkpt>
      <trkpt lat="41.68556" lon="9.25754">
        <ele>220.06</ele>
        <time>2021-05-08T12:50:20Z</time>
      </trkpt>
      <trkpt lat="41.68556" lon="9.25765">
        <ele>216.69</ele>
        <time>2021-05-08T12:50:32Z</time>
      </trkpt>
      <trkpt lat="41.6856" lon="9.25783">
        <ele>215.64</ele>
        <time>2021-05-08T12:50:52Z</time>
      </trkpt>
      <trkpt lat="41.6856" lon="9.2579">
        <ele>214.85</ele>
        <time>2021-05-08T12:50:59Z</time>
      </trkpt>
      <trkpt lat="41.6856" lon="9.25813">
        <ele>213.66</ele>
        <time>2021-05-08T12:51:14Z</time>
      </trkpt>
      <trkpt lat="41.68562" lon="9.25823">
        <ele>213.61</ele>
        <time>2021-05-08T12:51:23Z</time>
      </trkpt>
      <trkpt lat="41.68568" lon="9.25835">
        <ele>213.52</ele>
        <time>2021-05-08T12:51:36Z</time>
      </trkpt>
      <trkpt lat="41.68572" lon="9.2584">
        <ele>213.48</ele>
        <time>2021-05-08T12:51:41Z</time>
      </trkpt>
      <trkpt lat="41.68584" lon="9.25852">
        <ele>212.5</ele>
        <time>2021-05-08T12:51:56Z</time>
      </trkpt>
      <trkpt lat="41.68597" lon="9.25859">
        <ele>212.46</ele>
        <time>2021-05-08T12:52:10Z</time>
      </trkpt>
      <trkpt lat="41.68605" lon="9.25873">
        <ele>212.46</ele>
        <time>2021-05-08T12:52:27Z</time>
      </trkpt>
      <trkpt lat="41.68606" lon="9.25875">
        <ele>214.71</ele>
        <time>2021-05-08T12:52:29Z</time>
      </trkpt>
      <trkpt lat="41.68617" lon="9.25886">
        <ele>216.26</ele>
        <time>2021-05-08T12:52:44Z</time>
      </trkpt>
      <trkpt lat="41.68623" lon="9.25889">
        <ele>216.26</ele>
        <time>2021-05-08T12:52:51Z</time>
      </trkpt>
      <trkpt lat="41.68627" lon="9.25893">
        <ele>216.26</ele>
        <time>2021-05-08T12:52:57Z</time>
      </trkpt>
      <trkpt lat="41.68638" lon="9.25907">
        <ele>217.12</ele>
        <time>2021-05-08T12:53:13Z</time>
      </trkpt>
      <trkpt lat="41.6864" lon="9.25918">
        <ele>217.91</ele>
        <time>2021-05-08T12:53:29Z</time>
      </trkpt>
      <trkpt lat="41.68653" lon="9.25933">
        <ele>218.74</ele>
        <time>2021-05-08T12:53:51Z</time>
      </trkpt>
      <trkpt lat="41.68658" lon="9.25947">
        <ele>219.55</ele>
        <time>2021-05-08T12:54:07Z</time>
      </trkpt>
      <trkpt lat="41.68665" lon="9.25965">
        <ele>220.29</ele>
        <time>2021-05-08T12:54:21Z</time>
      </trkpt>
      <trkpt lat="41.68666" lon="9.25968">
        <ele>220.29</ele>
        <time>2021-05-08T12:54:23Z</time>
      </trkpt>
      <trkpt lat="41.68675" lon="9.25977">
        <ele>220.26</ele>
        <time>2021-05-08T12:54:35Z</time>
      </trkpt>
      <trkpt lat="41.6868" lon="9.25984">
        <ele>220.22</ele>
        <time>2021-05-08T12:54:48Z</time>
      </trkpt>
      <trkpt lat="41.68684" lon="9.25991">
        <ele>220.17</ele>
        <time>2021-05-08T12:55:03Z</time>
      </trkpt>
      <trkpt lat="41.68691" lon="9.25995">
        <ele>220.13</ele>
        <time>2021-05-08T12:55:16Z</time>
      </trkpt>
      <trkpt lat="41.68703" lon="9.26007">
        <ele>220.07</ele>
        <time>2021-05-08T12:55:31Z</time>
      </trkpt>
      <trkpt lat="41.68709" lon="9.26019">
        <ele>220.03</ele>
        <time>2021-05-08T12:55:43Z</time>
      </trkpt>
      <trkpt lat="41.68709" lon="9.26021">
        <ele>220.03</ele>
        <time>2021-05-08T12:55:45Z</time>
      </trkpt>
      <trkpt lat="41.68714" lon="9.26036">
        <ele>220.91</ele>
        <time>2021-05-08T12:56:00Z</time>
      </trkpt>
      <trkpt lat="41.68714" lon="9.26038">
        <ele>220.83</ele>
        <time>2021-05-08T12:56:02Z</time>
      </trkpt>
      <trkpt lat="41.68714" lon="9.26045">
        <ele>221.58</ele>
        <time>2021-05-08T12:56:23Z</time>
      </trkpt>
      <trkpt lat="41.68715" lon="9.2605">
        <ele>221.56</ele>
        <time>2021-05-08T12:56:42Z</time>
      </trkpt>
      <trkpt lat="41.68714" lon="9.26058">
        <ele>221.55</ele>
        <time>2021-05-08T12:56:50Z</time>
      </trkpt>
      <trkpt lat="41.68715" lon="9.26064">
        <ele>221.53</ele>
        <time>2021-05-08T12:56:58Z</time>
      </trkpt>
      <trkpt lat="41.68714" lon="9.26069">
        <ele>221.53</ele>
        <time>2021-05-08T12:57:02Z</time>
      </trkpt>
      <trkpt lat="41.68715" lon="9.26084">
        <ele>221.51</ele>
        <time>2021-05-08T12:57:17Z</time>
      </trkpt>
      <trkpt lat="41.68717" lon="9.26096">
        <ele>221.5</ele>
        <time>2021-05-08T12:57:27Z</time>
      </trkpt>
      <trkpt lat="41.68716" lon="9.26098">
        <ele>221.5</ele>
        <time>2021-05-08T12:57:28Z</time>
      </trkpt>
      <trkpt lat="41.68718" lon="9.26109">
        <ele>221.51</ele>
        <time>2021-05-08T12:57:37Z</time>
      </trkpt>
      <trkpt lat="41.68724" lon="9.26123">
        <ele>222.41</ele>
        <time>2021-05-08T12:57:53Z</time>
      </trkpt>
      <trkpt lat="41.68731" lon="9.26121">
        <ele>224.83</ele>
        <time>2021-05-08T12:58:08Z</time>
      </trkpt>
      <trkpt lat="41.68737" lon="9.26131">
        <ele>227.54</ele>
        <time>2021-05-08T12:58:21Z</time>
      </trkpt>
      <trkpt lat="41.68741" lon="9.26135">
        <ele>228.19</ele>
        <time>2021-05-08T12:58:27Z</time>
      </trkpt>
      <trkpt lat="41.68747" lon="9.26149">
        <ele>228.14</ele>
        <time>2021-05-08T12:58:39Z</time>
      </trkpt>
      <trkpt lat="41.68751" lon="9.26155">
        <ele>228.05</ele>
        <time>2021-05-08T12:58:46Z</time>
      </trkpt>
      <trkpt lat="41.68754" lon="9.26163">
        <ele>225.65</ele>
        <time>2021-05-08T12:58:53Z</time>
      </trkpt>
      <trkpt lat="41.68756" lon="9.2617">
        <ele>225.64</ele>
        <time>2021-05-08T12:58:58Z</time>
      </trkpt>
      <trkpt lat="41.68761" lon="9.26184">
        <ele>224.77</ele>
        <time>2021-05-08T12:59:12Z</time>
      </trkpt>
      <trkpt lat="41.68761" lon="9.26186">
        <ele>224.01</ele>
        <time>2021-05-08T12:59:13Z</time>
      </trkpt>
      <trkpt lat="41.68769" lon="9.26206">
        <ele>222.29</ele>
        <time>2021-05-08T12:59:28Z</time>
      </trkpt>
      <trkpt lat="41.68775" lon="9.26216">
        <ele>222.15</ele>
        <time>2021-05-08T12:59:38Z</time>
      </trkpt>
      <trkpt lat="41.68777" lon="9.26223">
        <ele>221.21</ele>
        <time>2021-05-08T12:59:44Z</time>
      </trkpt>
      <trkpt lat="41.68779" lon="9.2623">
        <ele>220.21</ele>
        <time>2021-05-08T12:59:50Z</time>
      </trkpt>
      <trkpt lat="41.68784" lon="9.26242">
        <ele>218.34</ele>
        <time>2021-05-08T13:00:02Z</time>
      </trkpt>
      <trkpt lat="41.68788" lon="9.26249">
        <ele>216.71</ele>
        <time>2021-05-08T13:00:10Z</time>
      </trkpt>
      <trkpt lat="41.68792" lon="9.26259">
        <ele>214.93</ele>
        <time>2021-05-08T13:00:22Z</time>
      </trkpt>
      <trkpt lat="41.68795" lon="9.26274">
        <ele>212.3</ele>
        <time>2021-05-08T13:00:39Z</time>
      </trkpt>
      <trkpt lat="41.68796" lon="9.26282">
        <ele>208.92</ele>
        <time>2021-05-08T13:00:46Z</time>
      </trkpt>
      <trkpt lat="41.68795" lon="9.26284">
        <ele>208.92</ele>
        <time>2021-05-08T13:00:47Z</time>
      </trkpt>
      <trkpt lat="41.68796" lon="9.26285">
        <ele>208.92</ele>
        <time>2021-05-08T13:00:48Z</time>
      </trkpt>
      <trkpt lat="41.68793" lon="9.26297">
        <ele>207.17</ele>
        <time>2021-05-08T13:01:01Z</time>
      </trkpt>
      <trkpt lat="41.68789" lon="9.26309">
        <ele>203.26</ele>
        <time>2021-05-08T13:01:18Z</time>
      </trkpt>
      <trkpt lat="41.68788" lon="9.26322">
        <ele>200.56</ele>
        <time>2021-05-08T13:01:33Z</time>
      </trkpt>
      <trkpt lat="41.68792" lon="9.26331">
        <ele>198.84</ele>
        <time>2021-05-08T13:01:47Z</time>
      </trkpt>
      <trkpt lat="41.68806" lon="9.26348">
        <ele>198.85</ele>
        <time>2021-05-08T13:02:06Z</time>
      </trkpt>
      <trkpt lat="41.68816" lon="9.26356">
        <ele>197.97</ele>
        <time>2021-05-08T13:02:18Z</time>
      </trkpt>
      <trkpt lat="41.68826" lon="9.26359">
        <ele>196.23</ele>
        <time>2021-05-08T13:02:28Z</time>
      </trkpt>
      <trkpt lat="41.68843" lon="9.26363">
        <ele>194.44</ele>
        <time>2021-05-08T13:02:43Z</time>
      </trkpt>
      <trkpt lat="41.68857" lon="9.26372">
        <ele>193.67</ele>
        <time>2021-05-08T13:02:57Z</time>
      </trkpt>
      <trkpt lat="41.68865" lon="9.26378">
        <ele>193.71</ele>
        <time>2021-05-08T13:03:06Z</time>
      </trkpt>
      <trkpt lat="41.68868" lon="9.26385">
        <ele>193.65</ele>
        <time>2021-05-08T13:03:19Z</time>
      </trkpt>
      <trkpt lat="41.68868" lon="9.26387">
        <ele>193.61</ele>
        <time>2021-05-08T13:03:42Z</time>
      </trkpt>
      <trkpt lat="41.68867" lon="9.2639">
        <ele>200.43</ele>
        <time>2021-05-08T13:04:18Z</time>
      </trkpt>
      <trkpt lat="41.68867" lon="9.2639">
        <ele>200.43</ele>
        <time>2021-05-08T13:04:20Z</time>
      </trkpt>
    </trkseg>
  </trk>
</gpx>